Darstellungsparameter: Aktuell verwendete Einstellungen:
Skalierung der Graphiken ... ?
xyx+y,   Skalierungsfaktor:      Skalierung: Modus: x, Faktor: 1
Darstellungszeitraum ... ?
Vom - - bis: - -   Zeitraum: 15.07.2011 - 14.08.2011
Min/Max/Avg-Anzeige ... ?
Zeige MMA aktuell
Zeige MMA Monat
Zeige MMA alles
Zeige --A aktuell
Zeige --A Monat
Zeige --A alles
Keine MMA-Anzeige
MMA:
Keine MMA-Graphiken
MMA-Basis: 15.07.2011 - 14.08.2011
Quicknavigation für Darstellung... ?
Tage:      1T, 2T, 3T, 5T -1T -2T -3T -5T +1T +2T +3T +5T
Wochen: 1W, 2W, 3W -1W -2W -3W +1W +2W +3W
Monate: 1M, 3M, 6M -1M -3M -6M +1M +3M +6M
Jahre:    1J, 3J, 5J, 10J -1J -3J -5J -10J +1J +3J +5J +10J
Nutze für die Darstellung ... ?
Originaldaten oder Mittelwerte auf ...
Stundenbasis Tagesbasis Wochenbasis
Monatsbasis Jahresbasis      Datenbasis: Original-Daten
Darstellen als:
Statistik (Auto) Statistik J:M      Darstellung:
Zur Graphik,    zurück zur Übersicht aller Sensoren.
 
Tabellarische Datenbersicht: ?
 
Sensor: Nr:Datum:Temp:Feuchte:Taupunkt:
Aussen-T/F 1 15-07-2011 00:10:03 13.7 C 60 % 6.09 C
2 15-07-2011 00:22:03 13.6 C 60 % 5.99 C
3 15-07-2011 00:34:03 13.4 C 60 % 5.8 C
4 15-07-2011 00:46:03 13.5 C 59 % 5.65 C
5 15-07-2011 00:58:03 13.4 C 59 % 5.56 C
6 15-07-2011 01:10:03 13.5 C 59 % 5.65 C
7 15-07-2011 01:22:03 13.5 C 58 % 5.41 C
8 15-07-2011 01:34:03 13.5 C 58 % 5.41 C
9 15-07-2011 01:46:03 13.4 C 58 % 5.32 C
10 15-07-2011 01:58:04 13.4 C 58 % 5.32 C
11 15-07-2011 02:10:04 13.4 C 59 % 5.56 C
12 15-07-2011 02:22:04 13.4 C 59 % 5.56 C
13 15-07-2011 02:34:04 13.4 C 59 % 5.56 C
14 15-07-2011 02:46:04 13.5 C 58 % 5.41 C
15 15-07-2011 02:58:04 13.4 C 59 % 5.56 C
16 15-07-2011 03:10:04 13.5 C 59 % 5.65 C
17 15-07-2011 03:22:04 13.1 C 58 % 5.03 C
18 15-07-2011 03:34:04 13.6 C 58 % 5.5 C
19 15-07-2011 03:46:04 13.4 C 59 % 5.56 C
20 15-07-2011 03:58:04 13.3 C 59 % 5.47 C
21 15-07-2011 04:10:04 13.3 C 59 % 5.47 C
22 15-07-2011 04:22:04 13.5 C 58 % 5.41 C
23 15-07-2011 04:34:04 13.5 C 58 % 5.41 C
24 15-07-2011 04:46:04 13.6 C 57 % 5.25 C
25 15-07-2011 04:58:04 13.6 C 58 % 5.5 C
Sensor: Nr:Datum:Temp:Feuchte:Taupunkt:
Aussen-T/F 26 15-07-2011 05:10:04 13.4 C 60 % 5.8 C
27 15-07-2011 05:22:04 13.4 C 61 % 6.04 C
28 15-07-2011 05:34:04 13.4 C 60 % 5.8 C
29 15-07-2011 05:46:04 13.5 C 61 % 6.14 C
30 15-07-2011 05:58:04 13.3 C 62 % 6.18 C
31 15-07-2011 06:10:04 13.1 C 63 % 6.22 C
32 15-07-2011 06:22:04 13.4 C 62 % 6.28 C
33 15-07-2011 06:34:05 13.5 C 61 % 6.14 C
34 15-07-2011 06:46:05 13.7 C 60 % 6.09 C
35 15-07-2011 06:58:05 13.7 C 60 % 6.09 C
36 15-07-2011 07:10:05 13.7 C 60 % 6.09 C
37 15-07-2011 07:22:05 13.9 C 59 % 6.03 C
38 15-07-2011 07:34:03 14.2 C 58 % 6.06 C
39 15-07-2011 07:46:02 14.2 C 57 % 5.81 C
40 15-07-2011 07:58:02 14.4 C 57 % 6 C
41 15-07-2011 08:10:02 14.5 C 57 % 6.09 C
42 15-07-2011 08:22:02 14.7 C 57 % 6.28 C
43 15-07-2011 08:34:02 14.9 C 56 % 6.21 C
44 15-07-2011 08:46:01 15.4 C 54 % 6.15 C
45 15-07-2011 08:58:01 15.1 C 55 % 6.14 C
46 15-07-2011 09:10:01 15 C 56 % 6.3 C
47 15-07-2011 09:22:01 15.1 C 56 % 6.4 C
48 15-07-2011 09:34:02 15.4 C 55 % 6.42 C
49 15-07-2011 09:46:02 15.6 C 55 % 6.6 C
50 15-07-2011 09:58:02 16.9 C 49 % 6.13 C
Sensor: Nr:Datum:Temp:Feuchte:Taupunkt:
Aussen-T/F 51 15-07-2011 10:10:02 17.7 C 45 % 5.63 C
52 15-07-2011 10:22:02 18.2 C 41 % 4.75 C
53 15-07-2011 10:34:03 18.9 C 42 % 5.72 C
54 15-07-2011 10:46:02 19.3 C 36 % 3.87 C
55 15-07-2011 10:58:02 19.5 C 36 % 4.05 C
56 15-07-2011 11:10:02 19.5 C 35 % 3.65 C
57 15-07-2011 11:22:02 19.8 C 34 % 3.5 C
58 15-07-2011 11:34:03 20.8 C 32 % 3.52 C
59 15-07-2011 11:46:02 19.8 C 32 % 2.65 C
60 15-07-2011 11:58:02 19.8 C 31 % 2.2 C
61 15-07-2011 12:10:02 19.8 C 31 % 2.2 C
62 15-07-2011 12:22:01 20.1 C 31 % 2.46 C
63 15-07-2011 12:34:02 20.8 C 32 % 3.52 C
64 15-07-2011 12:46:02 21.3 C 30 % 3.04 C
65 15-07-2011 12:58:02 21.2 C 28 % 1.99 C
66 15-07-2011 13:10:02 23 C 26 % 2.48 C
67 15-07-2011 13:22:02 22.8 C 25 % 1.77 C
68 15-07-2011 13:34:02 23.5 C 20 % -0.73 C
69 15-07-2011 13:46:02 24.2 C 24 % 2.37 C
70 15-07-2011 13:58:02 24.8 C 20 % 0.34 C
71 15-07-2011 14:10:03 25.9 C 20 % 1.24 C
72 15-07-2011 14:22:02 27.1 C 20 % 2.23 C
73 15-07-2011 14:34:02 29.3 C 20 % 4.03 C
74 15-07-2011 14:46:03 29 C 20 % 3.79 C
75 15-07-2011 14:58:03 25.5 C 20 % 0.91 C
Sensor: Nr:Datum:Temp:Feuchte:Taupunkt:
Aussen-T/F 76 15-07-2011 15:10:04 28.1 C 20 % 3.05 C
77 15-07-2011 15:22:03 26.3 C 20 % 1.57 C
78 15-07-2011 15:34:03 27.6 C 20 % 2.64 C
79 15-07-2011 15:46:03 26.2 C 20 % 1.49 C
80 15-07-2011 15:58:03 28.7 C 20 % 3.54 C
81 15-07-2011 16:10:03 31.3 C 20 % 5.67 C
82 15-07-2011 16:22:03 28.2 C 20 % 3.13 C
83 15-07-2011 16:34:03 27.4 C 20 % 2.47 C
84 15-07-2011 16:46:02 25.7 C 20 % 1.08 C
85 15-07-2011 16:58:02 28 C 20 % 2.97 C
86 15-07-2011 17:10:03 27.3 C 20 % 2.39 C
87 15-07-2011 17:22:02 28.5 C 20 % 3.38 C
88 15-07-2011 17:34:03 25.2 C 20 % 0.67 C
89 15-07-2011 17:46:01 25.2 C 20 % 0.67 C
90 15-07-2011 17:58:01 25.6 C 20 % 1 C
91 15-07-2011 18:10:03 26.4 C 20 % 1.65 C
92 15-07-2011 18:22:02 24.3 C 20 % -0.07 C
93 15-07-2011 18:34:02 27.6 C 20 % 2.64 C
94 15-07-2011 18:46:02 29.6 C 20 % 4.28 C
95 15-07-2011 18:58:02 27.1 C 20 % 2.23 C
96 15-07-2011 19:10:05 28 C 20 % 2.97 C
97 15-07-2011 19:22:02 25.1 C 20 % 0.59 C
98 15-07-2011 19:34:02 23.2 C 20 % -0.98 C
99 15-07-2011 19:46:02 24.2 C 20 % -0.15 C
100 15-07-2011 19:58:02 24 C 20 % -0.32 C
Sensor: Nr:Datum:Temp:Feuchte:Taupunkt:
Aussen-T/F 101 15-07-2011 20:10:02 23 C 21 % -0.48 C
102 15-07-2011 20:22:02 22 C 23 % -0.06 C
103 15-07-2011 20:34:02 20.7 C 32 % 3.43 C
104 15-07-2011 20:46:02 19.9 C 35 % 4 C
105 15-07-2011 20:58:02 19.7 C 35 % 3.82 C
106 15-07-2011 21:10:03 18.6 C 40 % 4.75 C
107 15-07-2011 21:22:02 17.9 C 41 % 4.48 C
108 15-07-2011 21:34:02 17.4 C 39 % 3.32 C
109 15-07-2011 21:46:02 16.8 C 42 % 3.83 C
110 15-07-2011 21:58:02 16.2 C 42 % 3.29 C
111 15-07-2011 22:10:02 15.8 C 48 % 4.82 C
112 15-07-2011 22:22:01 15 C 47 % 3.79 C
113 15-07-2011 22:34:02 14.5 C 51 % 4.5 C
114 15-07-2011 22:47:02 14.1 C 51 % 4.13 C
115 15-07-2011 22:59:02 13.8 C 53 % 4.4 C
116 15-07-2011 23:11:02 13.4 C 52 % 3.76 C
117 15-07-2011 23:23:02 13.1 C 54 % 4.01 C
118 15-07-2011 23:35:02 13 C 55 % 4.18 C
119 15-07-2011 23:47:02 12.8 C 58 % 4.75 C
120 15-07-2011 23:59:02 12.4 C 58 % 4.38 C
121 16-07-2011 00:11:02 12.2 C 57 % 3.94 C
122 16-07-2011 00:23:02 12.3 C 58 % 4.28 C
123 16-07-2011 00:35:02 12.1 C 58 % 4.1 C
124 16-07-2011 00:47:02 11.9 C 59 % 4.15 C
125 16-07-2011 00:59:02 11.7 C 60 % 4.2 C
Sensor: Nr:Datum:Temp:Feuchte:Taupunkt:
Aussen-T/F 126 16-07-2011 01:11:02 11.3 C 62 % 4.29 C
127 16-07-2011 01:23:02 11.1 C 63 % 4.33 C
128 16-07-2011 01:35:02 10.8 C 65 % 4.49 C
129 16-07-2011 01:47:02 10.7 C 66 % 4.62 C
130 16-07-2011 01:59:02 10.6 C 68 % 4.95 C
131 16-07-2011 02:11:02 10.4 C 69 % 4.97 C
132 16-07-2011 02:23:02 10.3 C 70 % 5.08 C
133 16-07-2011 02:35:02 10.3 C 71 % 5.28 C
134 16-07-2011 02:47:02 10.1 C 71 % 5.09 C
135 16-07-2011 02:59:02 9.9 C 73 % 5.29 C
136 16-07-2011 03:11:03 9.8 C 74 % 5.39 C
137 16-07-2011 03:23:03 9.7 C 75 % 5.49 C
138 16-07-2011 03:35:03 9.7 C 76 % 5.68 C
139 16-07-2011 03:47:03 9.4 C 77 % 5.58 C
140 16-07-2011 03:59:03 9.1 C 76 % 5.1 C
141 16-07-2011 04:11:03 9 C 77 % 5.19 C
142 16-07-2011 04:23:03 8.9 C 79 % 5.46 C
143 16-07-2011 04:35:03 8.9 C 81 % 5.82 C
144 16-07-2011 04:47:03 8.7 C 81 % 5.63 C
145 16-07-2011 04:59:03 8.5 C 81 % 5.43 C
146 16-07-2011 05:11:03 8.5 C 82 % 5.61 C
147 16-07-2011 05:23:03 8.5 C 83 % 5.78 C
148 16-07-2011 05:35:03 8.4 C 83 % 5.69 C
149 16-07-2011 05:47:03 8.2 C 83 % 5.49 C
150 16-07-2011 05:59:03 8.5 C 84 % 5.96 C
Sensor: Nr:Datum:Temp:Feuchte:Taupunkt:
Aussen-T/F 151 16-07-2011 06:11:03 8.4 C 84 % 5.86 C
152 16-07-2011 06:23:03 8.5 C 84 % 5.96 C
153 16-07-2011 06:35:03 8.6 C 85 % 6.23 C
154 16-07-2011 06:47:03 8.8 C 85 % 6.42 C
155 16-07-2011 06:59:03 9.1 C 84 % 6.54 C
156 16-07-2011 07:11:03 9.8 C 84 % 7.23 C
157 16-07-2011 07:23:03 11 C 83 % 8.23 C
158 16-07-2011 07:35:04 11.7 C 79 % 8.18 C
159 16-07-2011 07:47:04 11.9 C 75 % 7.62 C
160 16-07-2011 07:59:04 12.6 C 71 % 7.49 C
161 16-07-2011 08:11:04 13.5 C 68 % 7.72 C
162 16-07-2011 08:23:02 13.7 C 65 % 7.25 C
163 16-07-2011 08:35:02 14.2 C 61 % 6.8 C
164 16-07-2011 08:47:02 14.8 C 59 % 6.87 C
165 16-07-2011 08:59:02 15.8 C 56 % 7.05 C
166 16-07-2011 09:11:03 16.5 C 53 % 6.9 C
167 16-07-2011 09:23:02 17.1 C 52 % 7.18 C
168 16-07-2011 09:35:02 17.7 C 49 % 6.86 C
169 16-07-2011 09:47:02 18.1 C 48 % 6.93 C
170 16-07-2011 09:59:02 19.7 C 43 % 6.78 C
171 16-07-2011 10:11:01 20.1 C 42 % 6.8 C
172 16-07-2011 10:23:02 20.3 C 46 % 8.31 C
173 16-07-2011 10:35:02 21.4 C 43 % 8.31 C
174 16-07-2011 10:47:01 22.5 C 30 % 4.08 C
175 16-07-2011 10:59:01 23.1 C 25 % 2.02 C
Sensor: Nr:Datum:Temp:Feuchte:Taupunkt:
Aussen-T/F 176 16-07-2011 11:11:02 24 C 23 % 1.61 C
177 16-07-2011 11:23:01 24.4 C 21 % 0.68 C
178 16-07-2011 11:35:01 25.2 C 21 % 1.34 C
179 16-07-2011 11:47:01 25.6 C 21 % 1.67 C
180 16-07-2011 11:59:01 26.3 C 20 % 1.57 C
181 16-07-2011 12:11:02 25.7 C 20 % 1.08 C
182 16-07-2011 12:23:01 26.2 C 21 % 2.17 C
183 16-07-2011 12:35:02 25.8 C 21 % 1.84 C
184 16-07-2011 12:47:01 26 C 20 % 1.32 C
185 16-07-2011 12:59:01 26 C 21 % 2 C
186 16-07-2011 13:11:02 26.7 C 20 % 1.9 C
187 16-07-2011 13:23:02 27.3 C 20 % 2.39 C
188 16-07-2011 13:35:01 27.2 C 20 % 2.31 C
189 16-07-2011 13:47:02 26.3 C 20 % 1.57 C
190 16-07-2011 13:59:02 26.6 C 20 % 1.82 C
191 16-07-2011 14:11:01 26.6 C 20 % 1.82 C
192 16-07-2011 14:23:02 26.8 C 21 % 2.67 C
193 16-07-2011 14:35:01 27.3 C 20 % 2.39 C
194 16-07-2011 14:47:02 27.4 C 20 % 2.47 C
195 16-07-2011 14:59:02 28.1 C 20 % 3.05 C
196 16-07-2011 15:11:01 27.9 C 20 % 2.88 C
197 16-07-2011 15:23:02 27.5 C 20 % 2.56 C
198 16-07-2011 15:35:01 27.7 C 20 % 2.72 C
199 16-07-2011 15:47:02 27 C 20 % 2.15 C
200 16-07-2011 15:59:03 27.3 C 20 % 2.39 C
Sensor: Nr:Datum:Temp:Feuchte:Taupunkt:
Aussen-T/F 201 16-07-2011 16:11:02 27.7 C 20 % 2.72 C
202 16-07-2011 16:23:02 27.9 C 20 % 2.88 C
203 16-07-2011 16:35:03 28.3 C 20 % 3.21 C
204 16-07-2011 16:47:01 27.5 C 20 % 2.56 C
205 16-07-2011 16:59:01 27.5 C 20 % 2.56 C
206 16-07-2011 17:11:02 26.8 C 20 % 1.98 C
207 16-07-2011 17:23:02 26.9 C 22 % 3.4 C
208 16-07-2011 17:35:02 26.4 C 21 % 2.33 C
209 16-07-2011 17:47:02 26.5 C 22 % 3.07 C
210 16-07-2011 17:59:02 25.5 C 24 % 3.47 C
211 16-07-2011 18:11:02 25.2 C 26 % 4.35 C
212 16-07-2011 18:23:02 25.1 C 25 % 3.71 C
213 16-07-2011 18:35:01 25 C 25 % 3.62 C
214 16-07-2011 18:47:02 24.9 C 25 % 3.54 C
215 16-07-2011 18:59:02 24.8 C 25 % 3.45 C
216 16-07-2011 19:11:01 24.5 C 26 % 3.76 C
217 16-07-2011 19:23:01 24.3 C 28 % 4.64 C
218 16-07-2011 19:35:02 24.3 C 26 % 3.59 C
219 16-07-2011 19:47:02 24.1 C 28 % 4.47 C
220 16-07-2011 19:59:02 23.7 C 29 % 4.63 C
221 16-07-2011 20:11:02 23.4 C 30 % 4.85 C
222 16-07-2011 20:23:02 23.2 C 30 % 4.68 C
223 16-07-2011 20:35:02 22.5 C 36 % 6.7 C
224 16-07-2011 20:47:02 21.9 C 39 % 7.33 C
225 16-07-2011 20:59:02 21.4 C 40 % 7.25 C
Sensor: Nr:Datum:Temp:Feuchte:Taupunkt:
Aussen-T/F 226 16-07-2011 21:11:02 21.4 C 39 % 6.89 C
227 16-07-2011 21:23:02 21.3 C 40 % 7.16 C
228 16-07-2011 21:35:02 21.3 C 39 % 6.8 C
229 16-07-2011 21:47:01 22.6 C 36 % 6.78 C
230 16-07-2011 21:59:01 22.1 C 38 % 7.13 C
231 16-07-2011 22:11:02 21.5 C 41 % 7.7 C
232 16-07-2011 22:24:02 20.9 C 46 % 8.86 C
233 16-07-2011 22:36:02 20.3 C 46 % 8.31 C
234 16-07-2011 22:48:02 19.8 C 50 % 9.09 C
235 16-07-2011 23:00:02 19.7 C 50 % 8.99 C
236 16-07-2011 23:12:02 19.7 C 50 % 8.99 C
237 16-07-2011 23:24:02 19.8 C 49 % 8.79 C
238 16-07-2011 23:36:02 20.9 C 46 % 8.86 C
239 16-07-2011 23:48:02 19.9 C 54 % 10.32 C
240 17-07-2011 00:00:02 19.1 C 59 % 10.91 C
241 17-07-2011 00:12:02 18.2 C 65 % 11.52 C
242 17-07-2011 00:24:02 17.4 C 72 % 12.3 C
243 17-07-2011 00:36:02 17 C 76 % 12.74 C
244 17-07-2011 00:48:02 16.8 C 79 % 13.14 C
245 17-07-2011 01:00:02 16.6 C 81 % 13.33 C
246 17-07-2011 01:12:02 16.5 C 82 % 13.42 C
247 17-07-2011 01:24:02 16.4 C 83 % 13.51 C
248 17-07-2011 01:36:02 16.4 C 84 % 13.69 C
249 17-07-2011 01:48:02 16.5 C 85 % 13.97 C
250 17-07-2011 02:00:02 16.6 C 85 % 14.07 C
Sensor: Nr:Datum:Temp:Feuchte:Taupunkt:
Aussen-T/F 251 17-07-2011 02:12:02 16.5 C 86 % 14.15 C
252 17-07-2011 02:24:02 16.5 C 86 % 14.15 C
253 17-07-2011 02:36:02 16.5 C 86 % 14.15 C
254 17-07-2011 02:48:03 16.5 C 87 % 14.33 C
255 17-07-2011 03:00:03 16.6 C 87 % 14.43 C
256 17-07-2011 03:12:03 16.5 C 87 % 14.33 C
257 17-07-2011 03:24:03 16.5 C 88 % 14.51 C
258 17-07-2011 03:36:03 16.5 C 88 % 14.51 C
259 17-07-2011 03:48:03 16.5 C 88 % 14.51 C
260 17-07-2011 04:00:03 16.5 C 88 % 14.51 C
261 17-07-2011 04:12:03 16.5 C 88 % 14.51 C
262 17-07-2011 04:24:03 16.6 C 88 % 14.6 C
263 17-07-2011 04:36:03 16.8 C 88 % 14.8 C
264 17-07-2011 04:48:03 16.4 C 88 % 14.41 C
265 17-07-2011 05:00:03 16.3 C 88 % 14.31 C
266 17-07-2011 05:12:03 16.2 C 88 % 14.21 C
267 17-07-2011 05:24:03 16.2 C 88 % 14.21 C
268 17-07-2011 05:36:03 16.2 C 88 % 14.21 C
269 17-07-2011 05:48:03 16.2 C 88 % 14.21 C
270 17-07-2011 06:00:03 16.2 C 88 % 14.21 C
271 17-07-2011 06:12:03 16.2 C 89 % 14.39 C
272 17-07-2011 06:24:03 16.2 C 89 % 14.39 C
273 17-07-2011 06:36:03 16 C 89 % 14.19 C
274 17-07-2011 06:48:03 16 C 89 % 14.19 C
275 17-07-2011 07:00:03 16 C 89 % 14.19 C
Sensor: Nr:Datum:Temp:Feuchte:Taupunkt:
Aussen-T/F 276 17-07-2011 07:12:04 15.9 C 89 % 14.09 C
277 17-07-2011 07:24:04 15.9 C 89 % 14.09 C
278 17-07-2011 07:36:04 15.8 C 89 % 13.99 C
279 17-07-2011 07:48:04 15.8 C 89 % 13.99 C
280 17-07-2011 08:00:04 15.9 C 89 % 14.09 C
281 17-07-2011 08:12:04 16 C 89 % 14.19 C
282 17-07-2011 08:24:02 15.6 C 89 % 13.79 C
283 17-07-2011 08:36:02 15.4 C 89 % 13.6 C
284 17-07-2011 08:48:02 15.3 C 88 % 13.33 C
285 17-07-2011 09:00:02 15.5 C 88 % 13.52 C
286 17-07-2011 09:12:02 15.6 C 88 % 13.62 C
287 17-07-2011 09:24:02 15.4 C 87 % 13.25 C
288 17-07-2011 09:36:02 16.2 C 84 % 13.5 C
289 17-07-2011 09:48:02 16.2 C 81 % 12.94 C
290 17-07-2011 10:00:02 16.8 C 79 % 13.14 C
291 17-07-2011 10:12:02 17.3 C 74 % 12.62 C
292 17-07-2011 10:24:01 18 C 71 % 12.67 C
293 17-07-2011 10:36:03 18.2 C 69 % 12.42 C
294 17-07-2011 10:48:02 18 C 70 % 12.45 C
295 17-07-2011 11:00:02 18.4 C 70 % 12.83 C
296 17-07-2011 11:12:03 19.2 C 65 % 12.47 C
297 17-07-2011 11:24:02 19.4 C 65 % 12.66 C
298 17-07-2011 11:36:02 19.2 C 64 % 12.23 C
299 17-07-2011 11:48:02 20.2 C 61 % 12.44 C
300 17-07-2011 12:00:02 20.5 C 57 % 11.7 C
Sensor: Nr:Datum:Temp:Feuchte:Taupunkt:
Aussen-T/F 301 17-07-2011 12:12:03 21.2 C 54 % 11.53 C
302 17-07-2011 12:24:02 20.4 C 56 % 11.33 C
303 17-07-2011 12:36:02 20.2 C 58 % 11.68 C
304 17-07-2011 12:48:01 20.7 C 59 % 12.41 C
305 17-07-2011 13:00:01 21 C 52 % 10.78 C
306 17-07-2011 13:12:02 20.5 C 51 % 10.02 C
307 17-07-2011 13:24:02 20 C 48 % 8.67 C
308 17-07-2011 13:36:01 19.4 C 48 % 8.12 C
309 17-07-2011 13:48:02 20.1 C 50 % 9.36 C
310 17-07-2011 14:00:02 20.6 C 47 % 8.9 C
311 17-07-2011 14:12:01 19.5 C 49 % 8.51 C
312 17-07-2011 14:24:02 18.7 C 53 % 8.93 C
313 17-07-2011 14:36:01 18.2 C 52 % 8.19 C
314 17-07-2011 14:48:02 19.2 C 47 % 7.63 C
315 17-07-2011 15:00:02 20 C 43 % 7.05 C
316 17-07-2011 15:12:02 19.9 C 45 % 7.63 C
317 17-07-2011 15:24:02 19.9 C 44 % 7.3 C
318 17-07-2011 15:36:03 20.2 C 41 % 6.54 C
319 17-07-2011 15:48:02 21.2 C 38 % 6.33 C
320 17-07-2011 16:00:02 21.2 C 37 % 5.94 C
321 17-07-2011 16:12:01 21 C 36 % 5.37 C
322 17-07-2011 16:24:02 21.1 C 35 % 5.06 C
323 17-07-2011 16:36:02 20.3 C 38 % 5.53 C
324 17-07-2011 16:48:02 20.4 C 38 % 5.62 C
325 17-07-2011 17:00:02 19.8 C 41 % 6.18 C
Sensor: Nr:Datum:Temp:Feuchte:Taupunkt:
Aussen-T/F 326 17-07-2011 17:12:03 20.4 C 37 % 5.24 C
327 17-07-2011 17:24:02 19.4 C 40 % 5.47 C
328 17-07-2011 17:36:02 19.2 C 41 % 5.64 C
329 17-07-2011 17:48:01 19.3 C 40 % 5.38 C
330 17-07-2011 18:00:01 19.3 C 40 % 5.38 C
331 17-07-2011 18:12:02 20.3 C 38 % 5.53 C
332 17-07-2011 18:24:01 19.4 C 42 % 6.17 C
333 17-07-2011 18:36:02 18.4 C 43 % 5.61 C
334 17-07-2011 18:48:01 18.7 C 46 % 6.86 C
335 17-07-2011 19:00:01 18.4 C 46 % 6.58 C
336 17-07-2011 19:12:02 18.3 C 49 % 7.41 C
337 17-07-2011 19:24:01 18.1 C 46 % 6.31 C
338 17-07-2011 19:36:02 18.4 C 49 % 7.5 C
339 17-07-2011 19:48:01 17.8 C 50 % 7.25 C
340 17-07-2011 20:00:01 17.5 C 54 % 8.1 C
341 17-07-2011 20:12:02 17.3 C 53 % 7.64 C
342 17-07-2011 20:24:02 18.1 C 47 % 6.62 C
343 17-07-2011 20:36:02 18.4 C 46 % 6.58 C
344 17-07-2011 20:48:01 18.1 C 48 % 6.93 C
345 17-07-2011 21:00:01 17.5 C 55 % 8.37 C
346 17-07-2011 21:12:02 17.1 C 60 % 9.28 C
347 17-07-2011 21:24:02 16.9 C 57 % 8.34 C
348 17-07-2011 21:36:01 16.5 C 62 % 9.2 C
349 17-07-2011 21:48:02 16.4 C 59 % 8.38 C
350 17-07-2011 22:00:02 15.8 C 62 % 8.54 C
Sensor: Nr:Datum:Temp:Feuchte:Taupunkt:
Aussen-T/F 351 17-07-2011 22:12:02 15.8 C 61 % 8.3 C
352 17-07-2011 22:25:03 15.9 C 60 % 8.15 C
353 17-07-2011 22:37:03 16 C 55 % 6.97 C
354 17-07-2011 22:49:03 15.3 C 59 % 7.34 C
355 17-07-2011 23:01:03 14.8 C 63 % 7.83 C
356 17-07-2011 23:13:04 15.4 C 57 % 6.93 C
357 17-07-2011 23:25:04 15.8 C 56 % 7.05 C
358 17-07-2011 23:37:04 15.8 C 56 % 7.05 C
359 17-07-2011 23:49:04 15.6 C 58 % 7.37 C
360 18-07-2011 00:01:04 15.9 C 60 % 8.15 C
361 18-07-2011 00:13:04 15.5 C 62 % 8.26 C
362 18-07-2011 00:25:04 15.6 C 63 % 8.59 C
363 18-07-2011 00:37:04 15.3 C 64 % 8.54 C
364 18-07-2011 00:49:04 15.1 C 66 % 8.8 C
365 18-07-2011 01:01:04 14.5 C 71 % 9.31 C
366 18-07-2011 01:13:04 14.5 C 72 % 9.52 C
367 18-07-2011 01:25:04 14.5 C 72 % 9.52 C
368 18-07-2011 01:37:04 14.5 C 72 % 9.52 C
369 18-07-2011 01:49:04 14.4 C 72 % 9.42 C
370 18-07-2011 02:01:04 14.3 C 72 % 9.33 C
371 18-07-2011 02:13:04 14.1 C 73 % 9.34 C
372 18-07-2011 02:25:04 13.7 C 75 % 9.35 C
373 18-07-2011 02:37:04 14 C 75 % 9.64 C
374 18-07-2011 02:49:04 13.9 C 77 % 9.94 C
375 18-07-2011 03:01:04 13.4 C 80 % 10.02 C
Sensor: Nr:Datum:Temp:Feuchte:Taupunkt:
Aussen-T/F 376 18-07-2011 03:13:04 13 C 82 % 10 C
377 18-07-2011 03:25:04 12.7 C 84 % 10.07 C
378 18-07-2011 03:37:05 12.9 C 86 % 10.62 C
379 18-07-2011 03:49:05 12.6 C 86 % 10.32 C
380 18-07-2011 04:01:05 12.2 C 86 % 9.93 C
381 18-07-2011 04:13:05 12.3 C 87 % 10.2 C
382 18-07-2011 04:25:05 12.7 C 87 % 10.59 C
383 18-07-2011 04:37:05 12.9 C 86 % 10.62 C
384 18-07-2011 04:49:05 13.1 C 84 % 10.46 C
385 18-07-2011 05:01:05 13.2 C 81 % 10.01 C
386 18-07-2011 05:13:05 12.9 C 82 % 9.9 C
387 18-07-2011 05:25:05 13.1 C 82 % 10.1 C
388 18-07-2011 05:37:05 13.1 C 83 % 10.28 C
389 18-07-2011 05:49:05 13.4 C 81 % 10.21 C
390 18-07-2011 06:01:05 13 C 78 % 9.26 C
391 18-07-2011 06:13:05 12.8 C 80 % 9.44 C
392 18-07-2011 06:25:05 13 C 81 % 9.82 C
393 18-07-2011 06:37:05 13.4 C 79 % 9.84 C
394 18-07-2011 06:49:05 13.5 C 77 % 9.55 C
395 18-07-2011 07:01:05 14.4 C 73 % 9.63 C
396 18-07-2011 07:13:05 15.5 C 66 % 9.18 C
397 18-07-2011 07:25:05 15.9 C 64 % 9.11 C
398 18-07-2011 07:37:03 16 C 62 % 8.73 C
399 18-07-2011 07:49:02 15.6 C 65 % 9.05 C
400 18-07-2011 08:01:02 15.7 C 65 % 9.15 C
Sensor: Nr:Datum:Temp:Feuchte:Taupunkt:
Aussen-T/F 401 18-07-2011 08:13:02 15.8 C 65 % 9.24 C
402 18-07-2011 08:25:02 16 C 62 % 8.73 C
403 18-07-2011 08:37:01 16.4 C 61 % 8.87 C
404 18-07-2011 08:49:02 16.6 C 60 % 8.81 C
405 18-07-2011 09:01:01 16.9 C 58 % 8.59 C
406 18-07-2011 09:13:01 16.7 C 57 % 8.15 C
407 18-07-2011 09:25:02 17.4 C 55 % 8.28 C
408 18-07-2011 09:37:02 17.4 C 53 % 7.73 C
409 18-07-2011 09:49:02 17.3 C 53 % 7.64 C
410 18-07-2011 10:01:02 17.1 C 54 % 7.73 C
411 18-07-2011 10:13:02 17.6 C 53 % 7.92 C
412 18-07-2011 10:25:02 17.5 C 51 % 7.26 C
413 18-07-2011 10:37:03 17.5 C 51 % 7.26 C
414 18-07-2011 10:49:02 18.2 C 49 % 7.32 C
415 18-07-2011 11:01:02 18.7 C 47 % 7.17 C
416 18-07-2011 11:13:02 18.3 C 48 % 7.11 C
417 18-07-2011 11:25:02 18.5 C 47 % 6.99 C
418 18-07-2011 11:37:02 18.6 C 48 % 7.39 C
419 18-07-2011 11:49:02 19 C 45 % 6.81 C
420 18-07-2011 12:01:02 18.9 C 46 % 7.04 C
421 18-07-2011 12:13:02 18.7 C 45 % 6.54 C
422 18-07-2011 12:25:02 19.2 C 43 % 6.33 C
423 18-07-2011 12:37:02 19.9 C 42 % 6.62 C
424 18-07-2011 12:49:02 19.7 C 42 % 6.44 C
425 18-07-2011 13:01:02 20.6 C 40 % 6.54 C
Sensor: Nr:Datum:Temp:Feuchte:Taupunkt:
Aussen-T/F 426 18-07-2011 13:13:03 20.8 C 40 % 6.72 C
427 18-07-2011 13:25:02 20.4 C 39 % 5.99 C
428 18-07-2011 13:37:02 21.5 C 31 % 3.68 C
429 18-07-2011 13:49:02 20.9 C 35 % 4.88 C
430 18-07-2011 14:01:02 21.9 C 32 % 4.48 C
431 18-07-2011 14:13:02 22.5 C 33 % 5.44 C
432 18-07-2011 14:25:02 24.3 C 30 % 5.63 C
433 18-07-2011 14:37:02 24.6 C 27 % 4.38 C
434 18-07-2011 14:49:02 24.5 C 27 % 4.29 C
435 18-07-2011 15:01:02 23.3 C 29 % 4.28 C
436 18-07-2011 15:13:02 24.3 C 27 % 4.12 C
437 18-07-2011 15:25:03 23.7 C 28 % 4.13 C
438 18-07-2011 15:37:02 24.6 C 29 % 5.4 C
439 18-07-2011 15:49:03 23.7 C 29 % 4.63 C
440 18-07-2011 16:01:02 21.2 C 32 % 3.87 C
441 18-07-2011 16:13:02 16.1 C 41 % 2.86 C
442 18-07-2011 16:25:02 14.4 C 68 % 8.58 C
443 18-07-2011 16:37:02 14.7 C 71 % 9.5 C
444 18-07-2011 16:49:02 18.1 C 59 % 9.97 C
445 18-07-2011 17:01:02 22.4 C 44 % 9.56 C
446 18-07-2011 17:13:02 23.2 C 36 % 7.31 C
447 18-07-2011 17:25:02 23.7 C 32 % 6.04 C
448 18-07-2011 17:37:02 24 C 31 % 5.84 C
449 18-07-2011 17:49:02 25.2 C 29 % 5.91 C
450 18-07-2011 18:01:02 21.6 C 37 % 6.3 C
Sensor: Nr:Datum:Temp:Feuchte:Taupunkt:
Aussen-T/F 451 18-07-2011 18:13:02 18.7 C 36 % 3.34 C
452 18-07-2011 18:25:02 17.7 C 40 % 3.95 C
453 18-07-2011 18:37:01 17.9 C 40 % 4.12 C
454 18-07-2011 18:49:02 17.9 C 40 % 4.12 C
455 18-07-2011 19:01:01 17.6 C 40 % 3.86 C
456 18-07-2011 19:13:01 21.2 C 33 % 4.3 C
457 18-07-2011 19:25:02 20.9 C 31 % 3.16 C
458 18-07-2011 19:37:02 21.2 C 31 % 3.42 C
459 18-07-2011 19:49:02 19.7 C 36 % 4.23 C
460 18-07-2011 20:01:03 18.9 C 40 % 5.02 C
461 18-07-2011 20:13:03 18.4 C 41 % 4.92 C
462 18-07-2011 20:25:02 17.5 C 47 % 6.07 C
463 18-07-2011 20:37:02 16.4 C 52 % 6.53 C
464 18-07-2011 20:49:01 15.8 C 55 % 6.79 C
465 18-07-2011 21:01:02 15.4 C 58 % 7.19 C
466 18-07-2011 21:13:02 14.9 C 60 % 7.21 C
467 18-07-2011 21:25:01 15 C 59 % 7.06 C
468 18-07-2011 21:37:02 14.6 C 61 % 7.17 C
469 18-07-2011 21:49:02 14.2 C 64 % 7.5 C
470 18-07-2011 22:02:03 14 C 65 % 7.53 C
471 18-07-2011 22:14:04 13.8 C 66 % 7.57 C
472 18-07-2011 22:26:04 13.5 C 66 % 7.28 C
473 18-07-2011 22:38:04 13.5 C 67 % 7.5 C
474 18-07-2011 22:50:04 13.7 C 68 % 7.91 C
475 18-07-2011 23:02:04 14 C 66 % 7.76 C
Sensor: Nr:Datum:Temp:Feuchte:Taupunkt:
Aussen-T/F 476 18-07-2011 23:14:04 14.2 C 65 % 7.72 C
477 18-07-2011 23:26:04 14.1 C 65 % 7.63 C
478 18-07-2011 23:38:04 14 C 67 % 7.98 C
479 18-07-2011 23:50:04 13.4 C 68 % 7.62 C
480 19-07-2011 00:02:04 13.1 C 70 % 7.76 C
481 19-07-2011 00:14:04 12.5 C 73 % 7.8 C
482 19-07-2011 00:26:04 12.8 C 74 % 8.29 C
483 19-07-2011 00:38:04 12.8 C 72 % 7.88 C
484 19-07-2011 00:50:04 12.4 C 73 % 7.7 C
485 19-07-2011 01:02:04 12.1 C 76 % 8 C
486 19-07-2011 01:14:04 12 C 77 % 8.1 C
487 19-07-2011 01:26:04 12.1 C 77 % 8.2 C
488 19-07-2011 01:38:04 12.1 C 77 % 8.2 C
489 19-07-2011 01:50:04 11.8 C 79 % 8.28 C
490 19-07-2011 02:02:04 11.9 C 80 % 8.56 C
491 19-07-2011 02:14:05 11.5 C 80 % 8.17 C
492 19-07-2011 02:26:05 11.7 C 81 % 8.55 C
493 19-07-2011 02:38:05 11.5 C 81 % 8.36 C
494 19-07-2011 02:50:05 11.4 C 82 % 8.44 C
495 19-07-2011 03:02:05 11.8 C 82 % 8.83 C
496 19-07-2011 03:14:05 11.8 C 82 % 8.83 C
497 19-07-2011 03:26:05 11.8 C 82 % 8.83 C
498 19-07-2011 03:38:05 11.2 C 82 % 8.25 C
499 19-07-2011 03:50:05 11.1 C 82 % 8.15 C
500 19-07-2011 04:02:05 11.2 C 83 % 8.42 C
Sensor: Nr:Datum:Temp:Feuchte:Taupunkt:
Aussen-T/F 501 19-07-2011 04:14:05 11.6 C 84 % 8.99 C
502 19-07-2011 04:26:05 11.8 C 84 % 9.19 C
503 19-07-2011 04:38:05 11.8 C 84 % 9.19 C
504 19-07-2011 04:50:05 12 C 83 % 9.21 C
505 19-07-2011 05:02:05 11.9 C 83 % 9.11 C
506 19-07-2011 05:14:05 11.9 C 82 % 8.93 C
507 19-07-2011 05:26:05 12 C 82 % 9.03 C
508 19-07-2011 05:38:05 11.8 C 83 % 9.01 C
509 19-07-2011 05:50:05 11.3 C 82 % 8.34 C
510 19-07-2011 06:02:05 10.8 C 83 % 8.03 C
511 19-07-2011 06:14:05 11 C 83 % 8.23 C
512 19-07-2011 06:26:06 11 C 84 % 8.4 C
513 19-07-2011 06:38:06 10.9 C 84 % 8.31 C
514 19-07-2011 06:50:06 11.2 C 85 % 8.77 C
515 19-07-2011 07:02:02 11.2 C 85 % 8.77 C
516 19-07-2011 07:14:02 11.9 C 85 % 9.46 C
517 19-07-2011 07:26:03 12.8 C 85 % 10.34 C
518 19-07-2011 07:38:02 13.7 C 83 % 10.87 C
519 19-07-2011 07:50:02 13.8 C 78 % 10.03 C
520 19-07-2011 08:02:02 14.1 C 75 % 9.74 C
521 19-07-2011 08:14:02 14.4 C 73 % 9.63 C
522 19-07-2011 08:26:03 15.2 C 68 % 9.34 C
523 19-07-2011 08:38:02 15.7 C 65 % 9.15 C
524 19-07-2011 08:50:02 16.6 C 61 % 9.06 C
525 19-07-2011 09:02:02 16.8 C 58 % 8.5 C
Sensor: Nr:Datum:Temp:Feuchte:Taupunkt:
Aussen-T/F 526 19-07-2011 09:14:02 17.4 C 57 % 8.8 C
527 19-07-2011 09:26:02 17.7 C 56 % 8.82 C
528 19-07-2011 09:38:02 18.7 C 52 % 8.65 C
529 19-07-2011 09:50:02 19.2 C 48 % 7.93 C
530 19-07-2011 10:02:02 18.9 C 48 % 7.66 C
531 19-07-2011 10:14:02 19.1 C 47 % 7.53 C
532 19-07-2011 10:26:02 18.8 C 47 % 7.26 C
533 19-07-2011 10:38:02 19.7 C 47 % 8.08 C
534 19-07-2011 10:50:02 19.3 C 46 % 7.4 C
535 19-07-2011 11:02:02 20.8 C 41 % 7.08 C
536 19-07-2011 11:14:02 21.5 C 39 % 6.97 C
537 19-07-2011 11:26:02 21.3 C 41 % 7.53 C
538 19-07-2011 11:38:01 20.2 C 42 % 6.89 C
539 19-07-2011 11:50:02 21.3 C 39 % 6.8 C
540 19-07-2011 12:02:01 21.6 C 38 % 6.69 C
541 19-07-2011 12:14:01 22.2 C 34 % 5.61 C
542 19-07-2011 12:26:02 22 C 35 % 5.85 C
543 19-07-2011 12:38:02 23.1 C 31 % 5.06 C
544 19-07-2011 12:50:02 23.3 C 31 % 5.24 C
545 19-07-2011 13:02:02 23.5 C 33 % 6.31 C
546 19-07-2011 13:14:02 24.2 C 30 % 5.54 C
547 19-07-2011 13:26:02 24.4 C 31 % 6.19 C
548 19-07-2011 13:38:02 24.6 C 30 % 5.89 C
549 19-07-2011 13:50:02 25.6 C 26 % 4.69 C
550 19-07-2011 14:02:02 27.2 C 22 % 3.65 C
Sensor: Nr:Datum:Temp:Feuchte:Taupunkt:
Aussen-T/F 551 19-07-2011 14:14:02 26.6 C 25 % 4.97 C
552 19-07-2011 14:26:02 25.3 C 25 % 3.88 C
553 19-07-2011 14:38:01 26.9 C 25 % 5.22 C
554 19-07-2011 14:50:03 25.8 C 25 % 4.3 C
555 19-07-2011 15:02:02 25.5 C 25 % 4.04 C
556 19-07-2011 15:14:02 24.5 C 25 % 3.2 C
557 19-07-2011 15:26:02 25.2 C 26 % 4.35 C
558 19-07-2011 15:38:03 25.1 C 26 % 4.26 C
559 19-07-2011 15:50:02 23.9 C 29 % 4.8 C
560 19-07-2011 16:02:01 23.1 C 38 % 8.02 C
561 19-07-2011 16:14:01 22.5 C 41 % 8.6 C
562 19-07-2011 16:26:02 22.1 C 44 % 9.29 C
563 19-07-2011 16:38:02 21.2 C 38 % 6.33 C
564 19-07-2011 16:50:02 16.4 C 75 % 11.96 C
565 19-07-2011 17:02:03 16.2 C 79 % 12.56 C
566 19-07-2011 17:14:03 16.2 C 81 % 12.94 C
567 19-07-2011 17:26:02 16.7 C 79 % 13.04 C
568 19-07-2011 17:38:02 17 C 77 % 12.94 C
569 19-07-2011 17:50:01 16.6 C 78 % 12.75 C
570 19-07-2011 18:02:02 16.9 C 78 % 13.04 C
571 19-07-2011 18:14:02 17.1 C 78 % 13.24 C
572 19-07-2011 18:26:01 17 C 78 % 13.14 C
573 19-07-2011 18:38:02 16.7 C 80 % 13.23 C
574 19-07-2011 18:50:01 16.7 C 79 % 13.04 C
575 19-07-2011 19:02:02 16.8 C 80 % 13.33 C
Sensor: Nr:Datum:Temp:Feuchte:Taupunkt:
Aussen-T/F 576 19-07-2011 19:14:02 16.6 C 80 % 13.14 C
577 19-07-2011 19:26:01 16.3 C 79 % 12.65 C
578 19-07-2011 19:38:02 16.2 C 80 % 12.75 C
579 19-07-2011 19:50:01 16 C 80 % 12.55 C
580 19-07-2011 20:02:02 16.1 C 82 % 13.03 C
581 19-07-2011 20:14:02 16.2 C 83 % 13.31 C
582 19-07-2011 20:26:02 16 C 83 % 13.12 C
583 19-07-2011 20:38:01 15.7 C 82 % 12.64 C
584 19-07-2011 20:50:02 15.4 C 80 % 11.97 C
585 19-07-2011 21:02:01 15.1 C 80 % 11.68 C
586 19-07-2011 21:14:01 15 C 81 % 11.77 C
587 19-07-2011 21:26:02 14.7 C 82 % 11.66 C
588 19-07-2011 21:38:01 14.6 C 81 % 11.38 C
589 19-07-2011 21:50:02 14.4 C 81 % 11.18 C
590 19-07-2011 22:02:03 14.4 C 80 % 11 C
591 19-07-2011 22:14:03 14.3 C 79 % 10.71 C
592 19-07-2011 22:27:04 14.3 C 80 % 10.9 C
593 19-07-2011 22:39:04 14.2 C 80 % 10.8 C
594 19-07-2011 22:51:04 14.3 C 79 % 10.71 C
595 19-07-2011 23:03:04 14.2 C 79 % 10.61 C
596 19-07-2011 23:15:04 14.2 C 78 % 10.42 C
597 19-07-2011 23:27:04 14.3 C 78 % 10.52 C
598 19-07-2011 23:39:04 14.4 C 76 % 10.23 C
599 19-07-2011 23:51:04 14.3 C 76 % 10.13 C
600 20-07-2011 00:03:04 14.2 C 76 % 10.03 C
Sensor: Nr:Datum:Temp:Feuchte:Taupunkt:
Aussen-T/F 601 20-07-2011 00:15:04 14.3 C 78 % 10.52 C
602 20-07-2011 00:27:04 14.3 C 77 % 10.33 C
603 20-07-2011 00:39:05 14.4 C 77 % 10.42 C
604 20-07-2011 00:51:05 14.4 C 76 % 10.23 C
605 20-07-2011 01:03:05 14.3 C 76 % 10.13 C
606 20-07-2011 01:15:05 14.3 C 77 % 10.33 C
607 20-07-2011 01:27:05 14.3 C 76 % 10.13 C
608 20-07-2011 01:39:05 14.3 C 77 % 10.33 C
609 20-07-2011 01:51:05 14.2 C 77 % 10.23 C
610 20-07-2011 02:03:05 14.3 C 75 % 9.93 C
611 20-07-2011 02:15:05 14 C 76 % 9.84 C
612 20-07-2011 02:27:05 13.8 C 79 % 10.22 C
613 20-07-2011 02:39:05 13.6 C 79 % 10.03 C
614 20-07-2011 02:51:05 13.6 C 80 % 10.22 C
615 20-07-2011 03:03:05 13.5 C 81 % 10.31 C
616 20-07-2011 03:15:05 13.2 C 80 % 9.83 C
617 20-07-2011 03:27:05 13.2 C 81 % 10.01 C
618 20-07-2011 03:39:05 13.3 C 82 % 10.3 C
619 20-07-2011 03:51:05 13.4 C 82 % 10.39 C
620 20-07-2011 04:03:05 13.2 C 82 % 10.2 C
621 20-07-2011 04:15:05 13.3 C 82 % 10.3 C
622 20-07-2011 04:27:05 13.4 C 83 % 10.57 C
623 20-07-2011 04:39:05 13.6 C 82 % 10.59 C
624 20-07-2011 04:51:06 13.5 C 82 % 10.49 C
625 20-07-2011 05:03:06 13.3 C 82 % 10.3 C
Sensor: Nr:Datum:Temp:Feuchte:Taupunkt:
Aussen-T/F 626 20-07-2011 05:15:06 13.3 C 83 % 10.48 C
627 20-07-2011 05:27:06 13.3 C 83 % 10.48 C
628 20-07-2011 05:39:06 13.2 C 82 % 10.2 C
629 20-07-2011 05:51:06 13.3 C 83 % 10.48 C
630 20-07-2011 06:03:06 13.3 C 83 % 10.48 C
631 20-07-2011 06:15:06 13.4 C 83 % 10.57 C
632 20-07-2011 06:27:06 13.7 C 82 % 10.69 C
633 20-07-2011 06:39:06 14.1 C 80 % 10.71 C
634 20-07-2011 06:51:06 14.3 C 79 % 10.71 C
635 20-07-2011 07:03:06 14.5 C 78 % 10.71 C
636 20-07-2011 07:15:03 14.7 C 78 % 10.91 C
637 20-07-2011 07:27:03 14.8 C 78 % 11 C
638 20-07-2011 07:39:03 14.9 C 78 % 11.1 C
639 20-07-2011 07:51:02 14.9 C 79 % 11.29 C
640 20-07-2011 08:03:02 15.1 C 77 % 11.1 C
641 20-07-2011 08:15:02 15.2 C 76 % 11 C
642 20-07-2011 08:27:02 15.4 C 76 % 11.19 C
643 20-07-2011 08:39:02 15.6 C 76 % 11.39 C
644 20-07-2011 08:51:02 15.6 C 75 % 11.19 C
645 20-07-2011 09:03:01 15.8 C 74 % 11.18 C
646 20-07-2011 09:15:02 15.8 C 73 % 10.97 C
647 20-07-2011 09:27:02 15.9 C 73 % 11.07 C
648 20-07-2011 09:39:01 16.1 C 71 % 10.84 C
649 20-07-2011 09:51:01 16.4 C 70 % 10.92 C
650 20-07-2011 10:03:02 17 C 67 % 10.83 C
Sensor: Nr:Datum:Temp:Feuchte:Taupunkt:
Aussen-T/F 651 20-07-2011 10:15:02 16.8 C 67 % 10.64 C
652 20-07-2011 10:27:02 17 C 67 % 10.83 C
653 20-07-2011 10:39:02 16.9 C 67 % 10.74 C
654 20-07-2011 10:51:01 17.1 C 67 % 10.93 C
655 20-07-2011 11:03:02 17.2 C 66 % 10.8 C
656 20-07-2011 11:15:02 17.7 C 65 % 11.04 C
657 20-07-2011 11:27:02 18 C 62 % 10.62 C
658 20-07-2011 11:39:01 18.7 C 60 % 10.78 C
659 20-07-2011 11:51:02 18.8 C 58 % 10.37 C
660 20-07-2011 12:03:01 19.3 C 54 % 9.77 C
661 20-07-2011 12:15:02 20.6 C 50 % 9.82 C
662 20-07-2011 12:27:02 20.7 C 49 % 9.61 C
663 20-07-2011 12:39:01 21.4 C 45 % 8.99 C
664 20-07-2011 12:51:02 20.8 C 45 % 8.44 C
665 20-07-2011 13:03:02 23.2 C 42 % 9.59 C
666 20-07-2011 13:15:02 24 C 37 % 8.42 C
667 20-07-2011 13:27:02 23.8 C 40 % 9.4 C
668 20-07-2011 13:39:03 22.8 C 42 % 9.23 C
669 20-07-2011 13:51:02 21.5 C 45 % 9.08 C
670 20-07-2011 14:03:02 20.5 C 48 % 9.12 C
671 20-07-2011 14:15:02 18.2 C 60 % 10.31 C
672 20-07-2011 14:27:02 16.7 C 73 % 11.84 C
673 20-07-2011 14:39:02 16.2 C 78 % 12.36 C
674 20-07-2011 14:51:02 16.2 C 79 % 12.56 C
675 20-07-2011 15:03:02 16.2 C 80 % 12.75 C
Sensor: Nr:Datum:Temp:Feuchte:Taupunkt:
Aussen-T/F 676 20-07-2011 15:15:02 16.1 C 81 % 12.84 C
677 20-07-2011 15:27:02 16.3 C 82 % 13.22 C
678 20-07-2011 15:39:02 16.2 C 82 % 13.13 C
679 20-07-2011 15:51:02 16.3 C 83 % 13.41 C
680 20-07-2011 16:03:02 16.8 C 83 % 13.9 C
681 20-07-2011 16:15:02 17.1 C 82 % 14 C
682 20-07-2011 16:27:02 17.3 C 81 % 14.01 C
683 20-07-2011 16:39:02 17.7 C 80 % 14.21 C
684 20-07-2011 16:51:01 18.1 C 78 % 14.21 C
685 20-07-2011 17:03:01 18.6 C 76 % 14.29 C
686 20-07-2011 17:15:02 18.5 C 74 % 13.78 C
687 20-07-2011 17:27:02 18.3 C 75 % 13.79 C
688 20-07-2011 17:39:01 17.6 C 76 % 13.32 C
689 20-07-2011 17:51:02 17.4 C 78 % 13.53 C
690 20-07-2011 18:03:02 17.1 C 79 % 13.43 C
691 20-07-2011 18:15:02 16.7 C 80 % 13.23 C
692 20-07-2011 18:27:02 16.6 C 82 % 13.52 C
693 20-07-2011 18:39:02 16.2 C 83 % 13.31 C
694 20-07-2011 18:51:02 16.1 C 84 % 13.4 C
695 20-07-2011 19:03:02 15.8 C 85 % 13.28 C
696 20-07-2011 19:15:02 15.8 C 86 % 13.46 C
697 20-07-2011 19:27:03 15.8 C 86 % 13.46 C
698 20-07-2011 19:39:02 15.8 C 87 % 13.64 C
699 20-07-2011 19:51:02 15.9 C 87 % 13.74 C
700 20-07-2011 20:03:01 16.1 C 87 % 13.94 C
Sensor: Nr:Datum:Temp:Feuchte:Taupunkt:
Aussen-T/F 701 20-07-2011 20:15:02 15.8 C 87 % 13.64 C
702 20-07-2011 20:27:02 15.6 C 87 % 13.45 C
703 20-07-2011 20:39:02 15.1 C 87 % 12.95 C
704 20-07-2011 20:51:02 15 C 87 % 12.86 C
705 20-07-2011 21:03:03 14.9 C 88 % 12.93 C
706 20-07-2011 21:15:02 14.9 C 88 % 12.93 C
707 20-07-2011 21:27:02 14.8 C 89 % 13.01 C
708 20-07-2011 21:39:02 14.8 C 89 % 13.01 C
709 20-07-2011 21:51:01 15 C 88 % 13.03 C
710 20-07-2011 22:04:02 14.8 C 89 % 13.01 C
711 20-07-2011 22:16:03 14.7 C 89 % 12.91 C
712 20-07-2011 22:28:03 14.7 C 89 % 12.91 C
713 20-07-2011 22:40:03 14.5 C 89 % 12.71 C
714 20-07-2011 22:52:03 14.4 C 89 % 12.61 C
715 20-07-2011 23:04:03 14.3 C 89 % 12.51 C
716 20-07-2011 23:16:03 14.4 C 89 % 12.61 C
717 20-07-2011 23:28:03 14.5 C 90 % 12.88 C
718 20-07-2011 23:40:03 14.4 C 90 % 12.78 C
719 20-07-2011 23:52:03 14.4 C 90 % 12.78 C
720 21-07-2011 00:04:03 14.4 C 90 % 12.78 C
721 21-07-2011 00:16:03 14.2 C 90 % 12.58 C
722 21-07-2011 00:28:03 14.4 C 90 % 12.78 C
723 21-07-2011 00:40:03 14.4 C 90 % 12.78 C
724 21-07-2011 00:52:03 14.4 C 90 % 12.78 C
725 21-07-2011 01:04:03 14.4 C 90 % 12.78 C
Sensor: Nr:Datum:Temp:Feuchte:Taupunkt:
Aussen-T/F 726 21-07-2011 01:16:03 14.4 C 90 % 12.78 C
727 21-07-2011 01:28:03 14.4 C 90 % 12.78 C
728 21-07-2011 01:40:03 14.3 C 90 % 12.68 C
729 21-07-2011 01:52:03 14.2 C 90 % 12.58 C
730 21-07-2011 02:04:03 14.2 C 90 % 12.58 C
731 21-07-2011 02:16:03 14.2 C 90 % 12.58 C
732 21-07-2011 02:28:04 14.2 C 90 % 12.58 C
733 21-07-2011 02:40:04 14.1 C 90 % 12.49 C
734 21-07-2011 02:52:04 14.1 C 90 % 12.49 C
735 21-07-2011 03:04:04 14 C 90 % 12.39 C
736 21-07-2011 03:16:04 13.8 C 91 % 12.36 C
737 21-07-2011 03:28:04 13.6 C 91 % 12.16 C
738 21-07-2011 03:40:04 13.6 C 91 % 12.16 C
739 21-07-2011 03:52:04 13.5 C 91 % 12.06 C
740 21-07-2011 04:04:04 13.5 C 91 % 12.06 C
741 21-07-2011 04:16:04 13.4 C 91 % 11.96 C
742 21-07-2011 04:28:04 13.5 C 91 % 12.06 C
743 21-07-2011 04:40:04 13.5 C 91 % 12.06 C
744 21-07-2011 04:52:04 13.4 C 91 % 11.96 C
745 21-07-2011 05:04:04 13.2 C 91 % 11.76 C
746 21-07-2011 05:16:04 13.2 C 91 % 11.76 C
747 21-07-2011 05:28:04 13.1 C 91 % 11.67 C
748 21-07-2011 05:40:04 13.1 C 91 % 11.67 C
749 21-07-2011 05:52:04 13.1 C 91 % 11.67 C
750 21-07-2011 06:04:04 13.2 C 91 % 11.76 C
Sensor: Nr:Datum:Temp:Feuchte:Taupunkt:
Aussen-T/F 751 21-07-2011 06:16:04 13.3 C 91 % 11.86 C
752 21-07-2011 06:28:05 13.5 C 91 % 12.06 C
753 21-07-2011 06:40:05 13.4 C 91 % 11.96 C
754 21-07-2011 06:52:05 13.6 C 91 % 12.16 C
755 21-07-2011 07:04:01 13.9 C 91 % 12.46 C
756 21-07-2011 07:16:02 14.1 C 91 % 12.65 C
757 21-07-2011 07:28:02 14.1 C 91 % 12.65 C
758 21-07-2011 07:40:01 14.4 C 91 % 12.95 C
759 21-07-2011 07:52:02 14.7 C 91 % 13.25 C
760 21-07-2011 08:04:01 14.9 C 91 % 13.44 C
761 21-07-2011 08:16:01 15.2 C 88 % 13.23 C
762 21-07-2011 08:28:01 15.4 C 87 % 13.25 C
763 21-07-2011 08:40:02 15.9 C 83 % 13.02 C
764 21-07-2011 08:52:02 16.2 C 78 % 12.36 C
765 21-07-2011 09:04:02 16.5 C 74 % 11.85 C
766 21-07-2011 09:16:02 16.9 C 70 % 11.4 C
767 21-07-2011 09:28:02 17 C 65 % 10.38 C
768 21-07-2011 09:40:02 17.7 C 67 % 11.5 C
769 21-07-2011 09:52:01 18.4 C 64 % 11.47 C
770 21-07-2011 10:04:02 18.9 C 60 % 10.97 C
771 21-07-2011 10:16:02 18.9 C 59 % 10.72 C
772 21-07-2011 10:28:02 19.1 C 56 % 10.12 C
773 21-07-2011 10:40:01 19.7 C 54 % 10.14 C
774 21-07-2011 10:52:02 19.9 C 55 % 10.6 C
775 21-07-2011 11:04:01 19.3 C 56 % 10.31 C
Sensor: Nr:Datum:Temp:Feuchte:Taupunkt:
Aussen-T/F 776 21-07-2011 11:16:02 20.8 C 54 % 11.16 C
777 21-07-2011 11:28:03 20.8 C 52 % 10.59 C
778 21-07-2011 11:40:01 20.1 C 49 % 9.06 C
779 21-07-2011 11:52:02 19.9 C 52 % 9.76 C
780 21-07-2011 12:04:02 19.5 C 53 % 9.67 C
781 21-07-2011 12:16:02 20.4 C 55 % 11.06 C
782 21-07-2011 12:28:02 20.6 C 51 % 10.12 C
783 21-07-2011 12:40:03 21.9 C 47 % 10.09 C
784 21-07-2011 12:52:02 22.3 C 41 % 8.42 C
785 21-07-2011 13:04:02 22.8 C 43 % 9.58 C
786 21-07-2011 13:16:01 23.7 C 40 % 9.31 C
787 21-07-2011 13:28:01 23.8 C 38 % 8.64 C
788 21-07-2011 13:40:02 24 C 36 % 8.02 C
789 21-07-2011 13:52:02 22.2 C 40 % 7.97 C
790 21-07-2011 14:04:02 22.4 C 40 % 8.15 C
791 21-07-2011 14:16:02 21.2 C 46 % 9.13 C
792 21-07-2011 14:28:02 18.8 C 56 % 9.84 C
793 21-07-2011 14:40:02 16 C 77 % 11.97 C
794 21-07-2011 14:52:02 15.8 C 82 % 12.74 C
795 21-07-2011 15:04:02 16 C 83 % 13.12 C
796 21-07-2011 15:16:02 16.3 C 83 % 13.41 C
797 21-07-2011 15:28:02 17.3 C 83 % 14.39 C
798 21-07-2011 15:40:02 18.4 C 79 % 14.69 C
799 21-07-2011 15:52:02 21.7 C 69 % 15.77 C
800 21-07-2011 16:04:02 23.3 C 50 % 12.3 C
Sensor: Nr:Datum:Temp:Feuchte:Taupunkt:
Aussen-T/F 801 21-07-2011 16:16:02 22.6 C 58 % 13.92 C
802 21-07-2011 16:28:02 20.7 C 56 % 11.61 C
803 21-07-2011 16:40:02 18.7 C 70 % 13.12 C
804 21-07-2011 16:52:02 17.2 C 74 % 12.53 C
805 21-07-2011 17:04:02 16.8 C 78 % 12.94 C
806 21-07-2011 17:16:02 16.8 C 80 % 13.33 C
807 21-07-2011 17:28:02 17 C 79 % 13.33 C
808 21-07-2011 17:40:02 17.5 C 78 % 13.62 C
809 21-07-2011 17:52:02 17.8 C 76 % 13.52 C
810 21-07-2011 18:04:01 17.9 C 75 % 13.41 C
811 21-07-2011 18:16:02 18.1 C 73 % 13.19 C
812 21-07-2011 18:28:02 18.2 C 72 % 13.07 C
813 21-07-2011 18:40:01 17.9 C 74 % 13.2 C
814 21-07-2011 18:52:02 18 C 75 % 13.51 C
815 21-07-2011 19:04:01 19.4 C 72 % 14.22 C
816 21-07-2011 19:16:01 20.2 C 63 % 12.94 C
817 21-07-2011 19:28:01 18.8 C 70 % 13.22 C
818 21-07-2011 19:40:02 19.1 C 72 % 13.94 C
819 21-07-2011 19:52:02 18.4 C 73 % 13.48 C
820 21-07-2011 20:04:02 17.8 C 77 % 13.72 C
821 21-07-2011 20:16:02 17.5 C 79 % 13.82 C
822 21-07-2011 20:28:03 17.1 C 80 % 13.62 C
823 21-07-2011 20:40:01 16.4 C 81 % 13.13 C
824 21-07-2011 20:52:02 15.7 C 83 % 12.82 C
825 21-07-2011 21:04:01 15.1 C 83 % 12.24 C
Sensor: Nr:Datum:Temp:Feuchte:Taupunkt:
Aussen-T/F 826 21-07-2011 21:16:02 14.7 C 84 % 12.03 C
827 21-07-2011 21:28:02 14.6 C 85 % 12.11 C
828 21-07-2011 21:40:02 14.7 C 86 % 12.38 C
829 21-07-2011 21:52:02 14.7 C 86 % 12.38 C
830 21-07-2011 22:04:02 14.1 C 85 % 11.62 C
831 21-07-2011 22:17:04 13.9 C 86 % 11.6 C
832 21-07-2011 22:29:04 13.8 C 87 % 11.68 C
833 21-07-2011 22:41:04 13.7 C 87 % 11.58 C
834 21-07-2011 22:53:04 13.8 C 87 % 11.68 C
835 21-07-2011 23:05:04 13.8 C 87 % 11.68 C
836 21-07-2011 23:17:04 13.8 C 88 % 11.85 C
837 21-07-2011 23:29:04 13.9 C 88 % 11.95 C
838 21-07-2011 23:41:04 13.7 C 88 % 11.75 C
839 21-07-2011 23:53:04 13.7 C 88 % 11.75 C
840 22-07-2011 00:05:04 13.8 C 88 % 11.85 C
841 22-07-2011 00:17:04 13.9 C 88 % 11.95 C
842 22-07-2011 00:29:04 14 C 88 % 12.05 C
843 22-07-2011 00:41:05 14.1 C 88 % 12.14 C
844 22-07-2011 00:53:05 14.3 C 88 % 12.34 C
845 22-07-2011 01:05:05 14.2 C 88 % 12.24 C
846 22-07-2011 01:17:05 14.3 C 88 % 12.34 C
847 22-07-2011 01:29:05 14.4 C 88 % 12.44 C
848 22-07-2011 01:41:05 14.6 C 88 % 12.64 C
849 22-07-2011 01:53:05 14.7 C 88 % 12.73 C
850 22-07-2011 02:05:05 14.7 C 88 % 12.73 C
Sensor: Nr:Datum:Temp:Feuchte:Taupunkt:
Aussen-T/F 851 22-07-2011 02:17:05 14.7 C 88 % 12.73 C
852 22-07-2011 02:29:05 14.8 C 87 % 12.66 C
853 22-07-2011 02:41:05 14.8 C 87 % 12.66 C
854 22-07-2011 02:53:05 14.7 C 87 % 12.56 C
855 22-07-2011 03:05:05 14.6 C 87 % 12.46 C
856 22-07-2011 03:17:05 14.7 C 87 % 12.56 C
857 22-07-2011 03:29:05 14.7 C 87 % 12.56 C
858 22-07-2011 03:41:05 14.6 C 87 % 12.46 C
859 22-07-2011 03:53:05 14.6 C 86 % 12.29 C
860 22-07-2011 04:05:05 14.1 C 86 % 11.8 C
861 22-07-2011 04:17:05 14 C 86 % 11.7 C
862 22-07-2011 04:29:05 14 C 87 % 11.87 C
863 22-07-2011 04:41:05 14.2 C 87 % 12.07 C
864 22-07-2011 04:53:06 14.3 C 87 % 12.17 C
865 22-07-2011 05:05:06 14.5 C 87 % 12.36 C
866 22-07-2011 05:17:06 14.5 C 87 % 12.36 C
867 22-07-2011 05:29:06 14.5 C 87 % 12.36 C
868 22-07-2011 05:41:06 14.4 C 87 % 12.27 C
869 22-07-2011 05:53:06 14 C 86 % 11.7 C
870 22-07-2011 06:05:06 14.2 C 87 % 12.07 C
871 22-07-2011 06:17:06 14.4 C 87 % 12.27 C
872 22-07-2011 06:29:06 14.5 C 87 % 12.36 C
873 22-07-2011 06:41:06 14.8 C 86 % 12.48 C
874 22-07-2011 06:53:06 15.2 C 82 % 12.15 C
875 22-07-2011 07:05:03 15.1 C 81 % 11.87 C
Sensor: Nr:Datum:Temp:Feuchte:Taupunkt:
Aussen-T/F 876 22-07-2011 07:17:03 15.5 C 78 % 11.68 C
877 22-07-2011 07:29:03 15.5 C 73 % 10.69 C
878 22-07-2011 07:41:03 15.4 C 71 % 10.17 C
879 22-07-2011 07:53:01 15.5 C 69 % 9.84 C
880 22-07-2011 08:05:02 15.4 C 68 % 9.53 C
881 22-07-2011 08:17:01 15.4 C 68 % 9.53 C
882 22-07-2011 08:29:01 15.7 C 65 % 9.15 C
883 22-07-2011 08:41:01 15.2 C 66 % 8.9 C
884 22-07-2011 08:53:01 15.1 C 63 % 8.12 C
885 22-07-2011 09:05:02 15.2 C 58 % 7 C
886 22-07-2011 09:17:01 15.6 C 53 % 6.06 C
887 22-07-2011 09:29:01 16 C 50 % 5.59 C
888 22-07-2011 09:41:01 16.4 C 45 % 4.45 C
889 22-07-2011 09:53:02 17.6 C 41 % 4.21 C
890 22-07-2011 10:05:02 18.6 C 38 % 4.02 C
891 22-07-2011 10:17:02 18.9 C 40 % 5.02 C
892 22-07-2011 10:29:02 18.5 C 40 % 4.66 C
893 22-07-2011 10:41:02 17.4 C 44 % 5.03 C
894 22-07-2011 10:53:02 18.1 C 44 % 5.67 C
895 22-07-2011 11:05:02 17.8 C 39 % 3.68 C
896 22-07-2011 11:17:02 19.5 C 38 % 4.82 C
897 22-07-2011 11:29:03 19 C 40 % 5.11 C
898 22-07-2011 11:41:01 18.9 C 41 % 5.37 C
899 22-07-2011 11:53:02 18 C 44 % 5.58 C
900 22-07-2011 12:05:01 18.5 C 42 % 5.36 C
Sensor: Nr:Datum:Temp:Feuchte:Taupunkt:
Aussen-T/F 901 22-07-2011 12:17:02 19 C 42 % 5.81 C
902 22-07-2011 12:29:03 19.6 C 40 % 5.64 C
903 22-07-2011 12:41:01 19.6 C 40 % 5.64 C
904 22-07-2011 12:53:01 20.5 C 38 % 5.71 C
905 22-07-2011 13:05:01 18.5 C 43 % 5.7 C
906 22-07-2011 13:17:01 19.3 C 42 % 6.08 C
907 22-07-2011 13:29:01 18.2 C 42 % 5.09 C
908 22-07-2011 13:41:02 18.1 C 45 % 5.99 C
909 22-07-2011 13:53:02 18.7 C 45 % 6.54 C
910 22-07-2011 14:05:02 18.3 C 46 % 6.49 C
911 22-07-2011 14:17:02 17.5 C 48 % 6.38 C
912 22-07-2011 14:29:02 17.5 C 49 % 6.68 C
913 22-07-2011 14:41:02 18.1 C 46 % 6.31 C
914 22-07-2011 14:53:02 18.5 C 46 % 6.67 C
915 22-07-2011 15:05:02 17.9 C 48 % 6.75 C
916 22-07-2011 15:17:02 17.8 C 43 % 5.07 C
917 22-07-2011 15:29:02 18.1 C 43 % 5.34 C
918 22-07-2011 15:41:02 17.4 C 46 % 5.67 C
919 22-07-2011 15:53:02 19.7 C 42 % 6.44 C
920 22-07-2011 16:05:02 20.8 C 38 % 5.97 C
921 22-07-2011 16:17:03 21.1 C 34 % 4.64 C
922 22-07-2011 16:29:03 20.7 C 36 % 5.11 C
923 22-07-2011 16:41:03 22.8 C 33 % 5.7 C
924 22-07-2011 16:53:02 23 C 32 % 5.43 C
925 22-07-2011 17:05:03 23.2 C 29 % 4.2 C
Sensor: Nr:Datum:Temp:Feuchte:Taupunkt:
Aussen-T/F 926 22-07-2011 17:17:02 22.1 C 29 % 3.25 C
927 22-07-2011 17:29:02 22.3 C 33 % 5.26 C
928 22-07-2011 17:41:03 19.8 C 39 % 5.46 C
929 22-07-2011 17:53:02 19.6 C 42 % 6.35 C
930 22-07-2011 18:05:02 19.4 C 40 % 5.47 C
931 22-07-2011 18:17:01 19.4 C 40 % 5.47 C
932 22-07-2011 18:29:01 19.4 C 40 % 5.47 C
933 22-07-2011 18:41:02 19.4 C 40 % 5.47 C
934 22-07-2011 18:53:02 19.4 C 40 % 5.47 C
935 22-07-2011 19:05:02 19.4 C 40 % 5.47 C
936 22-07-2011 19:17:02 19.4 C 40 % 5.47 C
937 22-07-2011 19:29:02 19.4 C 40 % 5.47 C
938 22-07-2011 19:41:02 17.9 C 44 % 5.49 C
939 22-07-2011 19:53:02 17.8 C 44 % 5.4 C
940 22-07-2011 20:05:02 17.8 C 43 % 5.07 C
941 22-07-2011 20:17:02 17.7 C 44 % 5.31 C
942 22-07-2011 20:29:02 17.3 C 44 % 4.94 C
943 22-07-2011 20:41:02 16.8 C 48 % 5.74 C
944 22-07-2011 20:53:02 16.8 C 47 % 5.44 C
945 22-07-2011 21:05:02 16.4 C 50 % 5.96 C
946 22-07-2011 21:17:02 16.3 C 50 % 5.87 C
947 22-07-2011 21:29:02 16.1 C 50 % 5.69 C
948 22-07-2011 21:41:02 16.1 C 49 % 5.39 C
949 22-07-2011 21:53:02 16 C 46 % 4.4 C
950 22-07-2011 22:06:02 16.1 C 46 % 4.49 C
Sensor: Nr:Datum:Temp:Feuchte:Taupunkt:
Aussen-T/F 951 22-07-2011 22:18:02 16.1 C 46 % 4.49 C
952 22-07-2011 22:30:02 16.1 C 46 % 4.49 C
953 22-07-2011 22:42:02 15.7 C 49 % 5.03 C
954 22-07-2011 22:54:02 15.4 C 50 % 5.04 C
955 22-07-2011 23:06:02 15.4 C 49 % 4.75 C
956 22-07-2011 23:18:02 15.3 C 49 % 4.66 C
957 22-07-2011 23:30:02 15.4 C 49 % 4.75 C
958 22-07-2011 23:42:02 15.4 C 49 % 4.75 C
959 22-07-2011 23:54:02 15.1 C 51 % 5.05 C
960 23-07-2011 00:06:02 15.1 C 51 % 5.05 C
961 23-07-2011 00:18:02 14.9 C 52 % 5.14 C
962 23-07-2011 00:30:02 14.5 C 53 % 5.05 C
963 23-07-2011 00:42:02 14.1 C 54 % 4.94 C
964 23-07-2011 00:54:02 13 C 60 % 5.43 C
965 23-07-2011 01:06:02 13 C 60 % 5.43 C
966 23-07-2011 01:18:02 12.4 C 65 % 6.01 C
967 23-07-2011 01:30:02 11.8 C 67 % 5.88 C
968 23-07-2011 01:42:02 11.8 C 71 % 6.72 C
969 23-07-2011 01:54:02 11.7 C 70 % 6.42 C
970 23-07-2011 02:06:02 11.4 C 70 % 6.13 C
971 23-07-2011 02:18:03 11.4 C 70 % 6.13 C
972 23-07-2011 02:30:03 11.4 C 70 % 6.13 C
973 23-07-2011 02:42:03 11.4 C 70 % 6.13 C
974 23-07-2011 02:54:03 10.3 C 75 % 6.07 C
975 23-07-2011 03:06:03 10.5 C 76 % 6.45 C
Sensor: Nr:Datum:Temp:Feuchte:Taupunkt:
Aussen-T/F 976 23-07-2011 03:18:03 10.7 C 76 % 6.65 C
977 23-07-2011 03:30:03 11.2 C 74 % 6.74 C
978 23-07-2011 03:42:03 10.8 C 74 % 6.36 C
979 23-07-2011 03:54:03 10.4 C 75 % 6.17 C
980 23-07-2011 04:06:03 9.9 C 79 % 6.43 C
981 23-07-2011 04:18:03 9.4 C 80 % 6.13 C
982 23-07-2011 04:30:03 10.2 C 81 % 7.09 C
983 23-07-2011 04:42:03 10.2 C 79 % 6.73 C
984 23-07-2011 04:54:03 9.7 C 79 % 6.24 C
985 23-07-2011 05:06:03 8.9 C 81 % 5.82 C
986 23-07-2011 05:18:03 9 C 83 % 6.27 C
987 23-07-2011 05:30:03 9.8 C 84 % 7.23 C
988 23-07-2011 05:42:03 9.6 C 83 % 6.86 C
989 23-07-2011 05:54:03 10.4 C 80 % 7.1 C
990 23-07-2011 06:06:03 9.9 C 79 % 6.43 C
991 23-07-2011 06:18:03 9.7 C 80 % 6.42 C
992 23-07-2011 06:30:03 9.6 C 81 % 6.5 C
993 23-07-2011 06:42:04 10 C 80 % 6.71 C
994 23-07-2011 06:54:04 10.2 C 77 % 6.35 C
995 23-07-2011 07:06:04 10.3 C 76 % 6.26 C
996 23-07-2011 07:18:04 10.7 C 75 % 6.46 C
997 23-07-2011 07:30:04 11 C 73 % 6.35 C
998 23-07-2011 07:42:04 11.1 C 73 % 6.45 C
999 23-07-2011 07:54:04 11.3 C 72 % 6.44 C
1000 23-07-2011 08:06:04 12.3 C 66 % 6.14 C
Sensor: Nr:Datum:Temp:Feuchte:Taupunkt:
Aussen-T/F 1001 23-07-2011 08:18:04 12.4 C 66 % 6.23 C
1002 23-07-2011 08:30:04 12.9 C 65 % 6.49 C
1003 23-07-2011 08:42:04 13.5 C 59 % 5.65 C
1004 23-07-2011 08:54:04 13.8 C 58 % 5.69 C
1005 23-07-2011 09:06:02 13.7 C 57 % 5.35 C
1006 23-07-2011 09:18:02 13.9 C 59 % 6.03 C
1007 23-07-2011 09:30:02 14.8 C 53 % 5.32 C
1008 23-07-2011 09:42:02 14.6 C 54 % 5.41 C
1009 23-07-2011 09:54:01 15.4 C 48 % 4.46 C
1010 23-07-2011 10:06:02 15.6 C 47 % 4.34 C
1011 23-07-2011 10:18:01 15.1 C 47 % 3.88 C
1012 23-07-2011 10:30:01 15.3 C 48 % 4.37 C
1013 23-07-2011 10:42:01 16.1 C 43 % 3.53 C
1014 23-07-2011 10:54:01 16.9 C 43 % 4.25 C
1015 23-07-2011 11:06:02 15.5 C 51 % 5.42 C
1016 23-07-2011 11:18:02 15 C 53 % 5.51 C
1017 23-07-2011 11:30:02 15.9 C 49 % 5.21 C
1018 23-07-2011 11:42:01 16.2 C 47 % 4.89 C
1019 23-07-2011 11:54:02 16.9 C 45 % 4.9 C
1020 23-07-2011 12:06:01 17 C 40 % 3.32 C
1021 23-07-2011 12:18:02 17 C 40 % 3.32 C
1022 23-07-2011 12:30:02 18.2 C 37 % 3.29 C
1023 23-07-2011 12:42:01 18.3 C 36 % 2.99 C
1024 23-07-2011 12:54:02 19.1 C 35 % 3.3 C
1025 23-07-2011 13:06:01 18.6 C 35 % 2.86 C
Sensor: Nr:Datum:Temp:Feuchte:Taupunkt:
Aussen-T/F 1026 23-07-2011 13:18:01 17.5 C 38 % 3.04 C
1027 23-07-2011 13:30:01 17.4 C 40 % 3.68 C
1028 23-07-2011 13:42:01 17.9 C 39 % 3.76 C
1029 23-07-2011 13:54:02 17.6 C 41 % 4.21 C
1030 23-07-2011 14:06:02 18.5 C 40 % 4.66 C
1031 23-07-2011 14:18:02 18.1 C 40 % 4.3 C
1032 23-07-2011 14:30:02 21.6 C 31 % 3.76 C
1033 23-07-2011 14:42:02 19.3 C 34 % 3.06 C
1034 23-07-2011 14:54:01 18.3 C 36 % 2.99 C
1035 23-07-2011 15:06:03 20.3 C 33 % 3.52 C
1036 23-07-2011 15:18:01 19.4 C 34 % 3.15 C
1037 23-07-2011 15:30:01 18.9 C 35 % 3.12 C
1038 23-07-2011 15:42:02 18.4 C 41 % 4.92 C
1039 23-07-2011 15:54:02 17.5 C 46 % 5.76 C
1040 23-07-2011 16:06:02 17.4 C 47 % 5.98 C
1041 23-07-2011 16:18:01 17.1 C 48 % 6.01 C
1042 23-07-2011 16:30:01 16.3 C 50 % 5.87 C
1043 23-07-2011 16:42:02 16.8 C 49 % 6.04 C
1044 23-07-2011 16:54:02 16 C 50 % 5.59 C
1045 23-07-2011 17:06:02 15.6 C 54 % 6.34 C
1046 23-07-2011 17:18:02 16 C 53 % 6.44 C
1047 23-07-2011 17:30:02 16 C 53 % 6.44 C
1048 23-07-2011 17:42:02 16.7 C 50 % 6.24 C
1049 23-07-2011 17:54:02 16.7 C 50 % 6.24 C
1050 23-07-2011 18:06:02 16.7 C 50 % 6.24 C
Sensor: Nr:Datum:Temp:Feuchte:Taupunkt:
Aussen-T/F 1051 23-07-2011 18:18:02 16.7 C 50 % 6.24 C
1052 23-07-2011 18:30:02 16.7 C 50 % 6.24 C
1053 23-07-2011 18:42:02 16.7 C 50 % 6.24 C
1054 23-07-2011 18:54:01 16.7 C 50 % 6.24 C
1055 23-07-2011 19:06:01 16.7 C 50 % 6.24 C
1056 23-07-2011 19:18:02 16.7 C 50 % 6.24 C
1057 23-07-2011 19:30:02 16.7 C 50 % 6.24 C
1058 23-07-2011 19:42:01 16.7 C 50 % 6.24 C
1059 23-07-2011 19:54:02 13.4 C 82 % 10.39 C
1060 23-07-2011 20:06:02 13 C 82 % 10 C
1061 23-07-2011 20:18:03 12.9 C 83 % 10.09 C
1062 23-07-2011 20:30:03 12.5 C 84 % 9.87 C
1063 23-07-2011 20:42:02 12.4 C 84 % 9.78 C
1064 23-07-2011 20:54:03 12.4 C 84 % 9.78 C
1065 23-07-2011 21:06:02 12.3 C 85 % 9.85 C
1066 23-07-2011 21:18:02 12.2 C 85 % 9.76 C
1067 23-07-2011 21:30:03 12.3 C 86 % 10.03 C
1068 23-07-2011 21:42:02 12.2 C 85 % 9.76 C
1069 23-07-2011 21:54:02 12.2 C 85 % 9.76 C
1070 23-07-2011 22:06:02 11.8 C 85 % 9.36 C
1071 23-07-2011 22:18:01 11.8 C 86 % 9.54 C
1072 23-07-2011 22:30:01 11.5 C 86 % 9.24 C
1073 23-07-2011 22:42:02 11.3 C 86 % 9.05 C
1074 23-07-2011 22:54:02 11.1 C 86 % 8.85 C
1075 23-07-2011 23:06:02 11.1 C 86 % 8.85 C
Sensor: Nr:Datum:Temp:Feuchte:Taupunkt:
Aussen-T/F 1076 23-07-2011 23:18:02 11.1 C 86 % 8.85 C
1077 23-07-2011 23:30:02 11.2 C 86 % 8.95 C
1078 23-07-2011 23:42:02 11.2 C 87 % 9.12 C
1079 23-07-2011 23:54:02 11.1 C 87 % 9.02 C
1080 24-07-2011 00:06:02 11.1 C 87 % 9.02 C
1081 24-07-2011 00:18:02 11.2 C 86 % 8.95 C
1082 24-07-2011 00:30:02 11.3 C 86 % 9.05 C
1083 24-07-2011 00:42:02 11.2 C 86 % 8.95 C
1084 24-07-2011 00:54:02 11.2 C 86 % 8.95 C
1085 24-07-2011 01:06:01 11.2 C 86 % 8.95 C
1086 24-07-2011 01:18:02 11.2 C 86 % 8.95 C
1087 24-07-2011 01:30:02 11.1 C 86 % 8.85 C
1088 24-07-2011 01:42:02 11.1 C 86 % 8.85 C
1089 24-07-2011 01:54:02 11.3 C 86 % 9.05 C
1090 24-07-2011 02:06:03 11.3 C 84 % 8.7 C
1091 24-07-2011 02:18:02 11.3 C 82 % 8.34 C
1092 24-07-2011 02:30:02 11 C 80 % 7.69 C
1093 24-07-2011 02:42:02 11 C 79 % 7.5 C
1094 24-07-2011 02:55:03 10.8 C 79 % 7.31 C
1095 24-07-2011 03:07:03 10.7 C 79 % 7.21 C
1096 24-07-2011 03:19:03 10.2 C 79 % 6.73 C
1097 24-07-2011 03:31:02 10.2 C 79 % 6.73 C
1098 24-07-2011 03:43:02 10.2 C 80 % 6.91 C
1099 24-07-2011 03:55:02 10.5 C 79 % 7.02 C
1100 24-07-2011 04:07:01 10.9 C 75 % 6.65 C
Sensor: Nr:Datum:Temp:Feuchte:Taupunkt:
Aussen-T/F 1101 24-07-2011 04:19:02 10.9 C 74 % 6.45 C
1102 24-07-2011 04:31:01 10.9 C 74 % 6.45 C
1103 24-07-2011 04:43:01 10.9 C 74 % 6.45 C
1104 24-07-2011 04:55:02 11.3 C 68 % 5.62 C
1105 24-07-2011 05:07:01 11.3 C 68 % 5.62 C
1106 24-07-2011 05:19:01 10.5 C 75 % 6.26 C
1107 24-07-2011 05:31:02 10.5 C 75 % 6.26 C
1108 24-07-2011 05:43:02 10.5 C 75 % 6.26 C
1109 24-07-2011 05:55:02 10 C 79 % 6.53 C
1110 24-07-2011 06:07:01 10 C 79 % 6.53 C
1111 24-07-2011 06:19:02 10 C 79 % 6.53 C
1112 24-07-2011 06:31:02 10 C 79 % 6.53 C
1113 24-07-2011 06:43:02 10 C 79 % 6.53 C
1114 24-07-2011 06:55:02 10 C 79 % 6.53 C
1115 24-07-2011 07:07:03 10 C 79 % 6.53 C
1116 24-07-2011 07:19:02 10 C 79 % 6.53 C
1117 24-07-2011 07:31:02 10 C 79 % 6.53 C
1118 24-07-2011 07:43:03 10 C 79 % 6.53 C
1119 24-07-2011 07:55:01 10 C 79 % 6.53 C
1120 24-07-2011 08:07:02 9.9 C 88 % 8.01 C
1121 24-07-2011 08:19:01 9.9 C 88 % 8.01 C
1122 24-07-2011 08:31:01 9.9 C 88 % 8.01 C
1123 24-07-2011 08:43:01 9.9 C 88 % 8.01 C
1124 24-07-2011 08:55:01 9.9 C 88 % 8.01 C
1125 24-07-2011 09:07:02 9.9 C 88 % 8.01 C
Sensor: Nr:Datum:Temp:Feuchte:Taupunkt:
Aussen-T/F 1126 24-07-2011 09:19:01 9.9 C 88 % 8.01 C
1127 24-07-2011 09:31:02 9.9 C 88 % 8.01 C
1128 24-07-2011 09:43:03 10.8 C 86 % 8.56 C
1129 24-07-2011 09:55:02 10.9 C 85 % 8.48 C
1130 24-07-2011 10:07:02 11 C 85 % 8.58 C
1131 24-07-2011 10:19:01 11.4 C 84 % 8.8 C
1132 24-07-2011 10:31:02 11.5 C 84 % 8.89 C
1133 24-07-2011 10:43:02 11.8 C 82 % 8.83 C
1134 24-07-2011 10:55:02 12.1 C 79 % 8.57 C
1135 24-07-2011 11:07:02 12.2 C 79 % 8.67 C
1136 24-07-2011 11:19:01 12.4 C 77 % 8.49 C
1137 24-07-2011 11:31:02 12.5 C 76 % 8.39 C
1138 24-07-2011 11:43:02 12.5 C 77 % 8.58 C
1139 24-07-2011 11:55:01 12.9 C 76 % 8.78 C
1140 24-07-2011 12:07:02 13.2 C 75 % 8.87 C
1141 24-07-2011 12:19:02 13.2 C 75 % 8.87 C
1142 24-07-2011 12:31:01 13.2 C 75 % 8.87 C
1143 24-07-2011 12:43:01 13.2 C 75 % 8.87 C
1144 24-07-2011 12:55:02 14.2 C 67 % 8.17 C
1145 24-07-2011 13:07:01 13.9 C 67 % 7.88 C
1146 24-07-2011 13:19:02 13.9 C 67 % 7.88 C
1147 24-07-2011 13:31:01 15.6 C 59 % 7.62 C
1148 24-07-2011 13:43:01 15 C 60 % 7.31 C
1149 24-07-2011 13:55:02 15.1 C 59 % 7.16 C
1150 24-07-2011 14:07:02 15.3 C 59 % 7.34 C
Sensor: Nr:Datum:Temp:Feuchte:Taupunkt:
Aussen-T/F 1151 24-07-2011 14:19:02 15.3 C 59 % 7.34 C
1152 24-07-2011 14:31:03 15.3 C 59 % 7.34 C
1153 24-07-2011 14:43:03 15.3 C 59 % 7.34 C
1154 24-07-2011 14:55:02 15.3 C 59 % 7.34 C
1155 24-07-2011 15:07:01 15.3 C 59 % 7.34 C
1156 24-07-2011 15:19:02 15.3 C 59 % 7.34 C
1157 24-07-2011 15:31:02 15.3 C 59 % 7.34 C
1158 24-07-2011 15:43:02 15.3 C 59 % 7.34 C
1159 24-07-2011 15:55:02 18.1 C 48 % 6.93 C
1160 24-07-2011 16:07:02 18.1 C 48 % 6.93 C
1161 24-07-2011 16:19:02 17.7 C 50 % 7.16 C
1162 24-07-2011 16:31:02 17.8 C 52 % 7.82 C
1163 24-07-2011 16:43:03 17.1 C 51 % 6.89 C
1164 24-07-2011 16:55:01 17.1 C 51 % 6.89 C
1165 24-07-2011 17:07:02 17.1 C 51 % 6.89 C
1166 24-07-2011 17:19:01 16.2 C 59 % 8.19 C
1167 24-07-2011 17:31:01 16 C 61 % 8.49 C
1168 24-07-2011 17:43:01 16 C 61 % 8.49 C
1169 24-07-2011 17:55:02 15.8 C 61 % 8.3 C
1170 24-07-2011 18:07:02 15.3 C 64 % 8.54 C
1171 24-07-2011 18:19:01 15.7 C 63 % 8.68 C
1172 24-07-2011 18:31:02 15.4 C 64 % 8.63 C
1173 24-07-2011 18:43:02 15.1 C 60 % 7.4 C
1174 24-07-2011 18:55:02 15 C 64 % 8.25 C
1175 24-07-2011 19:07:02 14.7 C 69 % 9.08 C
Sensor: Nr:Datum:Temp:Feuchte:Taupunkt:
Aussen-T/F 1176 24-07-2011 19:19:01 14.7 C 69 % 9.08 C
1177 24-07-2011 19:31:02 14.1 C 79 % 10.52 C
1178 24-07-2011 19:43:02 14 C 80 % 10.61 C
1179 24-07-2011 19:55:02 14.1 C 81 % 10.89 C
1180 24-07-2011 20:07:02 13.9 C 82 % 10.88 C
1181 24-07-2011 20:19:02 13.6 C 82 % 10.59 C
1182 24-07-2011 20:31:02 13.5 C 83 % 10.67 C
1183 24-07-2011 20:43:02 13.1 C 84 % 10.46 C
1184 24-07-2011 20:55:02 13.3 C 84 % 10.66 C
1185 24-07-2011 21:07:02 13.2 C 84 % 10.56 C
1186 24-07-2011 21:19:02 13.1 C 84 % 10.46 C
1187 24-07-2011 21:31:01 13.1 C 84 % 10.46 C
1188 24-07-2011 21:43:01 13.1 C 84 % 10.46 C
1189 24-07-2011 21:55:02 12.5 C 86 % 10.22 C
1190 24-07-2011 22:08:02 12.4 C 87 % 10.3 C
1191 24-07-2011 22:20:02 12.2 C 87 % 10.1 C
1192 24-07-2011 22:32:02 12.1 C 87 % 10 C
1193 24-07-2011 22:44:02 12.1 C 87 % 10 C
1194 24-07-2011 22:56:02 12.1 C 88 % 10.17 C
1195 24-07-2011 23:08:02 12.3 C 88 % 10.37 C
1196 24-07-2011 23:20:02 12.3 C 88 % 10.37 C
1197 24-07-2011 23:32:02 12.4 C 88 % 10.47 C
1198 24-07-2011 23:44:02 12.1 C 88 % 10.17 C
1199 24-07-2011 23:56:02 12 C 88 % 10.08 C
1200 25-07-2011 00:08:02 12 C 88 % 10.08 C
Sensor: Nr:Datum:Temp:Feuchte:Taupunkt:
Aussen-T/F 1201 25-07-2011 00:20:02 12 C 88 % 10.08 C
1202 25-07-2011 00:32:02 11.8 C 89 % 10.05 C
1203 25-07-2011 00:44:03 11.7 C 89 % 9.95 C
1204 25-07-2011 00:56:03 11.6 C 89 % 9.85 C
1205 25-07-2011 01:08:03 11.7 C 89 % 9.95 C
1206 25-07-2011 01:20:03 11.8 C 89 % 10.05 C
1207 25-07-2011 01:32:03 11.6 C 89 % 9.85 C
1208 25-07-2011 01:44:03 11.6 C 89 % 9.85 C
1209 25-07-2011 01:56:03 11.5 C 89 % 9.75 C
1210 25-07-2011 02:08:03 11.5 C 89 % 9.75 C
1211 25-07-2011 02:20:03 11.4 C 89 % 9.65 C
1212 25-07-2011 02:32:03 11.8 C 89 % 10.05 C
1213 25-07-2011 02:44:03 11.5 C 90 % 9.92 C
1214 25-07-2011 02:56:03 11.4 C 89 % 9.65 C
1215 25-07-2011 03:08:03 11.4 C 90 % 9.82 C
1216 25-07-2011 03:20:03 11.5 C 90 % 9.92 C
1217 25-07-2011 03:32:03 11.5 C 90 % 9.92 C
1218 25-07-2011 03:44:03 11.5 C 90 % 9.92 C
1219 25-07-2011 03:56:03 11.3 C 90 % 9.72 C
1220 25-07-2011 04:08:03 10.8 C 90 % 9.23 C
1221 25-07-2011 04:20:03 10.6 C 90 % 9.03 C
1222 25-07-2011 04:32:03 10.2 C 89 % 8.47 C
1223 25-07-2011 04:44:03 10 C 89 % 8.27 C
1224 25-07-2011 04:56:03 9.8 C 91 % 8.4 C
1225 25-07-2011 05:08:03 9.8 C 91 % 8.4 C
Sensor: Nr:Datum:Temp:Feuchte:Taupunkt:
Aussen-T/F 1226 25-07-2011 05:20:04 10.3 C 90 % 8.73 C
1227 25-07-2011 05:32:04 10.2 C 90 % 8.64 C
1228 25-07-2011 05:44:04 10 C 90 % 8.44 C
1229 25-07-2011 05:56:04 9.9 C 91 % 8.5 C
1230 25-07-2011 06:08:04 9.6 C 91 % 8.21 C
1231 25-07-2011 06:20:04 9.4 C 91 % 8.01 C
1232 25-07-2011 06:32:04 9.2 C 91 % 7.81 C
1233 25-07-2011 06:44:04 9.2 C 91 % 7.81 C
1234 25-07-2011 06:56:04 8.9 C 92 % 7.67 C
1235 25-07-2011 07:08:02 9.4 C 91 % 8.01 C
1236 25-07-2011 07:20:01 9.4 C 91 % 8.01 C
1237 25-07-2011 07:32:02 9.4 C 91 % 8.01 C
1238 25-07-2011 07:44:02 9.4 C 91 % 8.01 C
1239 25-07-2011 07:56:02 9.4 C 91 % 8.01 C
1240 25-07-2011 08:08:02 9.4 C 91 % 8.01 C
1241 25-07-2011 08:20:02 11 C 88 % 9.09 C
1242 25-07-2011 08:32:02 11 C 88 % 9.09 C
1243 25-07-2011 08:44:02 11 C 88 % 9.09 C
1244 25-07-2011 08:56:02 11.2 C 88 % 9.29 C
1245 25-07-2011 09:08:02 11.4 C 88 % 9.49 C
1246 25-07-2011 09:20:03 11.7 C 88 % 9.78 C
1247 25-07-2011 09:32:02 12 C 87 % 9.91 C
1248 25-07-2011 09:44:02 12.3 C 87 % 10.2 C
1249 25-07-2011 09:56:02 12.7 C 86 % 10.42 C
1250 25-07-2011 10:08:02 13.4 C 84 % 10.75 C
Sensor: Nr:Datum:Temp:Feuchte:Taupunkt:
Aussen-T/F 1251 25-07-2011 10:20:03 14.7 C 81 % 11.48 C
1252 25-07-2011 10:32:02 15 C 72 % 10 C
1253 25-07-2011 10:44:02 15 C 72 % 10 C
1254 25-07-2011 10:56:02 15.5 C 69 % 9.84 C
1255 25-07-2011 11:08:02 16.3 C 60 % 8.53 C
1256 25-07-2011 11:20:02 17.1 C 48 % 6.01 C
1257 25-07-2011 11:32:03 17.5 C 52 % 7.54 C
1258 25-07-2011 11:44:03 18.3 C 38 % 3.75 C
1259 25-07-2011 11:56:02 18.7 C 37 % 3.73 C
1260 25-07-2011 12:08:01 19.1 C 35 % 3.3 C
1261 25-07-2011 12:20:02 19.5 C 35 % 3.65 C
1262 25-07-2011 12:32:02 19.6 C 34 % 3.33 C
1263 25-07-2011 12:44:02 19.5 C 37 % 4.44 C
1264 25-07-2011 12:56:02 20.4 C 35 % 4.44 C
1265 25-07-2011 13:08:03 21.3 C 28 % 2.07 C
1266 25-07-2011 13:20:02 21.6 C 26 % 1.29 C
1267 25-07-2011 13:32:03 22.5 C 23 % 0.36 C
1268 25-07-2011 13:44:03 27.2 C 20 % 2.31 C
1269 25-07-2011 13:56:02 29.3 C 20 % 4.03 C
1270 25-07-2011 14:08:01 26.1 C 20 % 1.41 C
1271 25-07-2011 14:20:02 24.4 C 20 % 0.01 C
1272 25-07-2011 14:32:02 23.9 C 21 % 0.27 C
1273 25-07-2011 14:44:02 27.9 C 20 % 2.88 C
1274 25-07-2011 14:56:02 23 C 33 % 5.88 C
1275 25-07-2011 15:08:01 23.1 C 33 % 5.96 C
Sensor: Nr:Datum:Temp:Feuchte:Taupunkt:
Aussen-T/F 1276 25-07-2011 15:20:01 29.4 C 20 % 4.11 C
1277 25-07-2011 15:32:02 28 C 20 % 2.97 C
1278 25-07-2011 15:44:02 27.3 C 20 % 2.39 C
1279 25-07-2011 15:56:02 24.3 C 20 % -0.07 C
1280 25-07-2011 16:08:02 26.2 C 29 % 6.77 C
1281 25-07-2011 16:20:02 23.9 C 34 % 7.1 C
1282 25-07-2011 16:32:02 22.7 C 37 % 7.27 C
1283 25-07-2011 16:44:02 22.1 C 41 % 8.24 C
1284 25-07-2011 16:56:01 22.8 C 40 % 8.5 C
1285 25-07-2011 17:08:02 22.7 C 41 % 8.78 C
1286 25-07-2011 17:20:01 24.8 C 30 % 6.06 C
1287 25-07-2011 17:32:02 24.5 C 23 % 2.03 C
1288 25-07-2011 17:44:02 27.9 C 20 % 2.88 C
1289 25-07-2011 17:56:02 30.1 C 20 % 4.69 C
1290 25-07-2011 18:08:02 24 C 26 % 3.33 C
1291 25-07-2011 18:20:01 21.7 C 42 % 8.24 C
1292 25-07-2011 18:32:02 21.2 C 44 % 8.47 C
1293 25-07-2011 18:44:02 23.7 C 30 % 5.11 C
1294 25-07-2011 18:56:02 22.3 C 42 % 8.78 C
1295 25-07-2011 19:08:02 23.7 C 40 % 9.31 C
1296 25-07-2011 19:20:01 20.6 C 49 % 9.52 C
1297 25-07-2011 19:32:02 21.7 C 44 % 8.92 C
1298 25-07-2011 19:44:02 20.1 C 50 % 9.36 C
1299 25-07-2011 19:56:02 19 C 52 % 8.93 C
1300 25-07-2011 20:08:02 18.2 C 55 % 9.02 C
Sensor: Nr:Datum:Temp:Feuchte:Taupunkt:
Aussen-T/F 1301 25-07-2011 20:20:02 17.3 C 59 % 9.22 C
1302 25-07-2011 20:32:02 16.9 C 59 % 8.84 C
1303 25-07-2011 20:44:02 17 C 56 % 8.17 C
1304 25-07-2011 20:56:02 16.7 C 60 % 8.9 C
1305 25-07-2011 21:08:02 16.2 C 60 % 8.43 C
1306 25-07-2011 21:20:02 16.1 C 61 % 8.58 C
1307 25-07-2011 21:32:02 16.1 C 63 % 9.06 C
1308 25-07-2011 21:44:02 16 C 63 % 8.97 C
1309 25-07-2011 21:56:02 16 C 63 % 8.97 C
1310 25-07-2011 22:08:02 15.9 C 64 % 9.11 C
1311 25-07-2011 22:21:03 15.8 C 64 % 9.01 C
1312 25-07-2011 22:33:03 15.9 C 64 % 9.11 C
1313 25-07-2011 22:45:03 15.9 C 63 % 8.87 C
1314 25-07-2011 22:57:04 15.7 C 64 % 8.92 C
1315 25-07-2011 23:09:04 15.5 C 68 % 9.63 C
1316 25-07-2011 23:21:04 15.3 C 69 % 9.65 C
1317 25-07-2011 23:33:04 15.2 C 70 % 9.77 C
1318 25-07-2011 23:45:04 15.2 C 71 % 9.98 C
1319 25-07-2011 23:57:04 15.1 C 71 % 9.89 C
1320 26-07-2011 00:09:04 15.3 C 72 % 10.29 C
1321 26-07-2011 00:21:04 15.4 C 70 % 9.96 C
1322 26-07-2011 00:33:04 15.2 C 70 % 9.77 C
1323 26-07-2011 00:45:04 15 C 69 % 9.36 C
1324 26-07-2011 00:57:04 15.3 C 67 % 9.21 C
1325 26-07-2011 01:09:04 15.1 C 72 % 10.09 C
Sensor: Nr:Datum:Temp:Feuchte:Taupunkt:
Aussen-T/F 1326 26-07-2011 01:21:04 14.9 C 75 % 10.51 C
1327 26-07-2011 01:33:04 14.2 C 76 % 10.03 C
1328 26-07-2011 01:45:04 14.2 C 79 % 10.61 C
1329 26-07-2011 01:57:04 14.1 C 81 % 10.89 C
1330 26-07-2011 02:09:04 13.9 C 83 % 11.06 C
1331 26-07-2011 02:21:04 13.7 C 83 % 10.87 C
1332 26-07-2011 02:33:04 13.6 C 83 % 10.77 C
1333 26-07-2011 02:45:04 13.6 C 83 % 10.77 C
1334 26-07-2011 02:57:04 13.6 C 83 % 10.77 C
1335 26-07-2011 03:09:04 13.5 C 83 % 10.67 C
1336 26-07-2011 03:21:05 13.5 C 83 % 10.67 C
1337 26-07-2011 03:33:05 13.6 C 83 % 10.77 C
1338 26-07-2011 03:45:05 13.4 C 83 % 10.57 C
1339 26-07-2011 03:57:05 13.6 C 83 % 10.77 C
1340 26-07-2011 04:09:05 13.8 C 84 % 11.15 C
1341 26-07-2011 04:21:05 13.8 C 83 % 10.97 C
1342 26-07-2011 04:33:05 13.9 C 83 % 11.06 C
1343 26-07-2011 04:45:05 13.9 C 82 % 10.88 C
1344 26-07-2011 04:57:05 13.9 C 83 % 11.06 C
1345 26-07-2011 05:09:05 13.8 C 82 % 10.78 C
1346 26-07-2011 05:21:05 13.8 C 82 % 10.78 C
1347 26-07-2011 05:33:05 13.7 C 82 % 10.69 C
1348 26-07-2011 05:45:05 13.6 C 82 % 10.59 C
1349 26-07-2011 05:57:05 13.4 C 82 % 10.39 C
1350 26-07-2011 06:09:05 13.2 C 82 % 10.2 C
Sensor: Nr:Datum:Temp:Feuchte:Taupunkt:
Aussen-T/F 1351 26-07-2011 06:21:05 13.2 C 83 % 10.38 C
1352 26-07-2011 06:33:05 13.3 C 83 % 10.48 C
1353 26-07-2011 06:45:05 13.5 C 83 % 10.67 C
1354 26-07-2011 06:57:05 13.7 C 84 % 11.05 C
1355 26-07-2011 07:09:05 13.8 C 84 % 11.15 C
1356 26-07-2011 07:21:02 14 C 83 % 11.16 C
1357 26-07-2011 07:33:02 14.2 C 83 % 11.36 C
1358 26-07-2011 07:45:02 14.3 C 83 % 11.45 C
1359 26-07-2011 07:57:02 14.3 C 83 % 11.45 C
1360 26-07-2011 08:09:02 14.2 C 83 % 11.36 C
1361 26-07-2011 08:21:02 14.3 C 83 % 11.45 C
1362 26-07-2011 08:33:02 14.4 C 84 % 11.73 C
1363 26-07-2011 08:45:01 14.5 C 85 % 12.01 C
1364 26-07-2011 08:57:01 14.7 C 86 % 12.38 C
1365 26-07-2011 09:09:01 14.7 C 86 % 12.38 C
1366 26-07-2011 09:21:02 14.7 C 85 % 12.21 C
1367 26-07-2011 09:33:01 15.3 C 84 % 12.61 C
1368 26-07-2011 09:45:02 15.5 C 83 % 12.63 C
1369 26-07-2011 09:57:02 15.5 C 82 % 12.44 C
1370 26-07-2011 10:09:01 15.4 C 83 % 12.53 C
1371 26-07-2011 10:21:02 15.3 C 82 % 12.25 C
1372 26-07-2011 10:33:01 15 C 82 % 11.95 C
1373 26-07-2011 10:45:02 15.3 C 83 % 12.43 C
1374 26-07-2011 10:57:02 15.3 C 83 % 12.43 C
1375 26-07-2011 11:09:02 15.8 C 81 % 12.55 C
Sensor: Nr:Datum:Temp:Feuchte:Taupunkt:
Aussen-T/F 1376 26-07-2011 11:21:03 16.4 C 79 % 12.75 C
1377 26-07-2011 11:33:02 17.7 C 74 % 13.01 C
1378 26-07-2011 11:45:02 18.6 C 66 % 12.13 C
1379 26-07-2011 11:57:02 17.5 C 69 % 11.75 C
1380 26-07-2011 12:09:02 17.5 C 69 % 11.75 C
1381 26-07-2011 12:21:02 18.3 C 67 % 12.07 C
1382 26-07-2011 12:33:02 18.7 C 62 % 11.28 C
1383 26-07-2011 12:45:02 19.4 C 60 % 11.44 C
1384 26-07-2011 12:57:02 19.3 C 59 % 11.09 C
1385 26-07-2011 13:09:02 20.5 C 54 % 10.88 C
1386 26-07-2011 13:21:02 21.7 C 52 % 11.42 C
1387 26-07-2011 13:33:01 21.8 C 49 % 10.62 C
1388 26-07-2011 13:45:02 22.2 C 49 % 10.98 C
1389 26-07-2011 13:57:02 22.1 C 49 % 10.89 C
1390 26-07-2011 14:09:01 22.3 C 47 % 10.45 C
1391 26-07-2011 14:21:02 25.7 C 37 % 9.92 C
1392 26-07-2011 14:33:02 24.2 C 40 % 9.75 C
1393 26-07-2011 14:45:02 24.5 C 39 % 9.65 C
1394 26-07-2011 14:57:02 23.4 C 38 % 8.28 C
1395 26-07-2011 15:09:03 25 C 37 % 9.31 C
1396 26-07-2011 15:21:02 23.7 C 40 % 9.31 C
1397 26-07-2011 15:33:02 22.6 C 46 % 10.4 C
1398 26-07-2011 15:45:01 22.3 C 46 % 10.13 C
1399 26-07-2011 15:57:01 22.2 C 46 % 10.04 C
1400 26-07-2011 16:09:02 21.4 C 48 % 9.94 C
Sensor: Nr:Datum:Temp:Feuchte:Taupunkt:
Aussen-T/F 1401 26-07-2011 16:21:01 20.5 C 54 % 10.88 C
1402 26-07-2011 16:33:01 20.3 C 59 % 12.03 C
1403 26-07-2011 16:45:01 20.6 C 57 % 11.79 C
1404 26-07-2011 16:57:01 20.1 C 62 % 12.6 C
1405 26-07-2011 17:09:02 19 C 61 % 11.31 C
1406 26-07-2011 17:21:01 18.7 C 69 % 12.9 C
1407 26-07-2011 17:33:02 19 C 71 % 13.63 C
1408 26-07-2011 17:45:01 18.6 C 67 % 12.36 C
1409 26-07-2011 17:57:01 18.8 C 68 % 12.77 C
1410 26-07-2011 18:09:02 18.9 C 71 % 13.53 C
1411 26-07-2011 18:21:02 18.5 C 68 % 12.49 C
1412 26-07-2011 18:33:01 18.4 C 66 % 11.94 C
1413 26-07-2011 18:45:02 18.1 C 68 % 12.11 C
1414 26-07-2011 18:57:02 17.9 C 70 % 12.35 C
1415 26-07-2011 19:09:01 17.7 C 70 % 12.16 C
1416 26-07-2011 19:21:02 17.4 C 71 % 12.09 C
1417 26-07-2011 19:33:01 17.3 C 72 % 12.21 C
1418 26-07-2011 19:45:02 17.2 C 73 % 12.32 C
1419 26-07-2011 19:57:02 16.9 C 75 % 12.44 C
1420 26-07-2011 20:09:01 16.7 C 77 % 12.65 C
1421 26-07-2011 20:21:01 16.4 C 77 % 12.36 C
1422 26-07-2011 20:33:01 16.5 C 78 % 12.65 C
1423 26-07-2011 20:45:02 16.6 C 78 % 12.75 C
1424 26-07-2011 20:57:02 16.5 C 79 % 12.85 C
1425 26-07-2011 21:09:02 16.4 C 80 % 12.94 C
Sensor: Nr:Datum:Temp:Feuchte:Taupunkt:
Aussen-T/F 1426 26-07-2011 21:21:02 16 C 80 % 12.55 C
1427 26-07-2011 21:33:02 15.7 C 82 % 12.64 C
1428 26-07-2011 21:46:04 15.4 C 83 % 12.53 C
1429 26-07-2011 21:58:04 15 C 83 % 12.14 C
1430 26-07-2011 22:10:04 14.7 C 84 % 12.03 C
1431 26-07-2011 22:22:04 14.3 C 84 % 11.64 C
1432 26-07-2011 22:34:04 14.1 C 85 % 11.62 C
1433 26-07-2011 22:46:04 13.7 C 85 % 11.23 C
1434 26-07-2011 22:58:04 13.8 C 86 % 11.5 C
1435 26-07-2011 23:10:04 13.8 C 87 % 11.68 C
1436 26-07-2011 23:22:04 13.7 C 87 % 11.58 C
1437 26-07-2011 23:34:04 14.1 C 87 % 11.97 C
1438 26-07-2011 23:46:04 14.2 C 88 % 12.24 C
1439 26-07-2011 23:58:05 14.3 C 88 % 12.34 C
1440 27-07-2011 00:10:05 14.3 C 88 % 12.34 C
1441 27-07-2011 00:22:05 14.3 C 88 % 12.34 C
1442 27-07-2011 00:34:05 14.2 C 88 % 12.24 C
1443 27-07-2011 00:46:05 14.2 C 88 % 12.24 C
1444 27-07-2011 00:58:05 13.9 C 89 % 12.12 C
1445 27-07-2011 01:10:05 13.8 C 89 % 12.02 C
1446 27-07-2011 01:22:05 13.7 C 89 % 11.92 C
1447 27-07-2011 01:34:05 13.5 C 89 % 11.72 C
1448 27-07-2011 01:46:05 13.2 C 89 % 11.43 C
1449 27-07-2011 01:58:05 13.2 C 89 % 11.43 C
1450 27-07-2011 02:10:05 13.4 C 89 % 11.63 C
Sensor: Nr:Datum:Temp:Feuchte:Taupunkt:
Aussen-T/F 1451 27-07-2011 02:22:05 13.2 C 89 % 11.43 C
1452 27-07-2011 02:34:05 13.4 C 89 % 11.63 C
1453 27-07-2011 02:46:05 13.3 C 89 % 11.53 C
1454 27-07-2011 02:58:05 13.2 C 89 % 11.43 C
1455 27-07-2011 03:10:05 13.2 C 89 % 11.43 C
1456 27-07-2011 03:22:05 13.1 C 89 % 11.33 C
1457 27-07-2011 03:34:05 13 C 89 % 11.23 C
1458 27-07-2011 03:46:05 13.2 C 89 % 11.43 C
1459 27-07-2011 03:58:05 13 C 89 % 11.23 C
1460 27-07-2011 04:10:06 12.9 C 90 % 11.3 C
1461 27-07-2011 04:22:06 13 C 89 % 11.23 C
1462 27-07-2011 04:34:06 13 C 89 % 11.23 C
1463 27-07-2011 04:46:06 13.2 C 89 % 11.43 C
1464 27-07-2011 04:58:06 13.2 C 90 % 11.6 C
1465 27-07-2011 05:10:06 13.4 C 90 % 11.79 C
1466 27-07-2011 05:22:06 13.5 C 90 % 11.89 C
1467 27-07-2011 05:34:06 13.3 C 90 % 11.7 C
1468 27-07-2011 05:46:06 13.3 C 90 % 11.7 C
1469 27-07-2011 05:58:06 13.3 C 90 % 11.7 C
1470 27-07-2011 06:10:06 13.3 C 90 % 11.7 C
1471 27-07-2011 06:22:06 13.4 C 90 % 11.79 C
1472 27-07-2011 06:34:06 13.8 C 90 % 12.19 C
1473 27-07-2011 06:46:06 14 C 90 % 12.39 C
1474 27-07-2011 06:58:06 14.1 C 90 % 12.49 C
1475 27-07-2011 07:10:06 14.3 C 90 % 12.68 C
Sensor: Nr:Datum:Temp:Feuchte:Taupunkt:
Aussen-T/F 1476 27-07-2011 07:22:06 14.6 C 90 % 12.98 C
1477 27-07-2011 07:34:03 14.7 C 89 % 12.91 C
1478 27-07-2011 07:46:02 15 C 88 % 13.03 C
1479 27-07-2011 07:58:03 15.3 C 88 % 13.33 C
1480 27-07-2011 08:10:01 15.4 C 88 % 13.42 C
1481 27-07-2011 08:22:02 15.8 C 87 % 13.64 C
1482 27-07-2011 08:34:02 15.7 C 86 % 13.37 C
1483 27-07-2011 08:46:02 16.3 C 82 % 13.22 C
1484 27-07-2011 08:58:02 16.4 C 80 % 12.94 C
1485 27-07-2011 09:10:02 16.4 C 78 % 12.56 C
1486 27-07-2011 09:22:02 16.4 C 78 % 12.56 C
1487 27-07-2011 09:34:02 16.4 C 78 % 12.56 C
1488 27-07-2011 09:46:02 17.1 C 71 % 11.8 C
1489 27-07-2011 09:58:02 17.5 C 67 % 11.31 C
1490 27-07-2011 10:10:02 18.4 C 64 % 11.47 C
1491 27-07-2011 10:22:01 18.4 C 64 % 11.47 C
1492 27-07-2011 10:34:02 19.3 C 58 % 10.84 C
1493 27-07-2011 10:46:02 19.3 C 58 % 10.84 C
1494 27-07-2011 10:58:02 19.5 C 59 % 11.28 C
1495 27-07-2011 11:10:02 19.9 C 56 % 10.87 C
1496 27-07-2011 11:22:01 20.7 C 53 % 10.78 C
1497 27-07-2011 11:34:02 21.1 C 50 % 10.28 C
1498 27-07-2011 11:46:02 21.7 C 50 % 10.83 C
1499 27-07-2011 11:58:02 22.5 C 45 % 9.98 C
1500 27-07-2011 12:10:02 21.3 C 50 % 10.46 C
Sensor: Nr:Datum:Temp:Feuchte:Taupunkt:
Aussen-T/F 1501 27-07-2011 12:22:01 21.2 C 51 % 10.67 C
1502 27-07-2011 12:34:02 21.6 C 51 % 11.04 C
1503 27-07-2011 12:46:01 22.5 C 48 % 10.95 C
1504 27-07-2011 12:58:01 23.5 C 43 % 10.21 C
1505 27-07-2011 13:10:02 23.7 C 43 % 10.39 C
1506 27-07-2011 13:22:02 23 C 45 % 10.43 C
1507 27-07-2011 13:34:02 23.8 C 42 % 10.12 C
1508 27-07-2011 13:46:02 24.1 C 41 % 10.03 C
1509 27-07-2011 13:58:02 22.7 C 48 % 11.13 C
1510 27-07-2011 14:10:02 22 C 56 % 12.82 C
1511 27-07-2011 14:22:02 21.3 C 58 % 12.71 C
1512 27-07-2011 14:34:02 20.8 C 63 % 13.5 C
1513 27-07-2011 14:46:01 20.8 C 63 % 13.5 C
1514 27-07-2011 14:58:01 19.4 C 72 % 14.22 C
1515 27-07-2011 15:10:02 17.8 C 77 % 13.72 C
1516 27-07-2011 15:22:02 17.4 C 80 % 13.92 C
1517 27-07-2011 15:34:01 17.5 C 81 % 14.2 C
1518 27-07-2011 15:46:02 17.2 C 80 % 13.72 C
1519 27-07-2011 15:58:02 17.8 C 79 % 14.11 C
1520 27-07-2011 16:10:01 18.8 C 77 % 14.68 C
1521 27-07-2011 16:22:02 19 C 74 % 14.26 C
1522 27-07-2011 16:34:01 19.2 C 74 % 14.46 C
1523 27-07-2011 16:46:02 19.5 C 77 % 15.36 C
1524 27-07-2011 16:58:02 19.1 C 77 % 14.97 C
1525 27-07-2011 17:10:02 19.2 C 73 % 14.25 C
Sensor: Nr:Datum:Temp:Feuchte:Taupunkt:
Aussen-T/F 1526 27-07-2011 17:22:02 19.1 C 74 % 14.36 C
1527 27-07-2011 17:34:02 18.5 C 76 % 14.19 C
1528 27-07-2011 17:46:02 17.9 C 79 % 14.21 C
1529 27-07-2011 17:58:02 18.2 C 80 % 14.69 C
1530 27-07-2011 18:10:02 19 C 79 % 15.28 C
1531 27-07-2011 18:22:01 19.8 C 76 % 15.45 C
1532 27-07-2011 18:34:02 19.9 C 72 % 14.7 C
1533 27-07-2011 18:46:02 20 C 70 % 14.36 C
1534 27-07-2011 18:58:02 22.6 C 53 % 12.54 C
1535 27-07-2011 19:10:02 23.3 C 51 % 12.6 C
1536 27-07-2011 19:22:02 21.2 C 59 % 12.87 C
1537 27-07-2011 19:34:02 19.7 C 69 % 13.86 C
1538 27-07-2011 19:46:02 19.1 C 74 % 14.36 C
1539 27-07-2011 19:58:02 18.5 C 76 % 14.19 C
1540 27-07-2011 20:10:03 18.2 C 78 % 14.3 C
1541 27-07-2011 20:22:02 17.9 C 80 % 14.4 C
1542 27-07-2011 20:34:02 17.4 C 81 % 14.11 C
1543 27-07-2011 20:46:02 17 C 82 % 13.91 C
1544 27-07-2011 20:58:02 16.4 C 84 % 13.69 C
1545 27-07-2011 21:10:01 16.4 C 85 % 13.87 C
1546 27-07-2011 21:22:01 16.2 C 85 % 13.68 C
1547 27-07-2011 21:34:02 16 C 86 % 13.66 C
1548 27-07-2011 21:46:02 16.2 C 85 % 13.68 C
1549 27-07-2011 21:58:02 16 C 85 % 13.48 C
1550 27-07-2011 22:10:02 16 C 86 % 13.66 C
Sensor: Nr:Datum:Temp:Feuchte:Taupunkt:
Aussen-T/F 1551 27-07-2011 22:22:02 15.9 C 87 % 13.74 C
1552 27-07-2011 22:35:05 15.8 C 87 % 13.64 C
1553 27-07-2011 22:47:05 16 C 86 % 13.66 C
1554 27-07-2011 22:59:05 15.8 C 87 % 13.64 C
1555 27-07-2011 23:11:05 15.7 C 87 % 13.54 C
1556 27-07-2011 23:23:05 15.6 C 87 % 13.45 C
1557 27-07-2011 23:35:05 15.6 C 88 % 13.62 C
1558 27-07-2011 23:47:05 15.6 C 88 % 13.62 C
1559 27-07-2011 23:59:06 15.6 C 88 % 13.62 C
1560 28-07-2011 00:11:06 15.7 C 88 % 13.72 C
1561 28-07-2011 00:23:06 15.5 C 88 % 13.52 C
1562 28-07-2011 00:35:06 15.4 C 88 % 13.42 C
1563 28-07-2011 00:47:06 15.2 C 88 % 13.23 C
1564 28-07-2011 00:59:06 15.3 C 88 % 13.33 C
1565 28-07-2011 01:11:06 15.3 C 89 % 13.5 C
1566 28-07-2011 01:23:06 15.4 C 89 % 13.6 C
1567 28-07-2011 01:35:06 15.3 C 89 % 13.5 C
1568 28-07-2011 01:47:06 15.4 C 89 % 13.6 C
1569 28-07-2011 01:59:06 15.3 C 89 % 13.5 C
1570 28-07-2011 02:11:06 15.3 C 89 % 13.5 C
1571 28-07-2011 02:23:06 15.4 C 89 % 13.6 C
1572 28-07-2011 02:35:06 15.4 C 89 % 13.6 C
1573 28-07-2011 02:47:06 15.4 C 89 % 13.6 C
1574 28-07-2011 02:59:06 15.4 C 89 % 13.6 C
1575 28-07-2011 03:11:06 15.4 C 89 % 13.6 C
Sensor: Nr:Datum:Temp:Feuchte:Taupunkt:
Aussen-T/F 1576 28-07-2011 03:23:06 15.4 C 89 % 13.6 C
1577 28-07-2011 03:35:06 15.4 C 89 % 13.6 C
1578 28-07-2011 03:47:06 15.4 C 89 % 13.6 C
1579 28-07-2011 03:59:06 15.4 C 90 % 13.77 C
1580 28-07-2011 04:11:07 15.3 C 89 % 13.5 C
1581 28-07-2011 04:23:07 15.2 C 89 % 13.4 C
1582 28-07-2011 04:35:07 15 C 89 % 13.2 C
1583 28-07-2011 04:47:07 14.9 C 90 % 13.28 C
1584 28-07-2011 04:59:07 14.9 C 90 % 13.28 C
1585 28-07-2011 05:11:07 14.9 C 90 % 13.28 C
1586 28-07-2011 05:23:07 15 C 89 % 13.2 C
1587 28-07-2011 05:35:07 15.1 C 90 % 13.47 C
1588 28-07-2011 05:47:07 15.1 C 90 % 13.47 C
1589 28-07-2011 05:59:07 15.1 C 90 % 13.47 C
1590 28-07-2011 06:11:07 15.2 C 90 % 13.57 C
1591 28-07-2011 06:23:07 15.2 C 90 % 13.57 C
1592 28-07-2011 06:35:07 15.2 C 90 % 13.57 C
1593 28-07-2011 06:47:02 15.3 C 90 % 13.67 C
1594 28-07-2011 06:59:02 15.4 C 90 % 13.77 C
1595 28-07-2011 07:11:02 15.5 C 90 % 13.87 C
1596 28-07-2011 07:23:03 15.7 C 90 % 14.06 C
1597 28-07-2011 07:35:03 15.9 C 90 % 14.26 C
1598 28-07-2011 07:47:02 16 C 89 % 14.19 C
1599 28-07-2011 07:59:02 16 C 89 % 14.19 C
1600 28-07-2011 08:11:02 16.1 C 89 % 14.29 C
Sensor: Nr:Datum:Temp:Feuchte:Taupunkt:
Aussen-T/F 1601 28-07-2011 08:23:01 16.1 C 89 % 14.29 C
1602 28-07-2011 08:35:02 16 C 89 % 14.19 C
1603 28-07-2011 08:47:02 16.1 C 89 % 14.29 C
1604 28-07-2011 08:59:02 16.2 C 88 % 14.21 C
1605 28-07-2011 09:11:02 16.4 C 88 % 14.41 C
1606 28-07-2011 09:23:02 16.4 C 86 % 14.05 C
1607 28-07-2011 09:35:02 16.6 C 84 % 13.89 C
1608 28-07-2011 09:47:02 16.6 C 82 % 13.52 C
1609 28-07-2011 09:59:02 16.8 C 79 % 13.14 C
1610 28-07-2011 10:11:02 17.2 C 78 % 13.33 C
1611 28-07-2011 10:23:02 17.2 C 76 % 12.94 C
1612 28-07-2011 10:35:02 17.3 C 76 % 13.03 C
1613 28-07-2011 10:47:02 17.5 C 76 % 13.23 C
1614 28-07-2011 10:59:02 17.7 C 76 % 13.42 C
1615 28-07-2011 11:11:02 18.1 C 73 % 13.19 C
1616 28-07-2011 11:23:02 18.3 C 71 % 12.95 C
1617 28-07-2011 11:35:02 18.3 C 71 % 12.95 C
1618 28-07-2011 11:47:02 18 C 73 % 13.09 C
1619 28-07-2011 11:59:02 18.1 C 72 % 12.98 C
1620 28-07-2011 12:11:02 18.3 C 72 % 13.17 C
1621 28-07-2011 12:23:02 18.1 C 72 % 12.98 C
1622 28-07-2011 12:35:02 18.5 C 72 % 13.36 C
1623 28-07-2011 12:47:02 20 C 61 % 12.26 C
1624 28-07-2011 12:59:02 20.6 C 59 % 12.31 C
1625 28-07-2011 13:11:02 20.5 C 57 % 11.7 C
Sensor: Nr:Datum:Temp:Feuchte:Taupunkt:
Aussen-T/F 1626 28-07-2011 13:23:02 21.4 C 55 % 11.99 C
1627 28-07-2011 13:35:01 20.8 C 56 % 11.71 C
1628 28-07-2011 13:47:02 20.9 C 57 % 12.07 C
1629 28-07-2011 13:59:02 21 C 56 % 11.89 C
1630 28-07-2011 14:11:01 21.5 C 55 % 12.08 C
1631 28-07-2011 14:23:01 21.8 C 54 % 12.08 C
1632 28-07-2011 14:35:02 23.4 C 46 % 11.13 C
1633 28-07-2011 14:47:02 22.5 C 51 % 11.86 C
1634 28-07-2011 14:59:02 21.6 C 55 % 12.18 C
1635 28-07-2011 15:11:01 23.6 C 49 % 12.27 C
1636 28-07-2011 15:23:02 25.1 C 41 % 10.93 C
1637 28-07-2011 15:35:02 26 C 39 % 10.98 C
1638 28-07-2011 15:47:01 28.1 C 34 % 10.77 C
1639 28-07-2011 15:59:01 27.5 C 32 % 9.34 C
1640 28-07-2011 16:11:02 29.1 C 30 % 9.76 C
1641 28-07-2011 16:23:01 30.4 C 25 % 8.17 C
1642 28-07-2011 16:35:01 30.9 C 25 % 8.59 C
1643 28-07-2011 16:47:02 31.4 C 22 % 7.13 C
1644 28-07-2011 16:59:02 31.5 C 22 % 7.22 C
1645 28-07-2011 17:11:02 30.6 C 25 % 8.34 C
1646 28-07-2011 17:23:01 29.5 C 27 % 8.54 C
1647 28-07-2011 17:35:02 27.6 C 32 % 9.43 C
1648 28-07-2011 17:47:02 27.1 C 33 % 9.45 C
1649 28-07-2011 17:59:02 26.9 C 34 % 9.72 C
1650 28-07-2011 18:11:02 24.7 C 40 % 10.2 C
Sensor: Nr:Datum:Temp:Feuchte:Taupunkt:
Aussen-T/F 1651 28-07-2011 18:23:01 23.5 C 50 % 12.48 C
1652 28-07-2011 18:35:02 22.9 C 46 % 10.67 C
1653 28-07-2011 18:47:02 22.7 C 48 % 11.13 C
1654 28-07-2011 18:59:02 22.5 C 49 % 11.26 C
1655 28-07-2011 19:11:02 22.2 C 49 % 10.98 C
1656 28-07-2011 19:23:02 21.7 C 54 % 11.99 C
1657 28-07-2011 19:35:02 20.8 C 61 % 13.01 C
1658 28-07-2011 19:47:02 20.3 C 64 % 13.27 C
1659 28-07-2011 19:59:02 19.6 C 68 % 13.54 C
1660 28-07-2011 20:11:02 19.1 C 69 % 13.28 C
1661 28-07-2011 20:23:02 19.5 C 65 % 12.75 C
1662 28-07-2011 20:35:02 19.3 C 65 % 12.56 C
1663 28-07-2011 20:47:02 18.6 C 70 % 13.02 C
1664 28-07-2011 20:59:02 17.8 C 73 % 12.9 C
1665 28-07-2011 21:11:02 17.3 C 76 % 13.03 C
1666 28-07-2011 21:23:02 16.8 C 79 % 13.14 C
1667 28-07-2011 21:35:02 16.3 C 79 % 12.65 C
1668 28-07-2011 21:47:02 16 C 80 % 12.55 C
1669 28-07-2011 21:59:02 15.8 C 82 % 12.74 C
1670 28-07-2011 22:11:02 15.5 C 83 % 12.63 C
1671 28-07-2011 22:24:02 15.5 C 83 % 12.63 C
1672 28-07-2011 22:36:02 15.2 C 84 % 12.52 C
1673 28-07-2011 22:48:02 15.2 C 84 % 12.52 C
1674 28-07-2011 23:00:02 15.4 C 84 % 12.71 C
1675 28-07-2011 23:12:02 15.4 C 84 % 12.71 C
Sensor: Nr:Datum:Temp:Feuchte:Taupunkt:
Aussen-T/F 1676 28-07-2011 23:24:02 15.4 C 84 % 12.71 C
1677 28-07-2011 23:36:02 15.5 C 84 % 12.81 C
1678 28-07-2011 23:48:02 15.6 C 83 % 12.72 C
1679 29-07-2011 00:00:02 15.5 C 84 % 12.81 C
1680 29-07-2011 00:12:02 15.6 C 83 % 12.72 C
1681 29-07-2011 00:24:02 15.6 C 83 % 12.72 C
1682 29-07-2011 00:36:02 15.6 C 83 % 12.72 C
1683 29-07-2011 00:48:02 15.7 C 83 % 12.82 C
1684 29-07-2011 01:00:02 15.8 C 83 % 12.92 C
1685 29-07-2011 01:12:02 15.8 C 83 % 12.92 C
1686 29-07-2011 01:24:02 15.8 C 82 % 12.74 C
1687 29-07-2011 01:36:02 15.9 C 82 % 12.83 C
1688 29-07-2011 01:48:03 16.3 C 79 % 12.65 C
1689 29-07-2011 02:00:03 16.3 C 78 % 12.46 C
1690 29-07-2011 02:12:03 16.2 C 78 % 12.36 C
1691 29-07-2011 02:24:03 16 C 79 % 12.36 C
1692 29-07-2011 02:36:03 15.9 C 80 % 12.46 C
1693 29-07-2011 02:48:03 15.8 C 81 % 12.55 C
1694 29-07-2011 03:00:03 15.6 C 82 % 12.54 C
1695 29-07-2011 03:12:03 15.6 C 83 % 12.72 C
1696 29-07-2011 03:24:03 15.6 C 83 % 12.72 C
1697 29-07-2011 03:36:03 15.5 C 84 % 12.81 C
1698 29-07-2011 03:48:03 15.5 C 84 % 12.81 C
1699 29-07-2011 04:00:03 15.5 C 85 % 12.99 C
1700 29-07-2011 04:12:03 15.3 C 85 % 12.79 C
Sensor: Nr:Datum:Temp:Feuchte:Taupunkt:
Aussen-T/F 1701 29-07-2011 04:24:03 15.2 C 85 % 12.7 C
1702 29-07-2011 04:36:03 15.1 C 85 % 12.6 C
1703 29-07-2011 04:48:03 15 C 85 % 12.5 C
1704 29-07-2011 05:00:03 15 C 85 % 12.5 C
1705 29-07-2011 05:12:03 15 C 85 % 12.5 C
1706 29-07-2011 05:24:03 14.8 C 86 % 12.48 C
1707 29-07-2011 05:36:03 14.9 C 87 % 12.76 C
1708 29-07-2011 05:48:04 14.9 C 87 % 12.76 C
1709 29-07-2011 06:00:04 15 C 87 % 12.86 C
1710 29-07-2011 06:12:04 15.1 C 87 % 12.95 C
1711 29-07-2011 06:24:04 15.3 C 87 % 13.15 C
1712 29-07-2011 06:36:04 15.4 C 86 % 13.07 C
1713 29-07-2011 06:48:04 15.6 C 85 % 13.09 C
1714 29-07-2011 07:00:04 15.7 C 84 % 13.01 C
1715 29-07-2011 07:12:04 16 C 82 % 12.93 C
1716 29-07-2011 07:24:04 16.2 C 81 % 12.94 C
1717 29-07-2011 07:36:04 16.2 C 80 % 12.75 C
1718 29-07-2011 07:48:04 16.4 C 79 % 12.75 C
1719 29-07-2011 08:00:04 16.6 C 79 % 12.95 C
1720 29-07-2011 08:12:04 16.6 C 78 % 12.75 C
1721 29-07-2011 08:24:01 16.8 C 78 % 12.94 C
1722 29-07-2011 08:36:02 16.8 C 77 % 12.75 C
1723 29-07-2011 08:48:02 16.8 C 77 % 12.75 C
1724 29-07-2011 09:00:02 17.2 C 75 % 12.73 C
1725 29-07-2011 09:12:02 17.6 C 74 % 12.91 C
Sensor: Nr:Datum:Temp:Feuchte:Taupunkt:
Aussen-T/F 1726 29-07-2011 09:24:01 17.7 C 73 % 12.8 C
1727 29-07-2011 09:36:02 17.9 C 73 % 12.99 C
1728 29-07-2011 09:48:02 17.7 C 73 % 12.8 C
1729 29-07-2011 10:00:02 17.6 C 74 % 12.91 C
1730 29-07-2011 10:12:02 17.7 C 73 % 12.8 C
1731 29-07-2011 10:24:03 17.8 C 74 % 13.11 C
1732 29-07-2011 10:36:02 17.7 C 74 % 13.01 C
1733 29-07-2011 10:48:03 17.5 C 75 % 13.02 C
1734 29-07-2011 11:00:03 17.9 C 74 % 13.2 C
1735 29-07-2011 11:12:02 18.4 C 71 % 13.05 C
1736 29-07-2011 11:24:02 18.8 C 68 % 12.77 C
1737 29-07-2011 11:36:02 19.5 C 63 % 12.27 C
1738 29-07-2011 11:48:02 19.8 C 61 % 12.07 C
1739 29-07-2011 12:00:02 19.5 C 61 % 11.78 C
1740 29-07-2011 12:12:02 19.7 C 61 % 11.97 C
1741 29-07-2011 12:24:02 19.1 C 62 % 11.65 C
1742 29-07-2011 12:36:03 19 C 62 % 11.56 C
1743 29-07-2011 12:48:02 18.6 C 65 % 11.9 C
1744 29-07-2011 13:00:02 18.8 C 65 % 12.09 C
1745 29-07-2011 13:12:01 18.6 C 62 % 11.18 C
1746 29-07-2011 13:24:02 20 C 57 % 11.23 C
1747 29-07-2011 13:36:02 20.8 C 52 % 10.59 C
1748 29-07-2011 13:48:02 21.5 C 48 % 10.04 C
1749 29-07-2011 14:00:02 21.1 C 48 % 9.67 C
1750 29-07-2011 14:12:03 20.2 C 47 % 8.54 C
Sensor: Nr:Datum:Temp:Feuchte:Taupunkt:
Aussen-T/F 1751 29-07-2011 14:24:02 23.3 C 39 % 8.58 C
1752 29-07-2011 14:36:02 24.2 C 36 % 8.2 C
1753 29-07-2011 14:48:01 23.4 C 38 % 8.28 C
1754 29-07-2011 15:00:01 23.6 C 39 % 8.84 C
1755 29-07-2011 15:12:02 22.3 C 41 % 8.42 C
1756 29-07-2011 15:24:01 20.7 C 45 % 8.35 C
1757 29-07-2011 15:36:02 20.5 C 48 % 9.12 C
1758 29-07-2011 15:48:02 21 C 44 % 8.29 C
1759 29-07-2011 16:00:02 21 C 44 % 8.29 C
1760 29-07-2011 16:12:02 21.7 C 43 % 8.58 C
1761 29-07-2011 16:24:02 22 C 41 % 8.15 C
1762 29-07-2011 16:36:02 21.4 C 39 % 6.89 C
1763 29-07-2011 16:48:02 20.9 C 43 % 7.86 C
1764 29-07-2011 17:00:02 22.1 C 35 % 5.94 C
1765 29-07-2011 17:12:03 24.1 C 33 % 6.84 C
1766 29-07-2011 17:24:02 22.4 C 36 % 6.61 C
1767 29-07-2011 17:36:02 20.6 C 44 % 7.93 C
1768 29-07-2011 17:48:01 20.8 C 44 % 8.11 C
1769 29-07-2011 18:00:01 19.9 C 47 % 8.26 C
1770 29-07-2011 18:12:01 20.1 C 45 % 7.81 C
1771 29-07-2011 18:24:02 20.1 C 45 % 7.81 C
1772 29-07-2011 18:36:01 19.8 C 45 % 7.53 C
1773 29-07-2011 18:48:02 22.3 C 37 % 6.92 C
1774 29-07-2011 19:00:02 21.9 C 35 % 5.76 C
1775 29-07-2011 19:12:01 22.3 C 35 % 6.11 C
Sensor: Nr:Datum:Temp:Feuchte:Taupunkt:
Aussen-T/F 1776 29-07-2011 19:24:02 21.7 C 34 % 5.17 C
1777 29-07-2011 19:36:01 23.2 C 32 % 5.61 C
1778 29-07-2011 19:48:02 21.4 C 39 % 6.89 C
1779 29-07-2011 20:00:02 20.3 C 41 % 6.63 C
1780 29-07-2011 20:12:02 20.1 C 42 % 6.8 C
1781 29-07-2011 20:24:02 19.5 C 45 % 7.26 C
1782 29-07-2011 20:36:02 18.9 C 46 % 7.04 C
1783 29-07-2011 20:48:02 18.6 C 47 % 7.08 C
1784 29-07-2011 21:00:03 18.2 C 49 % 7.32 C
1785 29-07-2011 21:12:01 17.1 C 53 % 7.45 C
1786 29-07-2011 21:24:02 16 C 60 % 8.25 C
1787 29-07-2011 21:36:02 14.8 C 67 % 8.74 C
1788 29-07-2011 21:49:02 14.5 C 70 % 9.1 C
1789 29-07-2011 22:01:02 14.2 C 72 % 9.23 C
1790 29-07-2011 22:13:03 14.2 C 74 % 9.64 C
1791 29-07-2011 22:25:03 13.8 C 75 % 9.45 C
1792 29-07-2011 22:37:03 13.9 C 77 % 9.94 C
1793 29-07-2011 22:49:03 14.4 C 76 % 10.23 C
1794 29-07-2011 23:01:03 14.5 C 72 % 9.52 C
1795 29-07-2011 23:13:03 14.5 C 73 % 9.72 C
1796 29-07-2011 23:25:03 14.9 C 72 % 9.9 C
1797 29-07-2011 23:37:03 15 C 68 % 9.15 C
1798 29-07-2011 23:49:03 14.5 C 71 % 9.31 C
1799 30-07-2011 00:01:03 14.1 C 73 % 9.34 C
1800 30-07-2011 00:13:03 14.3 C 73 % 9.53 C
Sensor: Nr:Datum:Temp:Feuchte:Taupunkt:
Aussen-T/F 1801 30-07-2011 00:25:03 14 C 74 % 9.44 C
1802 30-07-2011 00:37:03 14 C 75 % 9.64 C
1803 30-07-2011 00:49:03 14.4 C 75 % 10.03 C
1804 30-07-2011 01:01:03 14.7 C 74 % 10.12 C
1805 30-07-2011 01:13:03 14.9 C 74 % 10.31 C
1806 30-07-2011 01:25:03 15.1 C 72 % 10.09 C
1807 30-07-2011 01:37:03 15.1 C 72 % 10.09 C
1808 30-07-2011 01:49:03 15.2 C 72 % 10.19 C
1809 30-07-2011 02:01:03 15.2 C 72 % 10.19 C
1810 30-07-2011 02:13:04 15.2 C 72 % 10.19 C
1811 30-07-2011 02:25:04 15.4 C 71 % 10.17 C
1812 30-07-2011 02:37:04 15.3 C 72 % 10.29 C
1813 30-07-2011 02:49:04 15.4 C 71 % 10.17 C
1814 30-07-2011 03:01:04 15.2 C 71 % 9.98 C
1815 30-07-2011 03:13:04 15.1 C 70 % 9.67 C
1816 30-07-2011 03:25:04 15 C 70 % 9.58 C
1817 30-07-2011 03:37:04 14.9 C 71 % 9.69 C
1818 30-07-2011 03:49:04 14.6 C 72 % 9.61 C
1819 30-07-2011 04:01:04 14.5 C 73 % 9.72 C
1820 30-07-2011 04:13:04 14.5 C 72 % 9.52 C
1821 30-07-2011 04:25:04 14.1 C 74 % 9.54 C
1822 30-07-2011 04:37:04 13.7 C 80 % 10.32 C
1823 30-07-2011 04:49:04 13.5 C 83 % 10.67 C
1824 30-07-2011 05:01:04 13.3 C 84 % 10.66 C
1825 30-07-2011 05:13:04 13.3 C 85 % 10.83 C
Sensor: Nr:Datum:Temp:Feuchte:Taupunkt:
Aussen-T/F 1826 30-07-2011 05:25:04 13.3 C 85 % 10.83 C
1827 30-07-2011 05:37:04 13.3 C 85 % 10.83 C
1828 30-07-2011 05:49:04 13.4 C 85 % 10.93 C
1829 30-07-2011 06:01:04 13.3 C 84 % 10.66 C
1830 30-07-2011 06:13:04 13.4 C 83 % 10.57 C
1831 30-07-2011 06:25:05 13.5 C 81 % 10.31 C
1832 30-07-2011 06:37:05 13.5 C 81 % 10.31 C
1833 30-07-2011 06:49:05 13.5 C 79 % 9.93 C
1834 30-07-2011 07:01:05 13.6 C 79 % 10.03 C
1835 30-07-2011 07:13:05 13.7 C 78 % 9.94 C
1836 30-07-2011 07:25:05 13.5 C 78 % 9.74 C
1837 30-07-2011 07:37:05 13.6 C 78 % 9.84 C
1838 30-07-2011 07:49:05 13.8 C 78 % 10.03 C
1839 30-07-2011 08:01:02 13.9 C 77 % 9.94 C
1840 30-07-2011 08:13:02 13.8 C 77 % 9.84 C
1841 30-07-2011 08:25:02 14.1 C 76 % 9.94 C
1842 30-07-2011 08:37:01 14.1 C 74 % 9.54 C
1843 30-07-2011 08:49:02 14.1 C 73 % 9.34 C
1844 30-07-2011 09:01:01 14.2 C 75 % 9.84 C
1845 30-07-2011 09:13:01 14.7 C 73 % 9.92 C
1846 30-07-2011 09:25:02 14.8 C 70 % 9.39 C
1847 30-07-2011 09:37:02 15 C 69 % 9.36 C
1848 30-07-2011 09:49:02 15 C 69 % 9.36 C
1849 30-07-2011 10:01:02 15.2 C 68 % 9.34 C
1850 30-07-2011 10:13:02 15.5 C 65 % 8.96 C
Sensor: Nr:Datum:Temp:Feuchte:Taupunkt:
Aussen-T/F 1851 30-07-2011 10:25:02 15.1 C 67 % 9.02 C
1852 30-07-2011 10:37:03 14 C 74 % 9.44 C
1853 30-07-2011 10:49:02 14.6 C 74 % 10.02 C
1854 30-07-2011 11:01:02 15.4 C 68 % 9.53 C
1855 30-07-2011 11:13:02 16 C 62 % 8.73 C
1856 30-07-2011 11:25:02 15.6 C 63 % 8.59 C
1857 30-07-2011 11:37:02 15.1 C 63 % 8.12 C
1858 30-07-2011 11:49:02 15.2 C 62 % 7.98 C
1859 30-07-2011 12:01:02 15.9 C 59 % 7.91 C
1860 30-07-2011 12:13:02 16.5 C 58 % 8.22 C
1861 30-07-2011 12:25:03 16.6 C 56 % 7.8 C
1862 30-07-2011 12:37:02 16.4 C 56 % 7.61 C
1863 30-07-2011 12:49:02 16 C 56 % 7.24 C
1864 30-07-2011 13:01:02 15.9 C 57 % 7.4 C
1865 30-07-2011 13:13:02 15.8 C 58 % 7.56 C
1866 30-07-2011 13:25:02 16.3 C 53 % 6.71 C
1867 30-07-2011 13:37:02 16.4 C 54 % 7.08 C
1868 30-07-2011 13:49:02 16.2 C 57 % 7.68 C
1869 30-07-2011 14:01:01 15.7 C 58 % 7.47 C
1870 30-07-2011 14:13:01 16.2 C 57 % 7.68 C
1871 30-07-2011 14:25:02 16.2 C 56 % 7.42 C
1872 30-07-2011 14:37:02 16.2 C 57 % 7.68 C
1873 30-07-2011 14:49:02 16 C 58 % 7.75 C
1874 30-07-2011 15:01:02 15.5 C 60 % 7.78 C
1875 30-07-2011 15:13:02 15.4 C 61 % 7.93 C
Sensor: Nr:Datum:Temp:Feuchte:Taupunkt:
Aussen-T/F 1876 30-07-2011 15:25:02 15.8 C 60 % 8.06 C
1877 30-07-2011 15:37:02 16.8 C 54 % 7.45 C
1878 30-07-2011 15:49:01 16.4 C 54 % 7.08 C
1879 30-07-2011 16:01:02 16.8 C 56 % 7.98 C
1880 30-07-2011 16:13:02 16.9 C 55 % 7.81 C
1881 30-07-2011 16:25:01 16.4 C 55 % 7.35 C
1882 30-07-2011 16:37:02 16.9 C 54 % 7.54 C
1883 30-07-2011 16:49:02 16.9 C 54 % 7.54 C
1884 30-07-2011 17:01:02 16.1 C 56 % 7.33 C
1885 30-07-2011 17:13:03 16.1 C 57 % 7.59 C
1886 30-07-2011 17:25:02 15.9 C 59 % 7.91 C
1887 30-07-2011 17:37:02 15.9 C 59 % 7.91 C
1888 30-07-2011 17:49:02 15.9 C 59 % 7.91 C
1889 30-07-2011 18:01:03 16 C 59 % 8 C
1890 30-07-2011 18:13:03 16.4 C 58 % 8.12 C
1891 30-07-2011 18:25:02 16.2 C 58 % 7.94 C
1892 30-07-2011 18:37:02 16.2 C 56 % 7.42 C
1893 30-07-2011 18:49:02 16.6 C 57 % 8.06 C
1894 30-07-2011 19:01:03 16.4 C 55 % 7.35 C
1895 30-07-2011 19:13:03 16.1 C 56 % 7.33 C
1896 30-07-2011 19:25:02 15.9 C 58 % 7.66 C
1897 30-07-2011 19:37:03 15.7 C 58 % 7.47 C
1898 30-07-2011 19:49:02 15.7 C 59 % 7.72 C
1899 30-07-2011 20:01:02 15.6 C 59 % 7.62 C
1900 30-07-2011 20:13:03 15.4 C 60 % 7.68 C
Sensor: Nr:Datum:Temp:Feuchte:Taupunkt:
Aussen-T/F 1901 30-07-2011 20:25:02 15.3 C 61 % 7.83 C
1902 30-07-2011 20:37:02 15.3 C 62 % 8.07 C
1903 30-07-2011 20:49:03 15.2 C 62 % 7.98 C
1904 30-07-2011 21:01:03 15 C 62 % 7.79 C
1905 30-07-2011 21:13:03 14.9 C 63 % 7.93 C
1906 30-07-2011 21:25:02 14.8 C 63 % 7.83 C
1907 30-07-2011 21:37:03 14.7 C 64 % 7.97 C
1908 30-07-2011 21:49:03 14.7 C 64 % 7.97 C
1909 30-07-2011 22:02:04 14.6 C 64 % 7.87 C
1910 30-07-2011 22:14:04 14.6 C 65 % 8.1 C
1911 30-07-2011 22:26:04 14.5 C 66 % 8.23 C
1912 30-07-2011 22:38:04 14.4 C 67 % 8.36 C
1913 30-07-2011 22:50:04 14.2 C 69 % 8.6 C
1914 30-07-2011 23:02:04 14.2 C 69 % 8.6 C
1915 30-07-2011 23:14:04 14.3 C 70 % 8.91 C
1916 30-07-2011 23:26:04 14.1 C 70 % 8.72 C
1917 30-07-2011 23:38:04 14 C 71 % 8.83 C
1918 30-07-2011 23:50:04 14 C 71 % 8.83 C
1919 31-07-2011 00:02:04 14.1 C 71 % 8.93 C
1920 31-07-2011 00:14:04 14.1 C 71 % 8.93 C
1921 31-07-2011 00:26:04 14.1 C 70 % 8.72 C
1922 31-07-2011 00:38:04 14.3 C 70 % 8.91 C
1923 31-07-2011 00:50:04 14.3 C 69 % 8.7 C
1924 31-07-2011 01:02:04 14.3 C 69 % 8.7 C
1925 31-07-2011 01:14:04 14.3 C 70 % 8.91 C
Sensor: Nr:Datum:Temp:Feuchte:Taupunkt:
Aussen-T/F 1926 31-07-2011 01:26:04 14 C 70 % 8.62 C
1927 31-07-2011 01:38:04 14.1 C 70 % 8.72 C
1928 31-07-2011 01:50:04 14 C 71 % 8.83 C
1929 31-07-2011 02:02:04 13.9 C 72 % 8.94 C
1930 31-07-2011 02:14:05 14 C 72 % 9.04 C
1931 31-07-2011 02:26:05 13.8 C 74 % 9.25 C
1932 31-07-2011 02:38:05 13.9 C 73 % 9.15 C
1933 31-07-2011 02:50:05 13.9 C 73 % 9.15 C
1934 31-07-2011 03:02:05 13.8 C 73 % 9.05 C
1935 31-07-2011 03:14:05 13.8 C 73 % 9.05 C
1936 31-07-2011 03:26:05 13.7 C 73 % 8.95 C
1937 31-07-2011 03:38:05 13.7 C 72 % 8.75 C
1938 31-07-2011 03:50:05 13.7 C 72 % 8.75 C
1939 31-07-2011 04:02:05 13.7 C 72 % 8.75 C
1940 31-07-2011 04:14:05 13.6 C 72 % 8.65 C
1941 31-07-2011 04:26:05 13.5 C 73 % 8.76 C
1942 31-07-2011 04:38:05 13.4 C 74 % 8.87 C
1943 31-07-2011 04:50:05 13.4 C 74 % 8.87 C
1944 31-07-2011 05:02:05 13.4 C 75 % 9.06 C
1945 31-07-2011 05:14:05 13.5 C 74 % 8.96 C
1946 31-07-2011 05:26:05 13.5 C 74 % 8.96 C
1947 31-07-2011 05:38:05 13.5 C 74 % 8.96 C
1948 31-07-2011 05:50:05 13.4 C 74 % 8.87 C
1949 31-07-2011 06:02:05 13.4 C 74 % 8.87 C
1950 31-07-2011 06:14:05 13.5 C 74 % 8.96 C
Sensor: Nr:Datum:Temp:Feuchte:Taupunkt:
Aussen-T/F 1951 31-07-2011 06:26:05 13.4 C 74 % 8.87 C
1952 31-07-2011 06:38:06 13.5 C 74 % 8.96 C
1953 31-07-2011 06:50:06 13.4 C 74 % 8.87 C
1954 31-07-2011 07:02:06 13.5 C 74 % 8.96 C
1955 31-07-2011 07:14:06 13.5 C 73 % 8.76 C
1956 31-07-2011 07:26:06 13.5 C 73 % 8.76 C
1957 31-07-2011 07:38:06 13.5 C 72 % 8.56 C
1958 31-07-2011 07:50:06 13.5 C 72 % 8.56 C
1959 31-07-2011 08:02:06 13.8 C 70 % 8.43 C
1960 31-07-2011 08:14:06 14 C 66 % 7.76 C
1961 31-07-2011 08:26:06 14.1 C 65 % 7.63 C
1962 31-07-2011 08:38:06 14.7 C 62 % 7.5 C
1963 31-07-2011 08:50:02 14.6 C 60 % 6.93 C
1964 31-07-2011 09:02:03 14.6 C 57 % 6.19 C
1965 31-07-2011 09:14:03 14.7 C 57 % 6.28 C
1966 31-07-2011 09:26:02 14.6 C 57 % 6.19 C
1967 31-07-2011 09:38:02 15.3 C 55 % 6.32 C
1968 31-07-2011 09:50:02 15.5 C 53 % 5.97 C
1969 31-07-2011 10:02:03 15.9 C 51 % 5.79 C
1970 31-07-2011 10:14:03 15.6 C 50 % 5.23 C
1971 31-07-2011 10:26:03 15.5 C 50 % 5.13 C
1972 31-07-2011 10:38:03 16 C 48 % 5.01 C
1973 31-07-2011 10:50:02 15.9 C 47 % 4.61 C
1974 31-07-2011 11:02:05 16.3 C 47 % 4.98 C
1975 31-07-2011 11:14:05 16.1 C 48 % 5.1 C
Sensor: Nr:Datum:Temp:Feuchte:Taupunkt:
Aussen-T/F 1976 31-07-2011 11:26:02 15.9 C 50 % 5.5 C
1977 31-07-2011 11:38:02 16.2 C 47 % 4.89 C
1978 31-07-2011 11:50:01 16.4 C 46 % 4.76 C
1979 31-07-2011 12:02:02 16.9 C 45 % 4.9 C
1980 31-07-2011 12:14:02 17 C 45 % 4.99 C
1981 31-07-2011 12:26:02 17.4 C 43 % 4.71 C
1982 31-07-2011 12:38:02 16.9 C 44 % 4.58 C
1983 31-07-2011 12:50:01 17.3 C 43 % 4.62 C
1984 31-07-2011 13:02:02 18.1 C 41 % 4.66 C
1985 31-07-2011 13:14:02 18.3 C 42 % 5.18 C
1986 31-07-2011 13:26:02 17.5 C 41 % 4.12 C
1987 31-07-2011 13:38:01 17.8 C 43 % 5.07 C
1988 31-07-2011 13:50:02 18.1 C 41 % 4.66 C
1989 31-07-2011 14:02:01 17.6 C 44 % 5.22 C
1990 31-07-2011 14:14:01 17.9 C 44 % 5.49 C
1991 31-07-2011 14:26:02 18.3 C 41 % 4.83 C
1992 31-07-2011 14:38:01 18.1 C 44 % 5.67 C
1993 31-07-2011 14:50:01 18.1 C 43 % 5.34 C
1994 31-07-2011 15:02:01 17.7 C 42 % 4.64 C
1995 31-07-2011 15:14:01 18.3 C 41 % 4.83 C
1996 31-07-2011 15:26:01 17.9 C 43 % 5.16 C
1997 31-07-2011 15:38:01 17.6 C 43 % 4.89 C
1998 31-07-2011 15:50:01 17.8 C 43 % 5.07 C
1999 31-07-2011 16:02:01 18.3 C 42 % 5.18 C
2000 31-07-2011 16:14:01 18.1 C 42 % 5 C
Sensor: Nr:Datum:Temp:Feuchte:Taupunkt:
Aussen-T/F 2001 31-07-2011 16:26:02 17.7 C 44 % 5.31 C
2002 31-07-2011 16:38:01 17.9 C 44 % 5.49 C
2003 31-07-2011 16:50:03 17.9 C 45 % 5.81 C
2004 31-07-2011 17:02:02 18 C 45 % 5.9 C
2005 31-07-2011 17:14:02 17.7 C 45 % 5.63 C
2006 31-07-2011 17:26:02 17.5 C 46 % 5.76 C
2007 31-07-2011 17:38:02 17.5 C 45 % 5.45 C
2008 31-07-2011 17:50:02 17.3 C 45 % 5.27 C
2009 31-07-2011 18:02:01 16.8 C 47 % 5.44 C
2010 31-07-2011 18:14:01 17.2 C 46 % 5.49 C
2011 31-07-2011 18:26:02 17.2 C 45 % 5.18 C
2012 31-07-2011 18:38:02 17.1 C 46 % 5.4 C
2013 31-07-2011 18:50:02 16.8 C 47 % 5.44 C
2014 31-07-2011 19:02:03 16.9 C 47 % 5.53 C
2015 31-07-2011 19:14:03 16.7 C 48 % 5.65 C
2016 31-07-2011 19:26:02 16.6 C 49 % 5.85 C
2017 31-07-2011 19:38:02 16.5 C 50 % 6.05 C
2018 31-07-2011 19:50:01 16.4 C 51 % 6.25 C
2019 31-07-2011 20:02:02 16.3 C 52 % 6.44 C
2020 31-07-2011 20:14:02 16.1 C 51 % 5.97 C
2021 31-07-2011 20:26:01 16 C 52 % 6.16 C
2022 31-07-2011 20:38:02 15.8 C 53 % 6.25 C
2023 31-07-2011 20:50:01 15.7 C 54 % 6.43 C
2024 31-07-2011 21:02:02 15.4 C 58 % 7.19 C
2025 31-07-2011 21:14:03 15.3 C 56 % 6.58 C
Sensor: Nr:Datum:Temp:Feuchte:Taupunkt:
Aussen-T/F 2026 31-07-2011 21:26:01 15.2 C 58 % 7 C
2027 31-07-2011 21:38:02 14.8 C 62 % 7.6 C
2028 31-07-2011 21:50:01 14.6 C 62 % 7.41 C
2029 31-07-2011 22:02:02 14 C 65 % 7.53 C
2030 31-07-2011 22:14:02 13 C 69 % 7.45 C
2031 31-07-2011 22:26:02 12.6 C 71 % 7.49 C
2032 31-07-2011 22:38:01 12.3 C 73 % 7.61 C
2033 31-07-2011 22:50:02 12.1 C 74 % 7.61 C
2034 31-07-2011 23:03:03 12 C 75 % 7.71 C
2035 31-07-2011 23:15:03 11.8 C 76 % 7.71 C
2036 31-07-2011 23:27:03 11.6 C 78 % 7.9 C
2037 31-07-2011 23:39:03 11.5 C 79 % 7.99 C
2038 31-07-2011 23:51:03 11.3 C 78 % 7.61 C
2039 01-08-2011 00:03:03 10.4 C 79 % 6.92 C
2040 01-08-2011 00:15:03 10 C 80 % 6.71 C
2041 01-08-2011 00:27:03 9.7 C 82 % 6.78 C
2042 01-08-2011 00:39:03 9.8 C 84 % 7.23 C
2043 01-08-2011 00:51:03 9.4 C 84 % 6.84 C
2044 01-08-2011 01:03:03 9.2 C 84 % 6.64 C
2045 01-08-2011 01:15:03 9 C 84 % 6.45 C
2046 01-08-2011 01:27:03 9.3 C 86 % 7.08 C
2047 01-08-2011 01:39:03 9.3 C 86 % 7.08 C
2048 01-08-2011 01:51:03 8.9 C 87 % 6.86 C
2049 01-08-2011 02:03:03 8.7 C 87 % 6.66 C
2050 01-08-2011 02:15:04 8.5 C 87 % 6.46 C
Sensor: Nr:Datum:Temp:Feuchte:Taupunkt:
Aussen-T/F 2051 01-08-2011 02:27:04 8.4 C 87 % 6.37 C
2052 01-08-2011 02:39:04 8.3 C 87 % 6.27 C
2053 01-08-2011 02:51:04 8.2 C 87 % 6.17 C
2054 01-08-2011 03:03:04 8.1 C 87 % 6.07 C
2055 01-08-2011 03:15:04 8 C 87 % 5.97 C
2056 01-08-2011 03:27:04 8 C 88 % 6.14 C
2057 01-08-2011 03:39:04 8.1 C 88 % 6.24 C
2058 01-08-2011 03:51:04 7.8 C 89 % 6.1 C
2059 01-08-2011 04:03:04 7.6 C 89 % 5.91 C
2060 01-08-2011 04:15:04 7.7 C 89 % 6 C
2061 01-08-2011 04:27:04 7.8 C 89 % 6.1 C
2062 01-08-2011 04:39:04 7.5 C 89 % 5.81 C
2063 01-08-2011 04:51:04 7.4 C 89 % 5.71 C
2064 01-08-2011 05:03:04 7.3 C 89 % 5.61 C
2065 01-08-2011 05:15:04 7.2 C 89 % 5.51 C
2066 01-08-2011 05:27:04 7.2 C 89 % 5.51 C
2067 01-08-2011 05:39:05 7.1 C 89 % 5.41 C
2068 01-08-2011 05:51:05 7.3 C 89 % 5.61 C
2069 01-08-2011 06:03:05 7.1 C 89 % 5.41 C
2070 01-08-2011 06:15:05 7.3 C 89 % 5.61 C
2071 01-08-2011 06:27:05 7.4 C 90 % 5.87 C
2072 01-08-2011 06:39:05 7.4 C 90 % 5.87 C
2073 01-08-2011 06:51:05 7.7 C 90 % 6.17 C
2074 01-08-2011 07:03:05 8.2 C 89 % 6.5 C
2075 01-08-2011 07:15:02 8.6 C 90 % 7.06 C
Sensor: Nr:Datum:Temp:Feuchte:Taupunkt:
Aussen-T/F 2076 01-08-2011 07:27:02 8.6 C 90 % 7.06 C
2077 01-08-2011 07:39:02 8.9 C 90 % 7.35 C
2078 01-08-2011 07:51:02 9.3 C 89 % 7.58 C
2079 01-08-2011 08:03:01 9.3 C 89 % 7.58 C
2080 01-08-2011 08:15:02 9.6 C 88 % 7.71 C
2081 01-08-2011 08:27:02 9.8 C 87 % 7.74 C
2082 01-08-2011 08:39:02 10.2 C 85 % 7.79 C
2083 01-08-2011 08:51:02 10.9 C 84 % 8.31 C
2084 01-08-2011 09:03:01 11.1 C 81 % 7.97 C
2085 01-08-2011 09:15:01 11.1 C 79 % 7.6 C
2086 01-08-2011 09:27:01 11.2 C 80 % 7.88 C
2087 01-08-2011 09:39:02 11.5 C 80 % 8.17 C
2088 01-08-2011 09:51:02 12 C 78 % 8.29 C
2089 01-08-2011 10:03:02 12.7 C 77 % 8.78 C
2090 01-08-2011 10:15:02 13.5 C 74 % 8.96 C
2091 01-08-2011 10:27:02 14.2 C 69 % 8.6 C
2092 01-08-2011 10:39:02 14.7 C 69 % 9.08 C
2093 01-08-2011 10:51:02 15.4 C 66 % 9.09 C
2094 01-08-2011 11:03:01 16.4 C 61 % 8.87 C
2095 01-08-2011 11:15:02 17.9 C 54 % 8.47 C
2096 01-08-2011 11:27:03 18.6 C 49 % 7.69 C
2097 01-08-2011 11:39:01 19 C 47 % 7.44 C
2098 01-08-2011 11:51:02 20.1 C 44 % 7.48 C
2099 01-08-2011 12:03:01 19.6 C 45 % 7.35 C
2100 01-08-2011 12:15:02 19.8 C 49 % 8.79 C
Sensor: Nr:Datum:Temp:Feuchte:Taupunkt:
Aussen-T/F 2101 01-08-2011 12:27:02 19.4 C 47 % 7.81 C
2102 01-08-2011 12:39:01 19.4 C 48 % 8.12 C
2103 01-08-2011 12:51:03 19.9 C 47 % 8.26 C
2104 01-08-2011 13:03:02 20.4 C 46 % 8.4 C
2105 01-08-2011 13:15:02 20.7 C 45 % 8.35 C
2106 01-08-2011 13:27:02 21.2 C 43 % 8.13 C
2107 01-08-2011 13:39:03 22.5 C 41 % 8.6 C
2108 01-08-2011 13:51:02 26.3 C 30 % 7.35 C
2109 01-08-2011 14:03:01 28.6 C 26 % 7.23 C
2110 01-08-2011 14:15:02 24.1 C 33 % 6.84 C
2111 01-08-2011 14:27:02 27.2 C 31 % 8.61 C
2112 01-08-2011 14:39:02 27.4 C 28 % 7.29 C
2113 01-08-2011 14:51:01 28.1 C 26 % 6.8 C
2114 01-08-2011 15:03:02 28.1 C 25 % 6.24 C
2115 01-08-2011 15:15:01 28.7 C 26 % 7.31 C
2116 01-08-2011 15:27:01 28.8 C 25 % 6.82 C
2117 01-08-2011 15:39:01 28.9 C 24 % 6.32 C
2118 01-08-2011 15:51:01 30.3 C 23 % 6.87 C
2119 01-08-2011 16:03:02 30.2 C 22 % 6.14 C
2120 01-08-2011 16:15:01 29.6 C 24 % 6.9 C
2121 01-08-2011 16:27:01 30.6 C 20 % 5.1 C
2122 01-08-2011 16:39:01 27.1 C 28 % 7.03 C
2123 01-08-2011 16:51:01 28.3 C 30 % 9.07 C
2124 01-08-2011 17:03:02 29.1 C 26 % 7.65 C
2125 01-08-2011 17:15:02 27.8 C 32 % 9.6 C
Sensor: Nr:Datum:Temp:Feuchte:Taupunkt:
Aussen-T/F 2126 01-08-2011 17:27:02 28.3 C 28 % 8.06 C
2127 01-08-2011 17:39:01 29.2 C 29 % 9.34 C
2128 01-08-2011 17:51:02 30 C 23 % 6.62 C
2129 01-08-2011 18:03:02 30.3 C 23 % 6.87 C
2130 01-08-2011 18:15:01 29.7 C 24 % 6.99 C
2131 01-08-2011 18:27:01 28.6 C 30 % 9.33 C
2132 01-08-2011 18:39:02 29.5 C 27 % 8.54 C
2133 01-08-2011 18:51:02 30.5 C 23 % 7.03 C
2134 01-08-2011 19:03:02 29.4 C 23 % 6.12 C
2135 01-08-2011 19:15:02 28.5 C 25 % 6.57 C
2136 01-08-2011 19:27:02 28.8 C 27 % 7.95 C
2137 01-08-2011 19:39:02 26.9 C 36 % 10.57 C
2138 01-08-2011 19:51:02 24.5 C 43 % 11.11 C
2139 01-08-2011 20:03:02 22.9 C 50 % 11.93 C
2140 01-08-2011 20:15:02 22.1 C 52 % 11.79 C
2141 01-08-2011 20:27:02 21.2 C 54 % 11.53 C
2142 01-08-2011 20:39:02 20.5 C 56 % 11.43 C
2143 01-08-2011 20:51:01 19.9 C 58 % 11.4 C
2144 01-08-2011 21:03:01 19.3 C 59 % 11.09 C
2145 01-08-2011 21:15:01 19 C 59 % 10.81 C
2146 01-08-2011 21:27:01 18.5 C 62 % 11.09 C
2147 01-08-2011 21:39:01 18.1 C 62 % 10.71 C
2148 01-08-2011 21:51:01 17.7 C 66 % 11.27 C
2149 01-08-2011 22:04:02 17.7 C 66 % 11.27 C
2150 01-08-2011 22:16:02 17.3 C 68 % 11.34 C
Sensor: Nr:Datum:Temp:Feuchte:Taupunkt:
Aussen-T/F 2151 01-08-2011 22:28:02 16.6 C 69 % 10.89 C
2152 01-08-2011 22:40:02 16.2 C 71 % 10.94 C
2153 01-08-2011 22:52:02 16.1 C 74 % 11.47 C
2154 01-08-2011 23:04:02 15.8 C 76 % 11.58 C
2155 01-08-2011 23:16:02 15.3 C 76 % 11.1 C
2156 01-08-2011 23:28:02 15 C 78 % 11.2 C
2157 01-08-2011 23:40:02 15.2 C 79 % 11.59 C
2158 01-08-2011 23:52:02 14.6 C 80 % 11.19 C
2159 02-08-2011 00:04:02 14.3 C 81 % 11.09 C
2160 02-08-2011 00:16:02 14.2 C 82 % 11.17 C
2161 02-08-2011 00:28:02 14 C 82 % 10.98 C
2162 02-08-2011 00:40:03 14 C 83 % 11.16 C
2163 02-08-2011 00:52:03 14 C 83 % 11.16 C
2164 02-08-2011 01:04:03 13.8 C 84 % 11.15 C
2165 02-08-2011 01:16:03 13.5 C 84 % 10.85 C
2166 02-08-2011 01:28:03 13.3 C 84 % 10.66 C
2167 02-08-2011 01:40:03 13.2 C 84 % 10.56 C
2168 02-08-2011 01:52:03 13.2 C 85 % 10.74 C
2169 02-08-2011 02:04:03 12.9 C 86 % 10.62 C
2170 02-08-2011 02:16:03 12.9 C 86 % 10.62 C
2171 02-08-2011 02:28:03 12.8 C 87 % 10.69 C
2172 02-08-2011 02:40:03 12.7 C 87 % 10.59 C
2173 02-08-2011 02:52:03 12.6 C 87 % 10.5 C
2174 02-08-2011 03:04:03 12.6 C 87 % 10.5 C
2175 02-08-2011 03:16:03 12.5 C 87 % 10.4 C
Sensor: Nr:Datum:Temp:Feuchte:Taupunkt:
Aussen-T/F 2176 02-08-2011 03:28:03 12.3 C 87 % 10.2 C
2177 02-08-2011 03:40:03 12.2 C 87 % 10.1 C
2178 02-08-2011 03:52:03 12.2 C 87 % 10.1 C
2179 02-08-2011 04:04:03 12.2 C 87 % 10.1 C
2180 02-08-2011 04:16:03 12.2 C 88 % 10.27 C
2181 02-08-2011 04:28:03 11.9 C 88 % 9.98 C
2182 02-08-2011 04:40:03 12 C 88 % 10.08 C
2183 02-08-2011 04:52:03 11.7 C 88 % 9.78 C
2184 02-08-2011 05:04:03 11.7 C 89 % 9.95 C
2185 02-08-2011 05:16:04 11.4 C 88 % 9.49 C
2186 02-08-2011 05:28:04 11.8 C 89 % 10.05 C
2187 02-08-2011 05:40:04 11.3 C 88 % 9.39 C
2188 02-08-2011 05:52:04 11.4 C 89 % 9.65 C
2189 02-08-2011 06:04:04 11.5 C 89 % 9.75 C
2190 02-08-2011 06:16:04 11.3 C 89 % 9.55 C
2191 02-08-2011 06:28:04 11.7 C 89 % 9.95 C
2192 02-08-2011 06:40:04 11.4 C 89 % 9.65 C
2193 02-08-2011 06:52:04 11.6 C 89 % 9.85 C
2194 02-08-2011 07:04:04 11.4 C 89 % 9.65 C
2195 02-08-2011 07:16:04 11.5 C 89 % 9.75 C
2196 02-08-2011 07:28:04 11.8 C 89 % 10.05 C
2197 02-08-2011 07:40:02 12 C 89 % 10.25 C
2198 02-08-2011 07:52:02 12 C 89 % 10.25 C
2199 02-08-2011 08:04:02 12.4 C 89 % 10.64 C
2200 02-08-2011 08:16:02 12.6 C 89 % 10.84 C
Sensor: Nr:Datum:Temp:Feuchte:Taupunkt:
Aussen-T/F 2201 02-08-2011 08:28:02 12.8 C 89 % 11.03 C
2202 02-08-2011 08:40:02 13.1 C 89 % 11.33 C
2203 02-08-2011 08:52:02 13.5 C 89 % 11.72 C
2204 02-08-2011 09:04:02 14.2 C 89 % 12.41 C
2205 02-08-2011 09:16:02 14.8 C 89 % 13.01 C
2206 02-08-2011 09:28:02 15.2 C 88 % 13.23 C
2207 02-08-2011 09:40:03 15.6 C 88 % 13.62 C
2208 02-08-2011 09:52:02 16.2 C 87 % 14.03 C
2209 02-08-2011 10:04:02 16.7 C 87 % 14.53 C
2210 02-08-2011 10:16:02 17.6 C 84 % 14.87 C
2211 02-08-2011 10:28:02 18.9 C 72 % 13.74 C
2212 02-08-2011 10:40:02 20.1 C 65 % 13.32 C
2213 02-08-2011 10:52:02 20.6 C 60 % 12.57 C
2214 02-08-2011 11:04:02 21.3 C 56 % 12.17 C
2215 02-08-2011 11:16:02 22 C 55 % 12.55 C
2216 02-08-2011 11:28:02 22 C 55 % 12.55 C
2217 02-08-2011 11:40:02 22.6 C 51 % 11.96 C
2218 02-08-2011 11:52:01 23.2 C 49 % 11.9 C
2219 02-08-2011 12:04:02 24.1 C 43 % 10.75 C
2220 02-08-2011 12:16:02 24.5 C 40 % 10.02 C
2221 02-08-2011 12:28:02 24.6 C 39 % 9.73 C
2222 02-08-2011 12:40:02 25.2 C 36 % 9.08 C
2223 02-08-2011 12:52:02 25.5 C 36 % 9.34 C
2224 02-08-2011 13:04:03 25.8 C 35 % 9.19 C
2225 02-08-2011 13:16:02 26.2 C 35 % 9.54 C
Sensor: Nr:Datum:Temp:Feuchte:Taupunkt:
Aussen-T/F 2226 02-08-2011 13:28:02 26.8 C 32 % 8.73 C
2227 02-08-2011 13:40:03 29.2 C 27 % 8.29 C
2228 02-08-2011 13:52:03 30.6 C 24 % 7.74 C
2229 02-08-2011 14:04:03 30.6 C 24 % 7.74 C
2230 02-08-2011 14:16:02 31.3 C 20 % 5.67 C
2231 02-08-2011 14:28:03 32 C 20 % 6.24 C
2232 02-08-2011 14:40:03 31.4 C 20 % 5.75 C
2233 02-08-2011 14:52:02 31.8 C 20 % 6.08 C
2234 02-08-2011 15:04:02 30.6 C 21 % 5.8 C
2235 02-08-2011 15:16:02 31.7 C 20 % 6 C
2236 02-08-2011 15:28:02 32.3 C 20 % 6.49 C
2237 02-08-2011 15:40:02 31.5 C 20 % 5.83 C
2238 02-08-2011 15:52:02 32.5 C 20 % 6.65 C
2239 02-08-2011 16:04:03 32.9 C 20 % 6.98 C
2240 02-08-2011 16:16:02 33.1 C 20 % 7.14 C
2241 02-08-2011 16:28:02 32.1 C 20 % 6.32 C
2242 02-08-2011 16:40:02 32.3 C 20 % 6.49 C
2243 02-08-2011 16:52:03 32.7 C 20 % 6.81 C
2244 02-08-2011 17:04:03 32.4 C 20 % 6.57 C
2245 02-08-2011 17:16:03 32.6 C 20 % 6.73 C
2246 02-08-2011 17:28:03 33.1 C 20 % 7.14 C
2247 02-08-2011 17:40:03 33.3 C 20 % 7.3 C
2248 02-08-2011 17:52:03 31.8 C 20 % 6.08 C
2249 02-08-2011 18:04:02 32.1 C 20 % 6.32 C
2250 02-08-2011 18:16:02 32.6 C 20 % 6.73 C
Sensor: Nr:Datum:Temp:Feuchte:Taupunkt:
Aussen-T/F 2251 02-08-2011 18:28:02 32.1 C 20 % 6.32 C
2252 02-08-2011 18:40:01 29.5 C 25 % 7.41 C
2253 02-08-2011 18:52:02 31.3 C 21 % 6.37 C
2254 02-08-2011 19:04:01 31.2 C 24 % 8.24 C
2255 02-08-2011 19:16:01 29 C 33 % 11.1 C
2256 02-08-2011 19:28:01 26.4 C 40 % 11.72 C
2257 02-08-2011 19:40:00 25.2 C 43 % 11.74 C
2258 02-08-2011 19:52:02 25.1 C 44 % 12 C
2259 02-08-2011 20:04:01 24.4 C 46 % 12.04 C
2260 02-08-2011 20:16:01 24.1 C 47 % 12.09 C
2261 02-08-2011 20:28:01 23.4 C 49 % 12.08 C
2262 02-08-2011 20:40:02 22.8 C 53 % 12.73 C
2263 02-08-2011 20:52:02 22.2 C 53 % 12.17 C
2264 02-08-2011 21:04:02 21.7 C 55 % 12.27 C
2265 02-08-2011 21:16:02 21.3 C 55 % 11.9 C
2266 02-08-2011 21:28:02 21.3 C 55 % 11.9 C
2267 02-08-2011 21:40:02 21.2 C 55 % 11.81 C
2268 02-08-2011 21:52:02 20.9 C 57 % 12.07 C
2269 02-08-2011 22:04:02 20.2 C 58 % 11.68 C
2270 02-08-2011 22:17:03 20.4 C 58 % 11.86 C
2271 02-08-2011 22:29:03 19.7 C 61 % 11.97 C
2272 02-08-2011 22:41:03 19.7 C 63 % 12.46 C
2273 02-08-2011 22:53:03 19.2 C 65 % 12.47 C
2274 02-08-2011 23:05:03 18.9 C 65 % 12.18 C
2275 02-08-2011 23:17:03 18.5 C 67 % 12.26 C
Sensor: Nr:Datum:Temp:Feuchte:Taupunkt:
Aussen-T/F 2276 02-08-2011 23:29:03 18.3 C 69 % 12.52 C
2277 02-08-2011 23:41:03 17.9 C 71 % 12.57 C
2278 02-08-2011 23:53:03 17.6 C 72 % 12.5 C
2279 03-08-2011 00:05:03 17.6 C 73 % 12.71 C
2280 03-08-2011 00:17:03 17.2 C 73 % 12.32 C
2281 03-08-2011 00:29:03 16.9 C 75 % 12.44 C
2282 03-08-2011 00:41:03 16.7 C 76 % 12.45 C
2283 03-08-2011 00:53:03 16.7 C 77 % 12.65 C
2284 03-08-2011 01:05:03 16.4 C 78 % 12.56 C
2285 03-08-2011 01:17:03 16.1 C 79 % 12.46 C
2286 03-08-2011 01:29:03 16 C 78 % 12.17 C
2287 03-08-2011 01:41:03 15.8 C 80 % 12.36 C
2288 03-08-2011 01:53:03 15.6 C 80 % 12.16 C
2289 03-08-2011 02:05:03 15.5 C 81 % 12.26 C
2290 03-08-2011 02:17:04 15.3 C 82 % 12.25 C
2291 03-08-2011 02:29:04 15.2 C 82 % 12.15 C
2292 03-08-2011 02:41:04 15 C 82 % 11.95 C
2293 03-08-2011 02:53:04 14.8 C 83 % 11.94 C
2294 03-08-2011 03:05:04 14.8 C 83 % 11.94 C
2295 03-08-2011 03:17:04 14.7 C 83 % 11.85 C
2296 03-08-2011 03:29:04 14.4 C 84 % 11.73 C
2297 03-08-2011 03:41:04 14.3 C 84 % 11.64 C
2298 03-08-2011 03:53:04 14.3 C 84 % 11.64 C
2299 03-08-2011 04:05:04 14.3 C 84 % 11.64 C
2300 03-08-2011 04:17:04 14.4 C 85 % 11.91 C
Sensor: Nr:Datum:Temp:Feuchte:Taupunkt:
Aussen-T/F 2301 03-08-2011 04:29:04 14.6 C 86 % 12.29 C
2302 03-08-2011 04:41:04 14.5 C 86 % 12.19 C
2303 03-08-2011 04:53:04 14.3 C 86 % 11.99 C
2304 03-08-2011 05:05:04 14.3 C 86 % 11.99 C
2305 03-08-2011 05:17:04 14.2 C 87 % 12.07 C
2306 03-08-2011 05:29:04 14.5 C 87 % 12.36 C
2307 03-08-2011 05:41:04 14.3 C 87 % 12.17 C
2308 03-08-2011 05:53:04 14.7 C 88 % 12.73 C
2309 03-08-2011 06:05:04 15 C 87 % 12.86 C
2310 03-08-2011 06:17:04 15.2 C 87 % 13.05 C
2311 03-08-2011 06:29:04 15.3 C 87 % 13.15 C
2312 03-08-2011 06:41:05 15.4 C 87 % 13.25 C
2313 03-08-2011 06:53:05 15.9 C 87 % 13.74 C
2314 03-08-2011 07:05:05 16.1 C 86 % 13.76 C
2315 03-08-2011 07:17:03 16.3 C 86 % 13.95 C
2316 03-08-2011 07:29:03 16.3 C 85 % 13.77 C
2317 03-08-2011 07:41:03 16.5 C 85 % 13.97 C
2318 03-08-2011 07:53:02 16.8 C 85 % 14.26 C
2319 03-08-2011 08:05:02 17.3 C 84 % 14.57 C
2320 03-08-2011 08:17:02 18 C 80 % 14.5 C
2321 03-08-2011 08:29:02 18.7 C 74 % 13.97 C
2322 03-08-2011 08:41:02 19.1 C 71 % 13.72 C
2323 03-08-2011 08:53:02 19.5 C 69 % 13.66 C
2324 03-08-2011 09:05:02 19.7 C 66 % 13.17 C
2325 03-08-2011 09:17:02 18.4 C 74 % 13.68 C
Sensor: Nr:Datum:Temp:Feuchte:Taupunkt:
Aussen-T/F 2326 03-08-2011 09:29:03 17.8 C 80 % 14.31 C
2327 03-08-2011 09:41:02 17.4 C 82 % 14.3 C
2328 03-08-2011 09:53:02 17.3 C 84 % 14.57 C
2329 03-08-2011 10:05:02 17.6 C 85 % 15.05 C
2330 03-08-2011 10:17:02 17.8 C 84 % 15.06 C
2331 03-08-2011 10:29:02 18.1 C 83 % 15.17 C
2332 03-08-2011 10:41:03 18.8 C 83 % 15.85 C
2333 03-08-2011 10:53:02 19.2 C 79 % 15.47 C
2334 03-08-2011 11:05:01 19.7 C 78 % 15.76 C
2335 03-08-2011 11:17:02 20.4 C 72 % 15.18 C
2336 03-08-2011 11:29:02 21.4 C 69 % 15.48 C
2337 03-08-2011 11:41:02 21.6 C 67 % 15.21 C
2338 03-08-2011 11:53:02 23.1 C 62 % 15.42 C
2339 03-08-2011 12:05:03 22.4 C 63 % 15.01 C
2340 03-08-2011 12:17:02 22.8 C 61 % 14.89 C
2341 03-08-2011 12:29:02 23.6 C 61 % 15.64 C
2342 03-08-2011 12:41:02 24.5 C 58 % 15.7 C
2343 03-08-2011 12:53:01 25.8 C 52 % 15.2 C
2344 03-08-2011 13:05:02 25.8 C 51 % 14.9 C
2345 03-08-2011 13:17:01 25.6 C 52 % 15.02 C
2346 03-08-2011 13:29:01 24.7 C 61 % 16.67 C
2347 03-08-2011 13:41:02 26.2 C 53 % 15.87 C
2348 03-08-2011 13:53:02 27.4 C 46 % 14.76 C
2349 03-08-2011 14:05:02 27.5 C 42 % 13.44 C
2350 03-08-2011 14:17:01 26.2 C 45 % 13.33 C
Sensor: Nr:Datum:Temp:Feuchte:Taupunkt:
Aussen-T/F 2351 03-08-2011 14:29:01 24.2 C 55 % 14.59 C
2352 03-08-2011 14:41:02 25.6 C 54 % 15.6 C
2353 03-08-2011 14:53:01 25.3 C 50 % 14.13 C
2354 03-08-2011 15:05:02 26.2 C 45 % 13.33 C
2355 03-08-2011 15:17:02 27.9 C 43 % 14.17 C
2356 03-08-2011 15:29:02 30 C 34 % 12.43 C
2357 03-08-2011 15:41:02 29.6 C 36 % 12.95 C
2358 03-08-2011 15:53:02 27.9 C 40 % 13.05 C
2359 03-08-2011 16:05:02 26.7 C 44 % 13.44 C
2360 03-08-2011 16:17:02 27.3 C 41 % 12.9 C
2361 03-08-2011 16:29:02 25.2 C 46 % 12.76 C
2362 03-08-2011 16:41:02 24.1 C 52 % 13.63 C
2363 03-08-2011 16:53:02 21.1 C 71 % 15.64 C
2364 03-08-2011 17:05:02 20.2 C 74 % 15.42 C
2365 03-08-2011 17:17:02 21.1 C 73 % 16.07 C
2366 03-08-2011 17:29:02 22.1 C 69 % 16.15 C
2367 03-08-2011 17:41:02 21.4 C 72 % 16.14 C
2368 03-08-2011 17:53:03 21.2 C 74 % 16.38 C
2369 03-08-2011 18:05:02 21 C 74 % 16.19 C
2370 03-08-2011 18:17:02 20.6 C 76 % 16.22 C
2371 03-08-2011 18:29:02 20.1 C 75 % 15.53 C
2372 03-08-2011 18:41:02 19.3 C 80 % 15.76 C
2373 03-08-2011 18:53:02 19.3 C 82 % 16.15 C
2374 03-08-2011 19:05:01 19.4 C 83 % 16.44 C
2375 03-08-2011 19:17:02 19.8 C 82 % 16.64 C
Sensor: Nr:Datum:Temp:Feuchte:Taupunkt:
Aussen-T/F 2376 03-08-2011 19:29:02 20.2 C 80 % 16.64 C
2377 03-08-2011 19:41:01 20.2 C 81 % 16.84 C
2378 03-08-2011 19:53:02 20 C 81 % 16.64 C
2379 03-08-2011 20:05:02 19.8 C 82 % 16.64 C
2380 03-08-2011 20:17:02 19.6 C 82 % 16.44 C
2381 03-08-2011 20:29:02 19.2 C 83 % 16.24 C
2382 03-08-2011 20:41:03 19.1 C 84 % 16.33 C
2383 03-08-2011 20:53:02 18.9 C 85 % 16.32 C
2384 03-08-2011 21:05:02 18.8 C 86 % 16.41 C
2385 03-08-2011 21:17:02 18.7 C 86 % 16.31 C
2386 03-08-2011 21:29:02 18.7 C 87 % 16.49 C
2387 03-08-2011 21:41:02 18.6 C 87 % 16.39 C
2388 03-08-2011 21:53:02 18.5 C 87 % 16.3 C
2389 03-08-2011 22:06:03 18.5 C 87 % 16.3 C
2390 03-08-2011 22:18:03 18.5 C 87 % 16.3 C
2391 03-08-2011 22:30:03 18.5 C 87 % 16.3 C
2392 03-08-2011 22:42:03 18.5 C 88 % 16.48 C
2393 03-08-2011 22:54:03 18.5 C 88 % 16.48 C
2394 03-08-2011 23:06:03 18.5 C 88 % 16.48 C
2395 03-08-2011 23:18:03 18.4 C 88 % 16.38 C
2396 03-08-2011 23:30:03 18.4 C 88 % 16.38 C
2397 03-08-2011 23:42:04 18.4 C 88 % 16.38 C
2398 03-08-2011 23:54:04 18.4 C 88 % 16.38 C
2399 04-08-2011 00:06:04 18.4 C 88 % 16.38 C
2400 04-08-2011 00:18:04 18.3 C 88 % 16.28 C
Sensor: Nr:Datum:Temp:Feuchte:Taupunkt:
Aussen-T/F 2401 04-08-2011 00:30:04 18.2 C 88 % 16.18 C
2402 04-08-2011 00:42:04 18.2 C 88 % 16.18 C
2403 04-08-2011 00:54:04 18.1 C 88 % 16.08 C
2404 04-08-2011 01:06:04 18.1 C 88 % 16.08 C
2405 04-08-2011 01:18:04 18 C 88 % 15.98 C
2406 04-08-2011 01:30:04 18 C 88 % 15.98 C
2407 04-08-2011 01:42:04 18 C 88 % 15.98 C
2408 04-08-2011 01:54:04 17.9 C 89 % 16.06 C
2409 04-08-2011 02:06:04 17.9 C 89 % 16.06 C
2410 04-08-2011 02:18:04 17.9 C 89 % 16.06 C
2411 04-08-2011 02:30:04 17.9 C 89 % 16.06 C
2412 04-08-2011 02:42:04 17.8 C 89 % 15.96 C
2413 04-08-2011 02:54:04 17.9 C 89 % 16.06 C
2414 04-08-2011 03:06:04 17.8 C 89 % 15.96 C
2415 04-08-2011 03:18:04 17.8 C 89 % 15.96 C
2416 04-08-2011 03:30:04 17.7 C 89 % 15.86 C
2417 04-08-2011 03:42:04 17.7 C 89 % 15.86 C
2418 04-08-2011 03:54:04 17.6 C 89 % 15.77 C
2419 04-08-2011 04:06:04 17.4 C 89 % 15.57 C
2420 04-08-2011 04:18:05 17.3 C 89 % 15.47 C
2421 04-08-2011 04:30:05 17.3 C 89 % 15.47 C
2422 04-08-2011 04:42:05 17.2 C 89 % 15.37 C
2423 04-08-2011 04:54:05 16.9 C 90 % 15.25 C
2424 04-08-2011 05:06:05 16.8 C 90 % 15.15 C
2425 04-08-2011 05:18:05 16.6 C 90 % 14.95 C
Sensor: Nr:Datum:Temp:Feuchte:Taupunkt:
Aussen-T/F 2426 04-08-2011 05:30:05 16.4 C 90 % 14.76 C
2427 04-08-2011 05:42:05 16.2 C 89 % 14.39 C
2428 04-08-2011 05:54:05 16 C 89 % 14.19 C
2429 04-08-2011 06:06:05 15.9 C 90 % 14.26 C
2430 04-08-2011 06:18:05 16 C 89 % 14.19 C
2431 04-08-2011 06:30:05 15.8 C 90 % 14.16 C
2432 04-08-2011 06:42:05 15.8 C 90 % 14.16 C
2433 04-08-2011 06:54:05 15.8 C 90 % 14.16 C
2434 04-08-2011 07:06:05 16 C 90 % 14.36 C
2435 04-08-2011 07:18:05 16.1 C 90 % 14.46 C
2436 04-08-2011 07:30:05 16.2 C 90 % 14.56 C
2437 04-08-2011 07:42:05 16.3 C 90 % 14.66 C
2438 04-08-2011 07:54:02 16.6 C 90 % 14.95 C
2439 04-08-2011 08:06:02 16.8 C 89 % 14.98 C
2440 04-08-2011 08:18:01 17 C 88 % 15 C
2441 04-08-2011 08:30:01 17.2 C 87 % 15.02 C
2442 04-08-2011 08:42:02 17.4 C 86 % 15.03 C
2443 04-08-2011 08:54:01 17.6 C 84 % 14.87 C
2444 04-08-2011 09:06:02 17.7 C 82 % 14.59 C
2445 04-08-2011 09:18:02 18 C 79 % 14.31 C
2446 04-08-2011 09:30:02 18.3 C 78 % 14.4 C
2447 04-08-2011 09:42:02 18.6 C 77 % 14.49 C
2448 04-08-2011 09:54:01 18.9 C 74 % 14.17 C
2449 04-08-2011 10:06:02 19.3 C 72 % 14.13 C
2450 04-08-2011 10:18:02 19.8 C 70 % 14.17 C
Sensor: Nr:Datum:Temp:Feuchte:Taupunkt:
Aussen-T/F 2451 04-08-2011 10:30:02 20 C 69 % 14.14 C
2452 04-08-2011 10:42:02 20.3 C 68 % 14.2 C
2453 04-08-2011 10:54:01 20.6 C 67 % 14.26 C
2454 04-08-2011 11:06:02 20.7 C 65 % 13.89 C
2455 04-08-2011 11:18:02 20.8 C 65 % 13.98 C
2456 04-08-2011 11:30:02 21 C 63 % 13.69 C
2457 04-08-2011 11:42:02 21.3 C 63 % 13.97 C
2458 04-08-2011 11:54:01 21.6 C 62 % 14.01 C
2459 04-08-2011 12:06:02 22 C 60 % 13.88 C
2460 04-08-2011 12:18:02 22.3 C 59 % 13.9 C
2461 04-08-2011 12:30:02 22.7 C 56 % 13.47 C
2462 04-08-2011 12:42:01 23 C 54 % 13.2 C
2463 04-08-2011 12:54:02 23.5 C 53 % 13.37 C
2464 04-08-2011 13:06:01 23.8 C 50 % 12.76 C
2465 04-08-2011 13:18:02 24.5 C 48 % 12.77 C
2466 04-08-2011 13:30:02 24.8 C 46 % 12.4 C
2467 04-08-2011 13:42:01 27.3 C 38 % 11.74 C
2468 04-08-2011 13:54:03 28.5 C 34 % 11.12 C
2469 04-08-2011 14:06:02 30.4 C 30 % 10.88 C
2470 04-08-2011 14:18:02 31.8 C 25 % 9.35 C
2471 04-08-2011 14:30:02 30.4 C 30 % 10.88 C
2472 04-08-2011 14:42:03 31 C 30 % 11.4 C
2473 04-08-2011 14:54:02 29.6 C 31 % 10.68 C
2474 04-08-2011 15:06:01 30.6 C 30 % 11.05 C
2475 04-08-2011 15:18:02 28.3 C 32 % 10.03 C
Sensor: Nr:Datum:Temp:Feuchte:Taupunkt:
Aussen-T/F 2476 04-08-2011 15:30:02 30.6 C 28 % 10.02 C
2477 04-08-2011 15:42:02 26.9 C 39 % 11.78 C
2478 04-08-2011 15:54:02 30.4 C 31 % 11.37 C
2479 04-08-2011 16:06:03 30.8 C 26 % 9.09 C
2480 04-08-2011 16:18:02 31.5 C 24 % 8.49 C
2481 04-08-2011 16:30:02 30.6 C 25 % 8.34 C
2482 04-08-2011 16:42:02 31.2 C 25 % 8.84 C
2483 04-08-2011 16:54:01 30.7 C 24 % 7.82 C
2484 04-08-2011 17:06:02 31.2 C 25 % 8.84 C
2485 04-08-2011 17:18:01 26.9 C 36 % 10.57 C
2486 04-08-2011 17:30:01 25.8 C 41 % 11.56 C
2487 04-08-2011 17:42:01 25.1 C 42 % 11.29 C
2488 04-08-2011 17:54:01 25.1 C 42 % 11.29 C
2489 04-08-2011 18:06:02 25.5 C 39 % 10.53 C
2490 04-08-2011 18:18:02 28.6 C 32 % 10.29 C
2491 04-08-2011 18:30:02 29.4 C 29 % 9.52 C
2492 04-08-2011 18:42:01 27.4 C 36 % 11.01 C
2493 04-08-2011 18:54:01 29.1 C 37 % 12.93 C
2494 04-08-2011 19:06:01 28.7 C 35 % 11.73 C
2495 04-08-2011 19:18:02 27.5 C 41 % 13.08 C
2496 04-08-2011 19:30:02 26.7 C 42 % 12.73 C
2497 04-08-2011 19:42:01 26.1 C 47 % 13.91 C
2498 04-08-2011 19:54:02 25.1 C 49 % 13.64 C
2499 04-08-2011 20:06:01 23.8 C 57 % 14.77 C
2500 04-08-2011 20:18:01 22.8 C 61 % 14.89 C
Sensor: Nr:Datum:Temp:Feuchte:Taupunkt:
Aussen-T/F 2501 04-08-2011 20:30:02 22 C 63 % 14.63 C
2502 04-08-2011 20:42:01 21.5 C 66 % 14.88 C
2503 04-08-2011 20:54:02 21 C 68 % 14.87 C
2504 04-08-2011 21:06:02 20.7 C 70 % 15.03 C
2505 04-08-2011 21:18:02 20.6 C 70 % 14.94 C
2506 04-08-2011 21:30:02 20.7 C 69 % 14.81 C
2507 04-08-2011 21:42:02 20.7 C 69 % 14.81 C
2508 04-08-2011 21:54:02 21.1 C 67 % 14.74 C
2509 04-08-2011 22:06:01 21.4 C 66 % 14.79 C
2510 04-08-2011 22:18:02 21.2 C 67 % 14.83 C
2511 04-08-2011 22:30:02 20.8 C 69 % 14.91 C
2512 04-08-2011 22:43:03 20.8 C 71 % 15.35 C
2513 04-08-2011 22:55:03 20.8 C 67 % 14.45 C
2514 04-08-2011 23:07:03 20.3 C 66 % 13.74 C
2515 04-08-2011 23:19:03 19.2 C 70 % 13.6 C
2516 04-08-2011 23:31:03 18.8 C 76 % 14.48 C
2517 04-08-2011 23:43:03 18.4 C 79 % 14.69 C
2518 04-08-2011 23:55:03 18.2 C 81 % 14.89 C
2519 05-08-2011 00:07:03 18.1 C 83 % 15.17 C
2520 05-08-2011 00:19:03 18.1 C 83 % 15.17 C
2521 05-08-2011 00:31:03 18.1 C 84 % 15.35 C
2522 05-08-2011 00:43:03 17.9 C 85 % 15.34 C
2523 05-08-2011 00:55:03 17.8 C 86 % 15.43 C
2524 05-08-2011 01:07:04 17.7 C 86 % 15.33 C
2525 05-08-2011 01:19:04 17.6 C 86 % 15.23 C
Sensor: Nr:Datum:Temp:Feuchte:Taupunkt:
Aussen-T/F 2526 05-08-2011 01:31:04 17.5 C 86 % 15.13 C
2527 05-08-2011 01:43:04 17.5 C 86 % 15.13 C
2528 05-08-2011 01:55:04 17.4 C 86 % 15.03 C
2529 05-08-2011 02:07:04 17.4 C 86 % 15.03 C
2530 05-08-2011 02:19:04 17.4 C 86 % 15.03 C
2531 05-08-2011 02:31:04 17.3 C 86 % 14.94 C
2532 05-08-2011 02:43:04 17.3 C 87 % 15.12 C
2533 05-08-2011 02:55:04 17.2 C 87 % 15.02 C
2534 05-08-2011 03:07:04 17.2 C 87 % 15.02 C
2535 05-08-2011 03:19:04 17.2 C 87 % 15.02 C
2536 05-08-2011 03:31:04 17.2 C 87 % 15.02 C
2537 05-08-2011 03:43:04 17.2 C 88 % 15.2 C
2538 05-08-2011 03:55:04 17.3 C 88 % 15.29 C
2539 05-08-2011 04:07:04 17.4 C 88 % 15.39 C
2540 05-08-2011 04:19:04 17.5 C 88 % 15.49 C
2541 05-08-2011 04:31:04 17.5 C 88 % 15.49 C
2542 05-08-2011 04:43:04 17.6 C 88 % 15.59 C
2543 05-08-2011 04:55:04 17.6 C 88 % 15.59 C
2544 05-08-2011 05:07:04 17.6 C 88 % 15.59 C
2545 05-08-2011 05:19:05 17.6 C 88 % 15.59 C
2546 05-08-2011 05:31:05 17.6 C 88 % 15.59 C
2547 05-08-2011 05:43:05 17.6 C 88 % 15.59 C
2548 05-08-2011 05:55:05 17.6 C 88 % 15.59 C
2549 05-08-2011 06:07:05 17.6 C 88 % 15.59 C
2550 05-08-2011 06:19:05 17.5 C 88 % 15.49 C
Sensor: Nr:Datum:Temp:Feuchte:Taupunkt:
Aussen-T/F 2551 05-08-2011 06:31:05 17.7 C 88 % 15.69 C
2552 05-08-2011 06:43:05 17.9 C 87 % 15.71 C
2553 05-08-2011 06:55:05 18.2 C 85 % 15.64 C
2554 05-08-2011 07:07:02 18.5 C 82 % 15.37 C
2555 05-08-2011 07:19:03 18.6 C 81 % 15.28 C
2556 05-08-2011 07:31:02 18.6 C 80 % 15.08 C
2557 05-08-2011 07:43:02 18.8 C 79 % 15.08 C
2558 05-08-2011 07:55:02 18.9 C 80 % 15.38 C
2559 05-08-2011 08:07:02 19.2 C 79 % 15.47 C
2560 05-08-2011 08:19:03 20 C 72 % 14.8 C
2561 05-08-2011 08:31:02 20.9 C 68 % 14.77 C
2562 05-08-2011 08:43:02 21 C 67 % 14.64 C
2563 05-08-2011 08:55:01 20.6 C 68 % 14.49 C
2564 05-08-2011 09:07:01 20.5 C 72 % 15.28 C
2565 05-08-2011 09:19:02 21 C 67 % 14.64 C
2566 05-08-2011 09:31:01 21 C 69 % 15.1 C
2567 05-08-2011 09:43:01 20.7 C 70 % 15.03 C
2568 05-08-2011 09:55:01 21 C 70 % 15.32 C
2569 05-08-2011 10:07:01 21.7 C 67 % 15.31 C
2570 05-08-2011 10:19:02 22.5 C 61 % 14.61 C
2571 05-08-2011 10:31:01 22.7 C 59 % 14.28 C
2572 05-08-2011 10:43:01 22.9 C 59 % 14.47 C
2573 05-08-2011 10:55:03 23.2 C 57 % 14.21 C
2574 05-08-2011 11:07:02 24 C 53 % 13.83 C
2575 05-08-2011 11:19:02 24.1 C 53 % 13.93 C
Sensor: Nr:Datum:Temp:Feuchte:Taupunkt:
Aussen-T/F 2576 05-08-2011 11:31:02 23.8 C 54 % 13.94 C
2577 05-08-2011 11:43:02 24.8 C 52 % 14.28 C
2578 05-08-2011 11:55:02 24.8 C 52 % 14.28 C
2579 05-08-2011 12:07:02 25.3 C 48 % 13.5 C
2580 05-08-2011 12:19:02 25.3 C 47 % 13.18 C
2581 05-08-2011 12:31:02 25 C 48 % 13.23 C
2582 05-08-2011 12:43:02 24.2 C 50 % 13.12 C
2583 05-08-2011 12:55:02 25.8 C 46 % 13.31 C
2584 05-08-2011 13:07:01 26.5 C 42 % 12.55 C
2585 05-08-2011 13:19:02 27.1 C 40 % 12.34 C
2586 05-08-2011 13:31:02 27.1 C 40 % 12.34 C
2587 05-08-2011 13:43:02 27.9 C 38 % 12.27 C
2588 05-08-2011 13:55:02 28.9 C 35 % 11.91 C
2589 05-08-2011 14:07:02 26.7 C 39 % 11.6 C
2590 05-08-2011 14:19:02 26.1 C 41 % 11.82 C
2591 05-08-2011 14:31:03 25.8 C 42 % 11.92 C
2592 05-08-2011 14:43:03 28.3 C 37 % 12.22 C
2593 05-08-2011 14:55:02 30.2 C 30 % 10.71 C
2594 05-08-2011 15:07:02 30.6 C 27 % 9.48 C
2595 05-08-2011 15:19:01 30.1 C 26 % 8.5 C
2596 05-08-2011 15:31:02 28.9 C 31 % 10.08 C
2597 05-08-2011 15:43:02 27.7 C 33 % 9.97 C
2598 05-08-2011 15:55:02 30 C 30 % 10.54 C
2599 05-08-2011 16:07:02 29.4 C 31 % 10.51 C
2600 05-08-2011 16:19:02 30.4 C 29 % 10.37 C
Sensor: Nr:Datum:Temp:Feuchte:Taupunkt:
Aussen-T/F 2601 05-08-2011 16:31:02 31.8 C 25 % 9.35 C
2602 05-08-2011 16:43:03 28.6 C 34 % 11.21 C
2603 05-08-2011 16:55:01 26.9 C 38 % 11.39 C
2604 05-08-2011 17:07:02 26.4 C 40 % 11.72 C
2605 05-08-2011 17:19:01 26.6 C 40 % 11.9 C
2606 05-08-2011 17:31:01 27.3 C 39 % 12.13 C
2607 05-08-2011 17:43:01 29.1 C 33 % 11.19 C
2608 05-08-2011 17:55:02 27.2 C 37 % 11.25 C
2609 05-08-2011 18:07:02 27.2 C 40 % 12.43 C
2610 05-08-2011 18:19:01 26.7 C 52 % 16.03 C
2611 05-08-2011 18:31:02 29.2 C 33 % 11.28 C
2612 05-08-2011 18:43:02 30.4 C 39 % 14.89 C
2613 05-08-2011 18:55:02 29.6 C 42 % 15.33 C
2614 05-08-2011 19:07:02 29.2 C 41 % 14.59 C
2615 05-08-2011 19:19:01 26.6 C 46 % 14.03 C
2616 05-08-2011 19:31:02 25.1 C 53 % 14.85 C
2617 05-08-2011 19:43:02 24.5 C 56 % 15.15 C
2618 05-08-2011 19:55:02 23.7 C 59 % 15.21 C
2619 05-08-2011 20:07:02 23.2 C 61 % 15.26 C
2620 05-08-2011 20:19:02 22.9 C 64 % 15.73 C
2621 05-08-2011 20:31:02 21.5 C 73 % 16.46 C
2622 05-08-2011 20:43:02 20.8 C 80 % 17.22 C
2623 05-08-2011 20:55:02 20.6 C 82 % 17.42 C
2624 05-08-2011 21:07:02 20.4 C 83 % 17.42 C
2625 05-08-2011 21:19:02 20.2 C 83 % 17.22 C
Sensor: Nr:Datum:Temp:Feuchte:Taupunkt:
Aussen-T/F 2626 05-08-2011 21:31:01 20 C 83 % 17.02 C
2627 05-08-2011 21:43:01 19.5 C 84 % 16.72 C
2628 05-08-2011 21:55:02 19.5 C 85 % 16.91 C
2629 05-08-2011 22:07:02 19.5 C 85 % 16.91 C
2630 05-08-2011 22:19:01 19.7 C 86 % 17.29 C
2631 05-08-2011 22:31:02 19.5 C 86 % 17.1 C
2632 05-08-2011 22:43:03 19.4 C 86 % 17 C
2633 05-08-2011 22:55:02 19.3 C 86 % 16.9 C
2634 05-08-2011 23:07:02 19.4 C 87 % 17.18 C
2635 05-08-2011 23:19:02 19.3 C 87 % 17.08 C
2636 05-08-2011 23:31:02 18.7 C 87 % 16.49 C
2637 05-08-2011 23:43:02 18.5 C 87 % 16.3 C
2638 05-08-2011 23:55:02 18.5 C 87 % 16.3 C
2639 06-08-2011 00:07:02 18.4 C 87 % 16.2 C
2640 06-08-2011 00:19:02 18.1 C 87 % 15.9 C
2641 06-08-2011 00:31:02 18.1 C 87 % 15.9 C
2642 06-08-2011 00:43:02 18.2 C 87 % 16 C
2643 06-08-2011 00:55:01 17.8 C 88 % 15.79 C
2644 06-08-2011 01:07:01 17.8 C 88 % 15.79 C
2645 06-08-2011 01:19:02 17.7 C 88 % 15.69 C
2646 06-08-2011 01:31:01 17.6 C 88 % 15.59 C
2647 06-08-2011 01:43:01 17.8 C 89 % 15.96 C
2648 06-08-2011 01:55:01 18.1 C 88 % 16.08 C
2649 06-08-2011 02:07:01 17.5 C 89 % 15.67 C
2650 06-08-2011 02:19:02 17.5 C 89 % 15.67 C
Sensor: Nr:Datum:Temp:Feuchte:Taupunkt:
Aussen-T/F 2651 06-08-2011 02:31:01 17.5 C 89 % 15.67 C
2652 06-08-2011 02:43:01 17.1 C 88 % 15.1 C
2653 06-08-2011 02:55:02 17.1 C 89 % 15.27 C
2654 06-08-2011 03:07:02 17.5 C 89 % 15.67 C
2655 06-08-2011 03:19:01 17.4 C 89 % 15.57 C
2656 06-08-2011 03:31:01 17.2 C 89 % 15.37 C
2657 06-08-2011 03:43:01 17.1 C 89 % 15.27 C
2658 06-08-2011 03:55:01 17 C 89 % 15.17 C
2659 06-08-2011 04:07:01 17.6 C 89 % 15.77 C
2660 06-08-2011 04:19:01 17.7 C 89 % 15.86 C
2661 06-08-2011 04:31:01 17.6 C 89 % 15.77 C
2662 06-08-2011 04:43:01 17.8 C 90 % 16.14 C
2663 06-08-2011 04:55:01 17.8 C 90 % 16.14 C
2664 06-08-2011 05:07:01 17.5 C 90 % 15.84 C
2665 06-08-2011 05:19:02 17.4 C 89 % 15.57 C
2666 06-08-2011 05:31:01 17.1 C 89 % 15.27 C
2667 06-08-2011 05:43:01 17 C 89 % 15.17 C
2668 06-08-2011 05:55:02 16.6 C 90 % 14.95 C
2669 06-08-2011 06:07:01 16.6 C 90 % 14.95 C
2670 06-08-2011 06:19:02 16.9 C 90 % 15.25 C
2671 06-08-2011 06:31:01 16.6 C 90 % 14.95 C
2672 06-08-2011 06:43:01 17.1 C 89 % 15.27 C
2673 06-08-2011 06:55:01 17.3 C 90 % 15.64 C
2674 06-08-2011 07:07:01 17.7 C 90 % 16.04 C
2675 06-08-2011 07:19:02 17.9 C 90 % 16.24 C
Sensor: Nr:Datum:Temp:Feuchte:Taupunkt:
Aussen-T/F 2676 06-08-2011 07:31:01 18.1 C 89 % 16.26 C
2677 06-08-2011 07:43:01 18 C 89 % 16.16 C
2678 06-08-2011 07:55:01 18.4 C 89 % 16.55 C
2679 06-08-2011 08:07:01 18.6 C 89 % 16.75 C
2680 06-08-2011 08:19:02 19.1 C 88 % 17.07 C
2681 06-08-2011 08:31:01 19.4 C 88 % 17.36 C
2682 06-08-2011 08:43:01 19.5 C 88 % 17.46 C
2683 06-08-2011 08:55:02 19.8 C 88 % 17.75 C
2684 06-08-2011 09:07:01 20.3 C 86 % 17.88 C
2685 06-08-2011 09:19:02 20.5 C 84 % 17.7 C
2686 06-08-2011 09:31:03 21.2 C 81 % 17.81 C
2687 06-08-2011 09:43:03 21.7 C 79 % 17.9 C
2688 06-08-2011 09:55:04 22.6 C 69 % 16.62 C
2689 06-08-2011 10:07:02 22.7 C 65 % 15.78 C
2690 06-08-2011 10:19:01 23.4 C 64 % 16.2 C
2691 06-08-2011 10:31:01 23.9 C 63 % 16.43 C
2692 06-08-2011 10:43:01 23.6 C 60 % 15.38 C
2693 06-08-2011 10:55:02 24.1 C 60 % 15.85 C
2694 06-08-2011 11:07:02 24 C 61 % 16.02 C
2695 06-08-2011 11:19:02 24.3 C 58 % 15.51 C
2696 06-08-2011 11:31:01 24.4 C 57 % 15.33 C
2697 06-08-2011 11:43:01 25 C 54 % 15.05 C
2698 06-08-2011 11:55:01 25.2 C 54 % 15.23 C
2699 06-08-2011 12:07:02 24.5 C 56 % 15.15 C
2700 06-08-2011 12:19:01 24.7 C 56 % 15.33 C
Sensor: Nr:Datum:Temp:Feuchte:Taupunkt:
Aussen-T/F 2701 06-08-2011 12:31:01 26.1 C 51 % 15.17 C
2702 06-08-2011 12:43:02 25.8 C 50 % 14.59 C
2703 06-08-2011 12:55:01 25.1 C 54 % 15.14 C
2704 06-08-2011 13:07:02 25.4 C 52 % 14.83 C
2705 06-08-2011 13:19:01 25.5 C 52 % 14.92 C
2706 06-08-2011 13:31:03 26 C 51 % 15.08 C
2707 06-08-2011 13:43:03 26.7 C 47 % 14.45 C
2708 06-08-2011 13:55:01 26.6 C 48 % 14.69 C
2709 06-08-2011 14:07:03 25.3 C 50 % 14.13 C
2710 06-08-2011 14:19:01 24.1 C 57 % 15.05 C
2711 06-08-2011 14:31:01 21.4 C 71 % 15.93 C
2712 06-08-2011 14:43:02 19.8 C 78 % 15.85 C
2713 06-08-2011 14:55:01 20.3 C 79 % 16.54 C
2714 06-08-2011 15:07:02 21 C 76 % 16.61 C
2715 06-08-2011 15:19:01 21.6 C 76 % 17.19 C
2716 06-08-2011 15:31:01 20.7 C 78 % 16.73 C
2717 06-08-2011 15:43:01 19.7 C 81 % 16.35 C
2718 06-08-2011 15:55:01 18.7 C 83 % 15.75 C
2719 06-08-2011 16:07:01 18 C 83 % 15.07 C
2720 06-08-2011 16:19:02 17.8 C 85 % 15.25 C
2721 06-08-2011 16:31:01 17.8 C 86 % 15.43 C
2722 06-08-2011 16:43:01 18 C 86 % 15.62 C
2723 06-08-2011 16:55:01 18.4 C 86 % 16.02 C
2724 06-08-2011 17:07:01 18.7 C 85 % 16.13 C
2725 06-08-2011 17:19:02 18.5 C 84 % 15.75 C
Sensor: Nr:Datum:Temp:Feuchte:Taupunkt:
Aussen-T/F 2726 06-08-2011 17:31:01 18.5 C 84 % 15.75 C
2727 06-08-2011 17:43:01 18.5 C 84 % 15.75 C
2728 06-08-2011 17:55:02 18.6 C 84 % 15.84 C
2729 06-08-2011 18:07:01 18.6 C 84 % 15.84 C
2730 06-08-2011 18:19:01 18.5 C 85 % 15.93 C
2731 06-08-2011 18:31:02 18.5 C 85 % 15.93 C
2732 06-08-2011 18:43:02 18.6 C 86 % 16.21 C
2733 06-08-2011 18:55:01 18.6 C 86 % 16.21 C
2734 06-08-2011 19:07:01 18.4 C 86 % 16.02 C
2735 06-08-2011 19:19:01 18.4 C 86 % 16.02 C
2736 06-08-2011 19:31:02 18.3 C 86 % 15.92 C
2737 06-08-2011 19:43:02 18.3 C 86 % 15.92 C
2738 06-08-2011 19:55:02 18.3 C 87 % 16.1 C
2739 06-08-2011 20:07:01 18.1 C 87 % 15.9 C
2740 06-08-2011 20:19:02 18.1 C 87 % 15.9 C
2741 06-08-2011 20:31:01 18 C 87 % 15.8 C
2742 06-08-2011 20:43:01 18.1 C 87 % 15.9 C
2743 06-08-2011 20:55:02 17.9 C 89 % 16.06 C
2744 06-08-2011 21:07:01 18 C 88 % 15.98 C
2745 06-08-2011 21:19:01 17.8 C 89 % 15.96 C
2746 06-08-2011 21:31:02 17.6 C 89 % 15.77 C
2747 06-08-2011 21:43:02 17.5 C 89 % 15.67 C
2748 06-08-2011 21:55:01 17.4 C 89 % 15.57 C
2749 06-08-2011 22:07:01 17.5 C 89 % 15.67 C
2750 06-08-2011 22:19:01 17.6 C 89 % 15.77 C
Sensor: Nr:Datum:Temp:Feuchte:Taupunkt:
Aussen-T/F 2751 06-08-2011 22:33:02 17.5 C 89 % 15.67 C
2752 06-08-2011 22:45:02 17.5 C 89 % 15.67 C
2753 06-08-2011 22:57:02 17.7 C 89 % 15.86 C
2754 06-08-2011 23:09:02 17.4 C 87 % 15.21 C
2755 06-08-2011 23:21:02 17 C 85 % 14.46 C
2756 06-08-2011 23:33:02 16.8 C 86 % 14.45 C
2757 06-08-2011 23:45:02 16.9 C 87 % 14.72 C
2758 06-08-2011 23:57:02 16.8 C 87 % 14.62 C
2759 07-08-2011 00:09:03 16.6 C 85 % 14.07 C
2760 07-08-2011 00:21:03 16.5 C 85 % 13.97 C
2761 07-08-2011 00:33:03 16.3 C 86 % 13.95 C
2762 07-08-2011 00:45:03 16.3 C 86 % 13.95 C
2763 07-08-2011 00:57:03 16.4 C 85 % 13.87 C
2764 07-08-2011 01:09:03 16.4 C 85 % 13.87 C
2765 07-08-2011 01:21:03 16.5 C 84 % 13.79 C
2766 07-08-2011 01:33:03 16.4 C 84 % 13.69 C
2767 07-08-2011 01:45:03 16.2 C 84 % 13.5 C
2768 07-08-2011 01:57:03 16.1 C 85 % 13.58 C
2769 07-08-2011 02:09:03 16 C 86 % 13.66 C
2770 07-08-2011 02:21:03 16 C 87 % 13.84 C
2771 07-08-2011 02:33:03 15.9 C 88 % 13.92 C
2772 07-08-2011 02:45:03 15.8 C 88 % 13.82 C
2773 07-08-2011 02:57:03 16 C 88 % 14.01 C
2774 07-08-2011 03:09:03 16 C 88 % 14.01 C
2775 07-08-2011 03:21:03 16 C 87 % 13.84 C
Sensor: Nr:Datum:Temp:Feuchte:Taupunkt:
Aussen-T/F 2776 07-08-2011 03:33:03 16 C 87 % 13.84 C
2777 07-08-2011 03:45:03 16.3 C 86 % 13.95 C
2778 07-08-2011 03:57:03 16.2 C 86 % 13.86 C
2779 07-08-2011 04:09:03 16.2 C 86 % 13.86 C
2780 07-08-2011 04:21:04 16.1 C 86 % 13.76 C
2781 07-08-2011 04:33:04 16.1 C 86 % 13.76 C
2782 07-08-2011 04:45:04 16 C 87 % 13.84 C
2783 07-08-2011 04:57:04 16 C 87 % 13.84 C
2784 07-08-2011 05:09:04 16 C 87 % 13.84 C
2785 07-08-2011 05:21:04 16 C 87 % 13.84 C
2786 07-08-2011 05:33:04 15.9 C 87 % 13.74 C
2787 07-08-2011 05:45:04 15.9 C 88 % 13.92 C
2788 07-08-2011 05:57:04 15.4 C 88 % 13.42 C
2789 07-08-2011 06:09:04 15.5 C 85 % 12.99 C
2790 07-08-2011 06:21:04 15.4 C 84 % 12.71 C
2791 07-08-2011 06:33:04 15.4 C 83 % 12.53 C
2792 07-08-2011 06:45:04 15.4 C 83 % 12.53 C
2793 07-08-2011 06:57:04 15.2 C 83 % 12.33 C
2794 07-08-2011 07:09:02 15.1 C 79 % 11.49 C
2795 07-08-2011 07:21:02 15 C 76 % 10.81 C
2796 07-08-2011 07:33:02 14.9 C 74 % 10.31 C
2797 07-08-2011 07:45:02 15 C 72 % 10 C
2798 07-08-2011 07:57:02 15 C 75 % 10.61 C
2799 07-08-2011 08:09:02 15.1 C 79 % 11.49 C
2800 07-08-2011 08:21:03 15.6 C 78 % 11.78 C
Sensor: Nr:Datum:Temp:Feuchte:Taupunkt:
Aussen-T/F 2801 07-08-2011 08:33:02 15.4 C 73 % 10.59 C
2802 07-08-2011 08:45:02 14.8 C 75 % 10.42 C
2803 07-08-2011 08:57:02 15.2 C 67 % 9.12 C
2804 07-08-2011 09:09:02 16.1 C 63 % 9.06 C
2805 07-08-2011 09:21:02 16.2 C 58 % 7.94 C
2806 07-08-2011 09:33:02 15.9 C 61 % 8.4 C
2807 07-08-2011 09:45:02 16.7 C 58 % 8.4 C
2808 07-08-2011 09:57:02 16.7 C 54 % 7.36 C
2809 07-08-2011 10:09:02 16.6 C 55 % 7.53 C
2810 07-08-2011 10:21:01 17.1 C 52 % 7.18 C
2811 07-08-2011 10:33:02 17.3 C 50 % 6.79 C
2812 07-08-2011 10:45:01 17.4 C 50 % 6.88 C
2813 07-08-2011 10:57:01 17.8 C 48 % 6.65 C
2814 07-08-2011 11:09:02 18.3 C 47 % 6.8 C
2815 07-08-2011 11:21:01 18.3 C 49 % 7.41 C
2816 07-08-2011 11:33:01 18.3 C 49 % 7.41 C
2817 07-08-2011 11:45:01 17.6 C 50 % 7.06 C
2818 07-08-2011 11:57:01 17.7 C 50 % 7.16 C
2819 07-08-2011 12:09:01 19.3 C 44 % 6.75 C
2820 07-08-2011 12:21:02 19.9 C 42 % 6.62 C
2821 07-08-2011 12:33:01 19.8 C 41 % 6.18 C
2822 07-08-2011 12:45:02 20.2 C 41 % 6.54 C
2823 07-08-2011 12:57:02 19.6 C 45 % 7.35 C
2824 07-08-2011 13:09:02 20.1 C 40 % 6.09 C
2825 07-08-2011 13:21:02 19.6 C 42 % 6.35 C
Sensor: Nr:Datum:Temp:Feuchte:Taupunkt:
Aussen-T/F 2826 07-08-2011 13:33:02 20.4 C 42 % 7.07 C
2827 07-08-2011 13:45:02 20.6 C 40 % 6.54 C
2828 07-08-2011 13:57:02 21.7 C 36 % 5.99 C
2829 07-08-2011 14:09:01 20.4 C 37 % 5.24 C
2830 07-08-2011 14:21:02 21.5 C 36 % 5.81 C
2831 07-08-2011 14:33:02 20.8 C 36 % 5.2 C
2832 07-08-2011 14:45:02 20.9 C 38 % 6.06 C
2833 07-08-2011 14:57:02 23.4 C 30 % 4.85 C
2834 07-08-2011 15:09:02 21.1 C 36 % 5.46 C
2835 07-08-2011 15:21:02 21.9 C 35 % 5.76 C
2836 07-08-2011 15:33:02 21.3 C 40 % 7.16 C
2837 07-08-2011 15:45:01 24.1 C 26 % 3.42 C
2838 07-08-2011 15:57:01 25.1 C 24 % 3.13 C
2839 07-08-2011 16:09:02 23.4 C 28 % 3.87 C
2840 07-08-2011 16:21:01 22.9 C 30 % 4.42 C
2841 07-08-2011 16:33:01 22.8 C 30 % 4.34 C
2842 07-08-2011 16:45:01 25.4 C 23 % 2.78 C
2843 07-08-2011 16:57:01 23.6 C 27 % 3.53 C
2844 07-08-2011 17:09:02 21.8 C 31 % 3.94 C
2845 07-08-2011 17:21:01 21.6 C 35 % 5.5 C
2846 07-08-2011 17:33:03 21.4 C 35 % 5.32 C
2847 07-08-2011 17:45:02 21.4 C 35 % 5.32 C
2848 07-08-2011 17:57:02 22.5 C 30 % 4.08 C
2849 07-08-2011 18:09:02 23.6 C 30 % 5.03 C
2850 07-08-2011 18:21:02 24.6 C 27 % 4.38 C
Sensor: Nr:Datum:Temp:Feuchte:Taupunkt:
Aussen-T/F 2851 07-08-2011 18:33:04 25.4 C 25 % 3.96 C
2852 07-08-2011 18:45:02 21.2 C 33 % 4.3 C
2853 07-08-2011 18:57:02 24.2 C 30 % 5.54 C
2854 07-08-2011 19:09:03 21.6 C 34 % 5.08 C
2855 07-08-2011 19:21:03 21.6 C 34 % 5.08 C
2856 07-08-2011 19:33:03 21.6 C 34 % 5.08 C
2857 07-08-2011 19:45:01 19.3 C 52 % 9.21 C
2858 07-08-2011 19:57:01 19.3 C 52 % 9.21 C
2859 07-08-2011 20:09:03 19.7 C 47 % 8.08 C
2860 07-08-2011 20:21:02 18.9 C 50 % 8.26 C
2861 07-08-2011 20:33:02 18.7 C 55 % 9.48 C
2862 07-08-2011 20:45:02 18.2 C 55 % 9.02 C
2863 07-08-2011 20:57:02 17 C 62 % 9.67 C
2864 07-08-2011 21:09:01 16.2 C 65 % 9.62 C
2865 07-08-2011 21:21:02 16 C 65 % 9.43 C
2866 07-08-2011 21:33:02 15.8 C 68 % 9.91 C
2867 07-08-2011 21:45:02 15.4 C 69 % 9.75 C
2868 07-08-2011 21:57:02 15.1 C 69 % 9.46 C
2869 07-08-2011 22:10:03 15.4 C 69 % 9.75 C
2870 07-08-2011 22:22:03 15.4 C 69 % 9.75 C
2871 07-08-2011 22:34:03 15.2 C 70 % 9.77 C
2872 07-08-2011 22:46:03 14.6 C 72 % 9.61 C
2873 07-08-2011 22:58:03 14.2 C 73 % 9.43 C
2874 07-08-2011 23:10:03 14.7 C 70 % 9.29 C
2875 07-08-2011 23:22:03 14.8 C 69 % 9.17 C
Sensor: Nr:Datum:Temp:Feuchte:Taupunkt:
Aussen-T/F 2876 07-08-2011 23:34:03 14.7 C 68 % 8.86 C
2877 07-08-2011 23:46:03 14.4 C 70 % 9 C
2878 07-08-2011 23:58:03 14.7 C 71 % 9.5 C
2879 08-08-2011 00:10:03 14.7 C 71 % 9.5 C
2880 08-08-2011 00:22:03 15 C 68 % 9.15 C
2881 08-08-2011 00:34:03 15.4 C 66 % 9.09 C
2882 08-08-2011 00:46:04 14.7 C 70 % 9.29 C
2883 08-08-2011 00:58:04 13.7 C 73 % 8.95 C
2884 08-08-2011 01:10:04 13.2 C 76 % 9.07 C
2885 08-08-2011 01:22:04 13.2 C 78 % 9.45 C
2886 08-08-2011 01:34:04 13.1 C 78 % 9.36 C
2887 08-08-2011 01:46:04 13.1 C 78 % 9.36 C
2888 08-08-2011 01:58:04 12.8 C 79 % 9.25 C
2889 08-08-2011 02:10:04 12.6 C 80 % 9.25 C
2890 08-08-2011 02:22:04 12.8 C 81 % 9.62 C
2891 08-08-2011 02:34:04 12.8 C 81 % 9.62 C
2892 08-08-2011 02:46:04 13 C 80 % 9.63 C
2893 08-08-2011 02:58:04 13.6 C 79 % 10.03 C
2894 08-08-2011 03:10:04 13.7 C 77 % 9.75 C
2895 08-08-2011 03:22:04 13.7 C 74 % 9.15 C
2896 08-08-2011 03:34:04 14 C 71 % 8.83 C
2897 08-08-2011 03:46:04 14 C 73 % 9.24 C
2898 08-08-2011 03:58:04 13.9 C 74 % 9.35 C
2899 08-08-2011 04:10:04 13.7 C 75 % 9.35 C
2900 08-08-2011 04:22:04 13.5 C 76 % 9.36 C
Sensor: Nr:Datum:Temp:Feuchte:Taupunkt:
Aussen-T/F 2901 08-08-2011 04:34:04 13.5 C 77 % 9.55 C
2902 08-08-2011 04:46:04 13.8 C 77 % 9.84 C
2903 08-08-2011 04:58:05 14 C 75 % 9.64 C
2904 08-08-2011 05:10:05 13.8 C 75 % 9.45 C
2905 08-08-2011 05:22:05 13.8 C 76 % 9.65 C
2906 08-08-2011 05:34:05 14.1 C 72 % 9.13 C
2907 08-08-2011 05:46:05 13.5 C 76 % 9.36 C
2908 08-08-2011 05:58:05 13.2 C 80 % 9.83 C
2909 08-08-2011 06:10:05 12.8 C 83 % 9.99 C
2910 08-08-2011 06:22:05 12.5 C 84 % 9.87 C
2911 08-08-2011 06:34:02 12.3 C 86 % 10.03 C
2912 08-08-2011 06:46:02 12.3 C 86 % 10.03 C
2913 08-08-2011 06:58:02 12.2 C 87 % 10.1 C
2914 08-08-2011 07:10:02 12.2 C 87 % 10.1 C
2915 08-08-2011 07:22:02 11.9 C 88 % 9.98 C
2916 08-08-2011 07:34:02 12.2 C 88 % 10.27 C
2917 08-08-2011 07:46:01 12.1 C 88 % 10.17 C
2918 08-08-2011 07:58:01 12.2 C 88 % 10.27 C
2919 08-08-2011 08:10:01 12.2 C 88 % 10.27 C
2920 08-08-2011 08:22:02 12.2 C 88 % 10.27 C
2921 08-08-2011 08:34:01 12.2 C 88 % 10.27 C
2922 08-08-2011 08:46:01 12.2 C 88 % 10.27 C
2923 08-08-2011 08:58:01 12.2 C 88 % 10.27 C
2924 08-08-2011 09:10:01 12.2 C 88 % 10.27 C
2925 08-08-2011 09:22:01 14.9 C 69 % 9.27 C
Sensor: Nr:Datum:Temp:Feuchte:Taupunkt:
Aussen-T/F 2926 08-08-2011 09:34:02 15 C 66 % 8.71 C
2927 08-08-2011 09:46:02 15 C 66 % 8.71 C
2928 08-08-2011 09:58:02 15 C 66 % 8.71 C
2929 08-08-2011 10:10:02 15 C 66 % 8.71 C
2930 08-08-2011 10:22:02 15 C 66 % 8.71 C
2931 08-08-2011 10:34:02 15 C 66 % 8.71 C
2932 08-08-2011 10:46:02 15.4 C 60 % 7.68 C
2933 08-08-2011 10:58:02 15.6 C 61 % 8.11 C
2934 08-08-2011 11:10:02 16.6 C 59 % 8.56 C
2935 08-08-2011 11:22:02 17 C 56 % 8.17 C
2936 08-08-2011 11:34:02 15.8 C 61 % 8.3 C
2937 08-08-2011 11:46:01 16.4 C 60 % 8.62 C
2938 08-08-2011 11:58:01 16.4 C 60 % 8.62 C
2939 08-08-2011 12:10:01 16.6 C 55 % 7.53 C
2940 08-08-2011 12:22:01 17 C 56 % 8.17 C
2941 08-08-2011 12:34:01 17 C 56 % 8.17 C
2942 08-08-2011 12:46:01 17.3 C 53 % 7.64 C
2943 08-08-2011 12:58:01 17.3 C 53 % 7.64 C
2944 08-08-2011 13:10:01 17.3 C 53 % 7.64 C
2945 08-08-2011 13:22:02 17.3 C 53 % 7.64 C
2946 08-08-2011 13:34:01 17.3 C 53 % 7.64 C
2947 08-08-2011 13:46:03 17.3 C 53 % 7.64 C
2948 08-08-2011 13:58:03 17.3 C 53 % 7.64 C
2949 08-08-2011 14:10:02 19.1 C 50 % 8.44 C
2950 08-08-2011 14:22:02 19.1 C 50 % 8.44 C
Sensor: Nr:Datum:Temp:Feuchte:Taupunkt:
Aussen-T/F 2951 08-08-2011 14:34:02 19.1 C 50 % 8.44 C
2952 08-08-2011 14:46:02 19.1 C 50 % 8.44 C
2953 08-08-2011 14:58:02 19.1 C 50 % 8.44 C
2954 08-08-2011 15:10:02 19.1 C 50 % 8.44 C
2955 08-08-2011 15:22:02 19.1 C 50 % 8.44 C
2956 08-08-2011 15:34:01 19.1 C 50 % 8.44 C
2957 08-08-2011 15:46:02 19.1 C 50 % 8.44 C
2958 08-08-2011 15:58:03 19.1 C 50 % 8.44 C
2959 08-08-2011 16:10:01 19.1 C 50 % 8.44 C
2960 08-08-2011 16:22:02 19.1 C 50 % 8.44 C
2961 08-08-2011 16:34:02 19.1 C 50 % 8.44 C
2962 08-08-2011 16:46:02 19.1 C 50 % 8.44 C
2963 08-08-2011 16:58:02 20.8 C 36 % 5.2 C
2964 08-08-2011 17:10:02 20.3 C 35 % 4.35 C
2965 08-08-2011 17:22:02 20.7 C 36 % 5.11 C
2966 08-08-2011 17:34:02 20.2 C 36 % 4.67 C
2967 08-08-2011 17:46:01 20.2 C 36 % 4.67 C
2968 08-08-2011 17:58:01 23.9 C 30 % 5.28 C
2969 08-08-2011 18:10:02 21.4 C 33 % 4.48 C
2970 08-08-2011 18:22:01 19.8 C 39 % 5.46 C
2971 08-08-2011 18:34:02 19.6 C 40 % 5.64 C
2972 08-08-2011 18:46:02 19.6 C 40 % 5.64 C
2973 08-08-2011 18:58:02 19.6 C 40 % 5.64 C
2974 08-08-2011 19:10:02 19.6 C 40 % 5.64 C
2975 08-08-2011 19:22:02 18.5 C 42 % 5.36 C
Sensor: Nr:Datum:Temp:Feuchte:Taupunkt:
Aussen-T/F 2976 08-08-2011 19:34:02 18.3 C 43 % 5.52 C
2977 08-08-2011 19:46:02 18.3 C 43 % 5.52 C
2978 08-08-2011 19:58:02 18.3 C 43 % 5.52 C
2979 08-08-2011 20:10:02 18.3 C 43 % 5.52 C
2980 08-08-2011 20:22:02 18.3 C 43 % 5.52 C
2981 08-08-2011 20:34:01 18.3 C 43 % 5.52 C
2982 08-08-2011 20:46:02 18.3 C 43 % 5.52 C
2983 08-08-2011 20:58:02 18.3 C 43 % 5.52 C
2984 08-08-2011 21:10:01 18.3 C 43 % 5.52 C
2985 08-08-2011 21:22:02 13.3 C 83 % 10.48 C
2986 08-08-2011 21:34:01 13.3 C 83 % 10.48 C
2987 08-08-2011 21:46:02 13.3 C 83 % 10.48 C
2988 08-08-2011 21:58:02 13.3 C 83 % 10.48 C
2989 08-08-2011 22:10:01 13.3 C 83 % 10.48 C
2990 08-08-2011 22:22:02 13.3 C 83 % 10.48 C
2991 08-08-2011 22:35:03 12.7 C 82 % 9.71 C
2992 08-08-2011 22:47:03 12.6 C 83 % 9.79 C
2993 08-08-2011 22:59:03 12.6 C 83 % 9.79 C
2994 08-08-2011 23:11:03 12.6 C 84 % 9.97 C
2995 08-08-2011 23:23:04 12.7 C 83 % 9.89 C
2996 08-08-2011 23:35:04 12.8 C 81 % 9.62 C
2997 08-08-2011 23:47:04 12.8 C 81 % 9.62 C
2998 08-08-2011 23:59:04 12.7 C 82 % 9.71 C
2999 09-08-2011 00:11:04 12.7 C 82 % 9.71 C
3000 09-08-2011 00:23:04 12.9 C 82 % 9.9 C
Sensor: Nr:Datum:Temp:Feuchte:Taupunkt:
Aussen-T/F 3001 09-08-2011 00:35:04 13.2 C 79 % 9.64 C
3002 09-08-2011 00:47:04 13.3 C 77 % 9.36 C
3003 09-08-2011 00:59:04 13.3 C 77 % 9.36 C
3004 09-08-2011 01:11:04 13.1 C 79 % 9.54 C
3005 09-08-2011 01:23:04 13.5 C 78 % 9.74 C
3006 09-08-2011 01:35:04 13.7 C 76 % 9.55 C
3007 09-08-2011 01:47:04 13.6 C 76 % 9.45 C
3008 09-08-2011 01:59:04 13.6 C 76 % 9.45 C
3009 09-08-2011 02:11:04 13.4 C 77 % 9.45 C
3010 09-08-2011 02:23:05 13.4 C 77 % 9.45 C
3011 09-08-2011 02:35:05 13.8 C 73 % 9.05 C
3012 09-08-2011 02:47:05 13.9 C 72 % 8.94 C
3013 09-08-2011 02:59:05 13.9 C 72 % 8.94 C
3014 09-08-2011 03:11:05 13.9 C 71 % 8.73 C
3015 09-08-2011 03:23:05 13.9 C 71 % 8.73 C
3016 09-08-2011 03:35:05 13.9 C 71 % 8.73 C
3017 09-08-2011 03:47:05 13.9 C 71 % 8.73 C
3018 09-08-2011 03:59:05 13.9 C 71 % 8.73 C
3019 09-08-2011 04:11:05 13.9 C 71 % 8.73 C
3020 09-08-2011 04:23:05 13.9 C 71 % 8.73 C
3021 09-08-2011 04:35:05 13.6 C 69 % 8.03 C
3022 09-08-2011 04:47:05 13.6 C 69 % 8.03 C
3023 09-08-2011 04:59:05 13.7 C 69 % 8.12 C
3024 09-08-2011 05:11:05 13.7 C 68 % 7.91 C
3025 09-08-2011 05:23:05 13.6 C 68 % 7.81 C
Sensor: Nr:Datum:Temp:Feuchte:Taupunkt:
Aussen-T/F 3026 09-08-2011 05:35:05 13.6 C 68 % 7.81 C
3027 09-08-2011 05:47:05 13.6 C 68 % 7.81 C
3028 09-08-2011 05:59:05 13.8 C 68 % 8 C
3029 09-08-2011 06:11:05 13.8 C 68 % 8 C
3030 09-08-2011 06:23:05 13.6 C 70 % 8.24 C
3031 09-08-2011 06:35:05 13.7 C 69 % 8.12 C
3032 09-08-2011 06:47:06 13.7 C 69 % 8.12 C
3033 09-08-2011 06:59:06 13.7 C 69 % 8.12 C
3034 09-08-2011 07:11:06 13.6 C 70 % 8.24 C
3035 09-08-2011 07:23:03 13.6 C 70 % 8.24 C
3036 09-08-2011 07:35:02 13.7 C 69 % 8.12 C
3037 09-08-2011 07:47:03 13.7 C 69 % 8.12 C
3038 09-08-2011 07:59:03 14.2 C 66 % 7.95 C
3039 09-08-2011 08:11:02 14.2 C 66 % 7.95 C
3040 09-08-2011 08:23:02 14.2 C 66 % 7.95 C
3041 09-08-2011 08:35:02 14.2 C 66 % 7.95 C
3042 09-08-2011 08:47:02 14.2 C 66 % 7.95 C
3043 09-08-2011 08:59:02 14.2 C 66 % 7.95 C
3044 09-08-2011 09:11:02 14.9 C 64 % 8.16 C
3045 09-08-2011 09:23:02 14.9 C 66 % 8.61 C
3046 09-08-2011 09:35:02 14.9 C 65 % 8.39 C
3047 09-08-2011 09:47:02 14.6 C 66 % 8.33 C
3048 09-08-2011 09:59:02 13.5 C 76 % 9.36 C
3049 09-08-2011 10:11:02 13.2 C 80 % 9.83 C
3050 09-08-2011 10:23:02 13.1 C 82 % 10.1 C
Sensor: Nr:Datum:Temp:Feuchte:Taupunkt:
Aussen-T/F 3051 09-08-2011 10:35:02 13.4 C 84 % 10.75 C
3052 09-08-2011 10:47:02 13.3 C 84 % 10.66 C
3053 09-08-2011 10:59:02 13.3 C 84 % 10.66 C
3054 09-08-2011 11:11:02 14.4 C 80 % 11 C
3055 09-08-2011 11:23:02 14.2 C 79 % 10.61 C
3056 09-08-2011 11:35:02 14.8 C 79 % 11.2 C
3057 09-08-2011 11:47:02 16.3 C 71 % 11.04 C
3058 09-08-2011 11:59:02 16.2 C 72 % 11.15 C
3059 09-08-2011 12:11:02 16.2 C 72 % 11.15 C
3060 09-08-2011 12:23:01 16.2 C 72 % 11.15 C
3061 09-08-2011 12:35:02 16.2 C 72 % 11.15 C
3062 09-08-2011 12:47:02 16.2 C 72 % 11.15 C
3063 09-08-2011 12:59:02 16.2 C 72 % 11.15 C
3064 09-08-2011 13:11:02 16.2 C 72 % 11.15 C
3065 09-08-2011 13:23:01 16.2 C 72 % 11.15 C
3066 09-08-2011 13:35:02 16.2 C 72 % 11.15 C
3067 09-08-2011 13:47:02 16.2 C 72 % 11.15 C
3068 09-08-2011 13:59:02 16.2 C 72 % 11.15 C
3069 09-08-2011 14:11:02 16.2 C 72 % 11.15 C
3070 09-08-2011 14:23:02 16.2 C 72 % 11.15 C
3071 09-08-2011 14:35:02 16.2 C 72 % 11.15 C
3072 09-08-2011 14:47:02 16.2 C 72 % 11.15 C
3073 09-08-2011 14:59:02 16.2 C 72 % 11.15 C
3074 09-08-2011 15:11:02 16.2 C 72 % 11.15 C
3075 09-08-2011 15:23:03 16.2 C 72 % 11.15 C
Sensor: Nr:Datum:Temp:Feuchte:Taupunkt:
Aussen-T/F 3076 09-08-2011 15:35:02 16.2 C 72 % 11.15 C
3077 09-08-2011 15:47:02 16.2 C 72 % 11.15 C
3078 09-08-2011 15:59:02 16.2 C 72 % 11.15 C
3079 09-08-2011 16:11:01 16.2 C 72 % 11.15 C
3080 09-08-2011 16:23:01 16.2 C 72 % 11.15 C
3081 09-08-2011 16:35:01 16.2 C 72 % 11.15 C
3082 09-08-2011 16:47:02 16.2 C 72 % 11.15 C
3083 09-08-2011 16:59:02 16.2 C 72 % 11.15 C
3084 09-08-2011 17:11:02 16.2 C 72 % 11.15 C
3085 09-08-2011 17:23:02 16.2 C 72 % 11.15 C
3086 09-08-2011 17:35:02 16.2 C 72 % 11.15 C
3087 09-08-2011 17:47:02 16.2 C 72 % 11.15 C
3088 09-08-2011 17:59:02 17.8 C 50 % 7.25 C
3089 09-08-2011 18:11:01 17.8 C 50 % 7.25 C
3090 09-08-2011 18:23:02 17.8 C 50 % 7.25 C
3091 09-08-2011 18:35:02 19.1 C 37 % 4.08 C
3092 09-08-2011 18:47:02 18.7 C 38 % 4.11 C
3093 09-08-2011 18:59:02 17.4 C 41 % 4.03 C
3094 09-08-2011 19:11:03 16.6 C 45 % 4.63 C
3095 09-08-2011 19:23:02 16.7 C 46 % 5.04 C
3096 09-08-2011 19:35:02 16.7 C 46 % 5.04 C
3097 09-08-2011 19:47:01 16.7 C 46 % 5.04 C
3098 09-08-2011 19:59:01 16.7 C 46 % 5.04 C
3099 09-08-2011 20:11:02 16.7 C 46 % 5.04 C
3100 09-08-2011 20:23:01 16.7 C 46 % 5.04 C
Sensor: Nr:Datum:Temp:Feuchte:Taupunkt:
Aussen-T/F 3101 09-08-2011 20:35:02 16.7 C 46 % 5.04 C
3102 09-08-2011 20:47:01 16.7 C 46 % 5.04 C
3103 09-08-2011 20:59:01 16.7 C 46 % 5.04 C
3104 09-08-2011 21:11:02 16.7 C 46 % 5.04 C
3105 09-08-2011 21:23:01 16.7 C 46 % 5.04 C
3106 09-08-2011 21:35:02 16.7 C 46 % 5.04 C
3107 09-08-2011 21:47:01 16.7 C 46 % 5.04 C
3108 09-08-2011 21:59:01 16.7 C 46 % 5.04 C
3109 09-08-2011 22:11:02 16.7 C 46 % 5.04 C
3110 09-08-2011 22:23:02 16.7 C 46 % 5.04 C
3111 09-08-2011 22:36:03 16.7 C 46 % 5.04 C
3112 09-08-2011 22:48:03 16.7 C 46 % 5.04 C
3113 09-08-2011 23:00:03 16.7 C 46 % 5.04 C
3114 09-08-2011 23:12:03 16.7 C 46 % 5.04 C
3115 09-08-2011 23:24:03 16.7 C 46 % 5.04 C
3116 09-08-2011 23:36:03 16.7 C 46 % 5.04 C
3117 09-08-2011 23:48:03 16.7 C 46 % 5.04 C
3118 10-08-2011 00:00:03 16.7 C 46 % 5.04 C
3119 10-08-2011 00:12:03 16.7 C 46 % 5.04 C
3120 10-08-2011 00:24:03 16.7 C 46 % 5.04 C
3121 10-08-2011 00:36:03 16.7 C 46 % 5.04 C
3122 10-08-2011 00:48:03 16.7 C 46 % 5.04 C
3123 10-08-2011 01:00:03 16.7 C 46 % 5.04 C
3124 10-08-2011 01:12:03 16.7 C 46 % 5.04 C
3125 10-08-2011 01:24:03 16.7 C 46 % 5.04 C
Sensor: Nr:Datum:Temp:Feuchte:Taupunkt:
Aussen-T/F 3126 10-08-2011 01:36:03 16.7 C 46 % 5.04 C
3127 10-08-2011 01:48:03 16.7 C 46 % 5.04 C
3128 10-08-2011 02:00:03 16.7 C 46 % 5.04 C
3129 10-08-2011 02:12:03 16.7 C 46 % 5.04 C
3130 10-08-2011 02:24:03 16.7 C 46 % 5.04 C
3131 10-08-2011 02:36:03 16.7 C 46 % 5.04 C
3132 10-08-2011 02:48:04 16.7 C 46 % 5.04 C
3133 10-08-2011 03:00:04 16.7 C 46 % 5.04 C
3134 10-08-2011 03:12:04 16.7 C 46 % 5.04 C
3135 10-08-2011 03:24:04 16.7 C 46 % 5.04 C
3136 10-08-2011 03:36:04 16.7 C 46 % 5.04 C
3137 10-08-2011 03:48:04 16.7 C 46 % 5.04 C
3138 10-08-2011 04:00:04 16.7 C 46 % 5.04 C
3139 10-08-2011 04:12:04 16.7 C 46 % 5.04 C
3140 10-08-2011 04:24:04 16.7 C 46 % 5.04 C
3141 10-08-2011 04:36:04 16.7 C 46 % 5.04 C
3142 10-08-2011 04:48:04 16.7 C 46 % 5.04 C
3143 10-08-2011 05:00:04 16.7 C 46 % 5.04 C
3144 10-08-2011 05:12:04 16.7 C 46 % 5.04 C
3145 10-08-2011 05:24:04 16.7 C 46 % 5.04 C
3146 10-08-2011 05:36:04 16.7 C 46 % 5.04 C
3147 10-08-2011 05:48:04 16.7 C 46 % 5.04 C
3148 10-08-2011 06:00:04 16.7 C 46 % 5.04 C
3149 10-08-2011 06:12:04 16.7 C 46 % 5.04 C
3150 10-08-2011 06:24:04 16.7 C 46 % 5.04 C
Sensor: Nr:Datum:Temp:Feuchte:Taupunkt:
Aussen-T/F 3151 10-08-2011 06:36:04 9.3 C 80 % 6.03 C
3152 10-08-2011 06:48:04 9.1 C 82 % 6.19 C
3153 10-08-2011 07:00:05 9 C 83 % 6.27 C
3154 10-08-2011 07:12:03 9 C 83 % 6.27 C
3155 10-08-2011 07:24:03 9 C 83 % 6.27 C
3156 10-08-2011 07:36:03 9 C 83 % 6.27 C
3157 10-08-2011 07:48:02 9 C 83 % 6.27 C
3158 10-08-2011 08:00:02 9 C 83 % 6.27 C
3159 10-08-2011 08:12:02 9 C 83 % 6.27 C
3160 10-08-2011 08:24:02 9 C 83 % 6.27 C
3161 10-08-2011 08:36:02 9 C 83 % 6.27 C
3162 10-08-2011 08:48:02 9 C 83 % 6.27 C
3163 10-08-2011 09:00:02 9 C 83 % 6.27 C
3164 10-08-2011 09:12:02 9 C 83 % 6.27 C
3165 10-08-2011 09:24:02 9 C 83 % 6.27 C
3166 10-08-2011 09:36:01 9 C 83 % 6.27 C
3167 10-08-2011 09:48:02 9 C 83 % 6.27 C
3168 10-08-2011 10:00:02 9 C 83 % 6.27 C
3169 10-08-2011 10:12:01 9 C 83 % 6.27 C
3170 10-08-2011 10:24:01 9 C 83 % 6.27 C
3171 10-08-2011 10:36:02 9 C 83 % 6.27 C
3172 10-08-2011 10:48:02 9 C 83 % 6.27 C
3173 10-08-2011 11:00:02 9 C 83 % 6.27 C
3174 10-08-2011 11:12:02 9 C 83 % 6.27 C
3175 10-08-2011 11:24:02 9 C 83 % 6.27 C
Sensor: Nr:Datum:Temp:Feuchte:Taupunkt:
Aussen-T/F 3176 10-08-2011 11:36:02 9 C 83 % 6.27 C
3177 10-08-2011 11:48:02 9 C 83 % 6.27 C
3178 10-08-2011 12:00:02 9 C 83 % 6.27 C
3179 10-08-2011 12:12:02 9 C 83 % 6.27 C
3180 10-08-2011 12:24:02 9 C 83 % 6.27 C
3181 10-08-2011 12:36:02 9 C 83 % 6.27 C
3182 10-08-2011 12:48:02 9 C 83 % 6.27 C
3183 10-08-2011 13:00:02 9 C 83 % 6.27 C
3184 10-08-2011 13:12:02 9 C 83 % 6.27 C
3185 10-08-2011 13:24:02 9 C 83 % 6.27 C
3186 10-08-2011 13:36:02 9 C 83 % 6.27 C
3187 10-08-2011 13:48:02 9 C 83 % 6.27 C
3188 10-08-2011 14:00:02 9 C 83 % 6.27 C
3189 10-08-2011 14:12:02 9 C 83 % 6.27 C
3190 10-08-2011 14:24:02 9 C 83 % 6.27 C
3191 10-08-2011 14:36:01 9 C 83 % 6.27 C
3192 10-08-2011 14:48:02 9 C 83 % 6.27 C
3193 10-08-2011 15:00:02 9 C 83 % 6.27 C
3194 10-08-2011 15:12:01 9 C 83 % 6.27 C
3195 10-08-2011 15:24:02 9 C 83 % 6.27 C
3196 10-08-2011 15:36:02 9 C 83 % 6.27 C
3197 10-08-2011 15:48:02 9 C 83 % 6.27 C
3198 10-08-2011 16:00:03 9 C 83 % 6.27 C
3199 10-08-2011 16:12:02 9 C 83 % 6.27 C
3200 10-08-2011 16:24:02 9 C 83 % 6.27 C
Sensor: Nr:Datum:Temp:Feuchte:Taupunkt:
Aussen-T/F 3201 10-08-2011 16:36:02 9 C 83 % 6.27 C
3202 10-08-2011 16:48:01 9 C 83 % 6.27 C
3203 10-08-2011 17:00:01 9 C 83 % 6.27 C
3204 10-08-2011 17:12:02 9 C 83 % 6.27 C
3205 10-08-2011 17:24:01 9 C 83 % 6.27 C
3206 10-08-2011 17:36:01 9 C 83 % 6.27 C
3207 10-08-2011 17:48:01 9 C 83 % 6.27 C
3208 10-08-2011 18:00:01 9 C 83 % 6.27 C
3209 10-08-2011 18:12:02 9 C 83 % 6.27 C
3210 10-08-2011 18:24:01 9 C 83 % 6.27 C
3211 10-08-2011 18:36:01 9 C 83 % 6.27 C
3212 10-08-2011 22:49:02 9 C 83 % 6.27 C
3213 10-08-2011 23:01:02 9 C 83 % 6.27 C
3214 10-08-2011 23:13:02 9 C 83 % 6.27 C
3215 10-08-2011 23:25:02 9 C 83 % 6.27 C
3216 10-08-2011 23:37:02 9 C 83 % 6.27 C
3217 10-08-2011 23:49:02 9 C 83 % 6.27 C
3218 11-08-2011 00:01:02 9 C 83 % 6.27 C
3219 11-08-2011 00:13:02 9 C 83 % 6.27 C
3220 11-08-2011 00:25:03 9 C 83 % 6.27 C
3221 11-08-2011 00:37:03 9 C 83 % 6.27 C
3222 11-08-2011 00:49:03 9 C 83 % 6.27 C
3223 11-08-2011 01:01:03 9 C 83 % 6.27 C
3224 11-08-2011 01:13:03 9 C 83 % 6.27 C
3225 11-08-2011 01:25:03 9 C 83 % 6.27 C
Sensor: Nr:Datum:Temp:Feuchte:Taupunkt:
Aussen-T/F 3226 11-08-2011 01:37:03 9 C 83 % 6.27 C
3227 11-08-2011 01:49:03 9 C 83 % 6.27 C
3228 11-08-2011 02:01:03 9 C 83 % 6.27 C
3229 11-08-2011 02:13:03 9 C 83 % 6.27 C
3230 11-08-2011 02:25:03 9 C 83 % 6.27 C
3231 11-08-2011 02:37:03 9 C 83 % 6.27 C
3232 11-08-2011 02:49:03 9 C 83 % 6.27 C
3233 11-08-2011 03:01:03 9 C 83 % 6.27 C
3234 11-08-2011 03:13:03 9 C 83 % 6.27 C
3235 11-08-2011 03:25:03 9 C 83 % 6.27 C
3236 11-08-2011 03:37:03 9 C 83 % 6.27 C
3237 11-08-2011 03:49:03 9 C 83 % 6.27 C
3238 11-08-2011 04:01:03 9 C 83 % 6.27 C
3239 11-08-2011 04:13:03 9 C 83 % 6.27 C
3240 11-08-2011 04:25:03 9 C 83 % 6.27 C
3241 11-08-2011 04:37:03 9 C 83 % 6.27 C
3242 11-08-2011 04:49:04 9 C 83 % 6.27 C
3243 11-08-2011 05:01:04 9 C 83 % 6.27 C
3244 11-08-2011 05:13:04 9 C 83 % 6.27 C
3245 11-08-2011 05:25:04 9 C 83 % 6.27 C
3246 11-08-2011 05:37:04 9 C 83 % 6.27 C
3247 11-08-2011 05:49:04 9 C 83 % 6.27 C
3248 11-08-2011 06:01:04 9 C 83 % 6.27 C
3249 11-08-2011 06:13:04 9 C 83 % 6.27 C
3250 11-08-2011 06:25:04 9 C 83 % 6.27 C
Sensor: Nr:Datum:Temp:Feuchte:Taupunkt:
Aussen-T/F 3251 11-08-2011 06:37:04 9 C 83 % 6.27 C
3252 11-08-2011 06:49:04 16.3 C 49 % 5.58 C
3253 11-08-2011 07:01:04 16.4 C 49 % 5.67 C
3254 11-08-2011 07:13:04 16.4 C 49 % 5.67 C
3255 11-08-2011 07:25:04 16.5 C 49 % 5.76 C
3256 11-08-2011 07:37:02 16.4 C 50 % 5.96 C
3257 11-08-2011 07:49:02 16.4 C 50 % 5.96 C
3258 11-08-2011 08:01:02 16.4 C 50 % 5.96 C
3259 11-08-2011 08:13:02 16.4 C 50 % 5.96 C
3260 11-08-2011 08:25:03 16.4 C 50 % 5.96 C
3261 11-08-2011 08:37:02 16.4 C 50 % 5.96 C
3262 11-08-2011 08:49:02 16.4 C 50 % 5.96 C
3263 11-08-2011 09:01:02 16.4 C 50 % 5.96 C
3264 11-08-2011 09:13:02 16.4 C 50 % 5.96 C
3265 11-08-2011 09:25:02 16.4 C 50 % 5.96 C
3266 11-08-2011 09:37:02 16.4 C 50 % 5.96 C
3267 11-08-2011 09:49:02 16.4 C 50 % 5.96 C
3268 11-08-2011 10:01:01 16.4 C 50 % 5.96 C
3269 11-08-2011 10:13:01 16.4 C 50 % 5.96 C
3270 11-08-2011 10:25:02 16.4 C 50 % 5.96 C
3271 11-08-2011 10:37:02 16.4 C 50 % 5.96 C
3272 11-08-2011 10:49:02 16.4 C 50 % 5.96 C
3273 11-08-2011 11:01:02 16.4 C 50 % 5.96 C
3274 11-08-2011 11:13:02 16.4 C 50 % 5.96 C
3275 11-08-2011 11:25:02 16.4 C 50 % 5.96 C
Sensor: Nr:Datum:Temp:Feuchte:Taupunkt:
Aussen-T/F 3276 11-08-2011 11:37:02 16.4 C 50 % 5.96 C
3277 11-08-2011 11:49:02 16.4 C 50 % 5.96 C
3278 11-08-2011 12:01:01 16.4 C 50 % 5.96 C
3279 11-08-2011 12:13:01 16.4 C 50 % 5.96 C
3280 11-08-2011 12:25:02 16.4 C 50 % 5.96 C
3281 11-08-2011 12:37:02 16.4 C 50 % 5.96 C
3282 11-08-2011 12:49:01 16.4 C 50 % 5.96 C
3283 11-08-2011 13:01:02 16.4 C 50 % 5.96 C
3284 11-08-2011 13:13:02 16.4 C 50 % 5.96 C
3285 11-08-2011 13:25:01 16.4 C 50 % 5.96 C
3286 11-08-2011 13:37:02 16.4 C 50 % 5.96 C
3287 11-08-2011 13:49:02 16.4 C 50 % 5.96 C
3288 11-08-2011 14:01:02 16.4 C 50 % 5.96 C
3289 11-08-2011 14:13:02 16.4 C 50 % 5.96 C
3290 11-08-2011 14:25:01 16.4 C 50 % 5.96 C
3291 11-08-2011 14:37:02 16.4 C 50 % 5.96 C
3292 11-08-2011 14:49:02 16.4 C 50 % 5.96 C
3293 11-08-2011 15:01:02 16.4 C 50 % 5.96 C
3294 11-08-2011 15:13:02 16.4 C 50 % 5.96 C
3295 11-08-2011 15:25:01 16.4 C 50 % 5.96 C
3296 11-08-2011 15:37:02 16.4 C 50 % 5.96 C
3297 11-08-2011 15:49:01 16.4 C 50 % 5.96 C
3298 11-08-2011 16:01:02 16.4 C 50 % 5.96 C
3299 11-08-2011 16:13:02 16.4 C 50 % 5.96 C
3300 11-08-2011 16:25:02 16.4 C 50 % 5.96 C
Sensor: Nr:Datum:Temp:Feuchte:Taupunkt:
Aussen-T/F 3301 11-08-2011 16:37:02 16.4 C 50 % 5.96 C
3302 11-08-2011 16:49:02 16.4 C 50 % 5.96 C
3303 11-08-2011 17:01:02 24.2 C 36 % 8.2 C
3304 11-08-2011 17:13:02 24.5 C 39 % 9.65 C
3305 11-08-2011 17:25:02 23.7 C 45 % 11.07 C
3306 11-08-2011 17:37:01 23.2 C 45 % 10.62 C
3307 11-08-2011 17:49:02 24 C 44 % 11 C
3308 11-08-2011 18:01:01 25.1 C 41 % 10.93 C
3309 11-08-2011 18:13:01 25.8 C 36 % 9.61 C
3310 11-08-2011 18:25:02 23.3 C 41 % 9.32 C
3311 11-08-2011 18:37:02 23.3 C 41 % 9.32 C
3312 11-08-2011 18:49:02 21.4 C 45 % 8.99 C
3313 11-08-2011 19:01:02 21.7 C 35 % 5.58 C
3314 11-08-2011 19:13:02 22.5 C 30 % 4.08 C
3315 11-08-2011 19:25:02 21.2 C 40 % 7.08 C
3316 11-08-2011 19:37:02 20.4 C 44 % 7.75 C
3317 11-08-2011 19:49:01 20.5 C 45 % 8.17 C
3318 11-08-2011 20:01:02 20.7 C 40 % 6.63 C
3319 11-08-2011 20:13:02 19.9 C 48 % 8.57 C
3320 11-08-2011 20:25:01 18.9 C 51 % 8.55 C
3321 11-08-2011 20:37:01 18.1 C 54 % 8.65 C
3322 11-08-2011 20:49:01 17.7 C 57 % 9.08 C
3323 11-08-2011 21:01:02 17.6 C 57 % 8.99 C
3324 11-08-2011 21:13:02 17.4 C 57 % 8.8 C
3325 11-08-2011 21:25:01 17 C 60 % 9.19 C
Sensor: Nr:Datum:Temp:Feuchte:Taupunkt:
Aussen-T/F 3326 11-08-2011 21:37:01 16.6 C 61 % 9.06 C
3327 11-08-2011 21:49:01 16.3 C 63 % 9.25 C
3328 11-08-2011 22:01:02 16.5 C 65 % 9.9 C
3329 11-08-2011 22:13:02 16.5 C 65 % 9.9 C
3330 11-08-2011 22:26:02 16.4 C 66 % 10.04 C
3331 11-08-2011 22:38:02 16.6 C 67 % 10.45 C
3332 11-08-2011 22:50:02 17.1 C 64 % 10.24 C
3333 11-08-2011 23:02:02 16.8 C 65 % 10.19 C
3334 11-08-2011 23:14:03 16.1 C 67 % 9.98 C
3335 11-08-2011 23:26:03 16.2 C 69 % 10.51 C
3336 11-08-2011 23:38:03 16.6 C 68 % 10.67 C
3337 11-08-2011 23:50:03 16.7 C 68 % 10.77 C
3338 12-08-2011 00:02:03 16.7 C 67 % 10.55 C
3339 12-08-2011 00:14:03 16.7 C 67 % 10.55 C
3340 12-08-2011 00:26:03 16.6 C 67 % 10.45 C
3341 12-08-2011 00:38:03 16.9 C 66 % 10.51 C
3342 12-08-2011 00:50:03 16.9 C 67 % 10.74 C
3343 12-08-2011 01:02:03 16.9 C 65 % 10.28 C
3344 12-08-2011 01:14:03 16.6 C 67 % 10.45 C
3345 12-08-2011 01:26:03 16.9 C 66 % 10.51 C
3346 12-08-2011 01:38:03 17 C 65 % 10.38 C
3347 12-08-2011 01:50:04 17 C 65 % 10.38 C
3348 12-08-2011 02:02:04 17.1 C 64 % 10.24 C
3349 12-08-2011 02:14:04 17 C 65 % 10.38 C
3350 12-08-2011 02:26:04 16.8 C 66 % 10.42 C
Sensor: Nr:Datum:Temp:Feuchte:Taupunkt:
Aussen-T/F 3351 12-08-2011 02:38:04 16.5 C 66 % 10.13 C
3352 12-08-2011 02:50:04 16.4 C 66 % 10.04 C
3353 12-08-2011 03:02:04 16.7 C 66 % 10.32 C
3354 12-08-2011 03:14:04 17.1 C 60 % 9.28 C
3355 12-08-2011 03:26:04 17.1 C 61 % 9.53 C
3356 12-08-2011 03:38:05 17.2 C 60 % 9.37 C
3357 12-08-2011 03:50:05 17 C 62 % 9.67 C
3358 12-08-2011 04:02:05 16.9 C 63 % 9.82 C
3359 12-08-2011 04:14:05 16.8 C 61 % 9.24 C
3360 12-08-2011 04:26:05 15.7 C 70 % 10.25 C
3361 12-08-2011 04:38:05 15.2 C 76 % 11 C
3362 12-08-2011 04:50:05 15.2 C 78 % 11.39 C
3363 12-08-2011 05:02:05 15 C 79 % 11.39 C
3364 12-08-2011 05:14:05 14.7 C 81 % 11.48 C
3365 12-08-2011 05:26:05 14.7 C 82 % 11.66 C
3366 12-08-2011 05:38:05 14.8 C 83 % 11.94 C
3367 12-08-2011 05:50:05 14.8 C 82 % 11.76 C
3368 12-08-2011 06:02:05 14.8 C 82 % 11.76 C
3369 12-08-2011 06:14:05 15 C 81 % 11.77 C
3370 12-08-2011 06:26:05 14.8 C 81 % 11.57 C
3371 12-08-2011 06:38:02 14.9 C 81 % 11.67 C
3372 12-08-2011 06:50:02 15.1 C 80 % 11.68 C
3373 12-08-2011 07:02:03 15.5 C 79 % 11.88 C
3374 12-08-2011 07:14:03 15.8 C 77 % 11.78 C
3375 12-08-2011 07:26:02 16.2 C 74 % 11.56 C
Sensor: Nr:Datum:Temp:Feuchte:Taupunkt:
Aussen-T/F 3376 12-08-2011 07:38:02 16.3 C 74 % 11.66 C
3377 12-08-2011 07:50:01 16.9 C 71 % 11.61 C
3378 12-08-2011 08:02:01 17 C 67 % 10.83 C
3379 12-08-2011 08:14:01 17 C 68 % 11.06 C
3380 12-08-2011 08:26:01 16.8 C 70 % 11.3 C
3381 12-08-2011 08:38:01 17.3 C 69 % 11.56 C
3382 12-08-2011 08:50:01 17.8 C 67 % 11.6 C
3383 12-08-2011 09:02:01 17.8 C 67 % 11.6 C
3384 12-08-2011 09:14:01 17.9 C 67 % 11.69 C
3385 12-08-2011 09:26:02 17.9 C 66 % 11.46 C
3386 12-08-2011 09:38:01 18.3 C 65 % 11.61 C
3387 12-08-2011 09:50:02 18.3 C 64 % 11.38 C
3388 12-08-2011 10:02:02 18.8 C 63 % 11.61 C
3389 12-08-2011 10:14:02 18.9 C 62 % 11.47 C
3390 12-08-2011 10:26:02 19.1 C 61 % 11.41 C
3391 12-08-2011 10:38:02 18.7 C 63 % 11.52 C
3392 12-08-2011 10:50:02 18.8 C 63 % 11.61 C
3393 12-08-2011 11:02:01 19.1 C 61 % 11.41 C
3394 12-08-2011 11:14:01 18.9 C 63 % 11.71 C
3395 12-08-2011 11:26:02 18.8 C 63 % 11.61 C
3396 12-08-2011 11:38:02 18.9 C 63 % 11.71 C
3397 12-08-2011 11:50:02 19.1 C 62 % 11.65 C
3398 12-08-2011 12:02:02 18.6 C 65 % 11.9 C
3399 12-08-2011 12:14:02 18.5 C 67 % 12.26 C
3400 12-08-2011 12:26:02 18.5 C 69 % 12.71 C
Sensor: Nr:Datum:Temp:Feuchte:Taupunkt:
Aussen-T/F 3401 12-08-2011 12:38:02 17.9 C 75 % 13.41 C
3402 12-08-2011 12:50:02 17.7 C 78 % 13.82 C
3403 12-08-2011 13:02:02 18 C 77 % 13.91 C
3404 12-08-2011 13:14:02 18.3 C 76 % 14 C
3405 12-08-2011 13:26:02 18.7 C 72 % 13.55 C
3406 12-08-2011 13:38:02 19 C 71 % 13.63 C
3407 12-08-2011 13:50:02 19.3 C 70 % 13.69 C
3408 12-08-2011 14:02:02 19.7 C 67 % 13.4 C
3409 12-08-2011 14:14:02 20.6 C 62 % 13.07 C
3410 12-08-2011 14:26:03 21 C 60 % 12.94 C
3411 12-08-2011 14:38:02 20.3 C 62 % 12.79 C
3412 12-08-2011 14:50:02 19.2 C 69 % 13.38 C
3413 12-08-2011 15:02:02 19.3 C 72 % 14.13 C
3414 12-08-2011 15:14:02 19.9 C 72 % 14.7 C
3415 12-08-2011 15:26:02 20.5 C 66 % 13.93 C
3416 12-08-2011 15:38:02 22.4 C 61 % 14.51 C
3417 12-08-2011 15:50:02 22.1 C 58 % 13.45 C
3418 12-08-2011 16:02:02 21.2 C 58 % 12.61 C
3419 12-08-2011 16:14:02 21.9 C 58 % 13.27 C
3420 12-08-2011 16:26:01 22.4 C 54 % 12.64 C
3421 12-08-2011 16:38:02 22.2 C 54 % 12.45 C
3422 12-08-2011 16:50:01 21.5 C 56 % 12.36 C
3423 12-08-2011 17:02:02 20.1 C 62 % 12.6 C
3424 12-08-2011 17:14:02 18.9 C 73 % 13.96 C
3425 12-08-2011 17:26:02 18.6 C 79 % 14.89 C
Sensor: Nr:Datum:Temp:Feuchte:Taupunkt:
Aussen-T/F 3426 12-08-2011 17:38:02 19 C 79 % 15.28 C
3427 12-08-2011 17:50:02 20 C 75 % 15.43 C
3428 12-08-2011 18:02:01 19.3 C 76 % 14.97 C
3429 12-08-2011 18:14:01 18.6 C 77 % 14.49 C
3430 12-08-2011 18:26:02 18.9 C 79 % 15.18 C
3431 12-08-2011 18:38:01 18.8 C 81 % 15.47 C
3432 12-08-2011 18:50:01 18.6 C 82 % 15.47 C
3433 12-08-2011 19:02:01 18.5 C 82 % 15.37 C
3434 12-08-2011 19:14:01 18.2 C 81 % 14.89 C
3435 12-08-2011 19:26:01 18 C 81 % 14.69 C
3436 12-08-2011 19:38:02 18 C 80 % 14.5 C
3437 12-08-2011 19:50:02 18.2 C 78 % 14.3 C
3438 12-08-2011 20:02:02 18 C 79 % 14.31 C
3439 12-08-2011 20:14:02 18.1 C 78 % 14.21 C
3440 12-08-2011 20:26:02 17.6 C 82 % 14.49 C
3441 12-08-2011 20:38:02 17.3 C 83 % 14.39 C
3442 12-08-2011 20:50:02 17.2 C 84 % 14.47 C
3443 12-08-2011 21:02:02 17.1 C 85 % 14.56 C
3444 12-08-2011 21:14:02 17 C 85 % 14.46 C
3445 12-08-2011 21:26:01 17.1 C 85 % 14.56 C
3446 12-08-2011 21:38:02 16.9 C 85 % 14.36 C
3447 12-08-2011 21:50:02 16.8 C 85 % 14.26 C
3448 12-08-2011 22:02:02 16.8 C 84 % 14.08 C
3449 12-08-2011 22:14:02 16.6 C 84 % 13.89 C
3450 12-08-2011 22:26:02 16.5 C 85 % 13.97 C
Sensor: Nr:Datum:Temp:Feuchte:Taupunkt:
Aussen-T/F 3451 12-08-2011 22:39:02 16.6 C 85 % 14.07 C
3452 12-08-2011 22:51:02 16.6 C 85 % 14.07 C
3453 12-08-2011 23:03:02 17 C 83 % 14.09 C
3454 12-08-2011 23:15:02 16.6 C 84 % 13.89 C
3455 12-08-2011 23:27:02 16.5 C 85 % 13.97 C
3456 12-08-2011 23:39:02 16.5 C 85 % 13.97 C
3457 12-08-2011 23:51:02 16.9 C 83 % 14 C
3458 13-08-2011 00:03:02 16.6 C 83 % 13.7 C
3459 13-08-2011 00:15:02 16.3 C 83 % 13.41 C
3460 13-08-2011 00:27:02 16.3 C 84 % 13.59 C
3461 13-08-2011 00:39:02 16.4 C 84 % 13.69 C
3462 13-08-2011 00:51:03 16.5 C 83 % 13.6 C
3463 13-08-2011 01:03:03 16.4 C 83 % 13.51 C
3464 13-08-2011 01:15:03 16.3 C 83 % 13.41 C
3465 13-08-2011 01:27:03 16.4 C 84 % 13.69 C
3466 13-08-2011 01:39:03 16.3 C 84 % 13.59 C
3467 13-08-2011 01:51:03 16.3 C 83 % 13.41 C
3468 13-08-2011 02:03:03 16.3 C 83 % 13.41 C
3469 13-08-2011 02:15:03 16.2 C 82 % 13.13 C
3470 13-08-2011 02:27:03 16.2 C 83 % 13.31 C
3471 13-08-2011 02:39:03 15.8 C 84 % 13.1 C
3472 13-08-2011 02:51:03 15.8 C 85 % 13.28 C
3473 13-08-2011 03:03:03 15.9 C 85 % 13.38 C
3474 13-08-2011 03:15:03 16.2 C 83 % 13.31 C
3475 13-08-2011 03:27:03 16.2 C 83 % 13.31 C
Sensor: Nr:Datum:Temp:Feuchte:Taupunkt:
Aussen-T/F 3476 13-08-2011 03:39:03 16.3 C 82 % 13.22 C
3477 13-08-2011 03:51:03 16.4 C 81 % 13.13 C
3478 13-08-2011 04:03:03 16.2 C 81 % 12.94 C
3479 13-08-2011 04:15:03 16.1 C 81 % 12.84 C
3480 13-08-2011 04:27:03 15.9 C 83 % 13.02 C
3481 13-08-2011 04:39:03 16.1 C 83 % 13.21 C
3482 13-08-2011 04:51:04 16.5 C 82 % 13.42 C
3483 13-08-2011 05:03:04 16.2 C 82 % 13.13 C
3484 13-08-2011 05:15:04 16.4 C 81 % 13.13 C
3485 13-08-2011 05:27:04 16.4 C 81 % 13.13 C
3486 13-08-2011 05:39:04 16.5 C 79 % 12.85 C
3487 13-08-2011 05:51:04 16.4 C 80 % 12.94 C
3488 13-08-2011 06:03:04 16.2 C 81 % 12.94 C
3489 13-08-2011 06:15:04 16.2 C 82 % 13.13 C
3490 13-08-2011 06:27:04 16.1 C 83 % 13.21 C
3491 13-08-2011 06:39:04 16.2 C 83 % 13.31 C
3492 13-08-2011 06:51:04 16.1 C 82 % 13.03 C
3493 13-08-2011 07:03:04 16.1 C 83 % 13.21 C
3494 13-08-2011 07:15:04 16.3 C 83 % 13.41 C
3495 13-08-2011 07:27:04 16.5 C 83 % 13.6 C
3496 13-08-2011 07:39:04 16.6 C 82 % 13.52 C
3497 13-08-2011 07:51:01 17 C 79 % 13.33 C
3498 13-08-2011 08:03:02 17.6 C 75 % 13.12 C
3499 13-08-2011 08:15:01 17.7 C 73 % 12.8 C
3500 13-08-2011 08:27:01 17.7 C 74 % 13.01 C
Sensor: Nr:Datum:Temp:Feuchte:Taupunkt:
Aussen-T/F 3501 13-08-2011 08:39:02 17.7 C 74 % 13.01 C
3502 13-08-2011 08:51:03 17.7 C 76 % 13.42 C
3503 13-08-2011 09:03:02 17.7 C 76 % 13.42 C
3504 13-08-2011 09:15:03 17.9 C 74 % 13.2 C
3505 13-08-2011 09:27:03 18.2 C 72 % 13.07 C
3506 13-08-2011 09:39:02 18.3 C 71 % 12.95 C
3507 13-08-2011 09:51:03 18.8 C 68 % 12.77 C
3508 13-08-2011 10:03:02 18.6 C 69 % 12.8 C
3509 13-08-2011 10:15:02 18.8 C 68 % 12.77 C
3510 13-08-2011 10:27:02 18.9 C 68 % 12.87 C
3511 13-08-2011 10:39:02 19.9 C 61 % 12.16 C
3512 13-08-2011 10:51:02 19.9 C 62 % 12.41 C
3513 13-08-2011 11:03:02 19.8 C 62 % 12.31 C
3514 13-08-2011 11:15:02 20.4 C 61 % 12.63 C
3515 13-08-2011 11:27:03 20.3 C 59 % 12.03 C
3516 13-08-2011 11:39:01 20.2 C 60 % 12.19 C
3517 13-08-2011 11:51:02 20.3 C 60 % 12.29 C
3518 13-08-2011 12:03:01 20.6 C 59 % 12.31 C
3519 13-08-2011 12:15:02 21.7 C 56 % 12.54 C
3520 13-08-2011 12:27:02 22 C 56 % 12.82 C
3521 13-08-2011 12:39:01 22.7 C 52 % 12.34 C
3522 13-08-2011 12:51:02 23.1 C 49 % 11.81 C
3523 13-08-2011 13:03:02 23 C 48 % 11.41 C
3524 13-08-2011 13:15:02 24.1 C 45 % 11.43 C
3525 13-08-2011 13:27:02 23 C 46 % 10.76 C
Sensor: Nr:Datum:Temp:Feuchte:Taupunkt:
Aussen-T/F 3526 13-08-2011 13:39:03 24.1 C 43 % 10.75 C
3527 13-08-2011 13:51:02 24.2 C 43 % 10.84 C
3528 13-08-2011 14:03:01 24.7 C 42 % 10.93 C
3529 13-08-2011 14:15:02 24.6 C 41 % 10.48 C
3530 13-08-2011 14:27:02 24.1 C 43 % 10.75 C
3531 13-08-2011 14:39:01 24.1 C 46 % 11.76 C
3532 13-08-2011 14:51:01 24 C 43 % 10.66 C
3533 13-08-2011 15:03:02 24.7 C 41 % 10.57 C
3534 13-08-2011 15:15:02 24.3 C 41 % 10.21 C
3535 13-08-2011 15:27:02 24.1 C 41 % 10.03 C
3536 13-08-2011 15:39:02 25 C 43 % 11.56 C
3537 13-08-2011 15:51:01 25.7 C 39 % 10.71 C
3538 13-08-2011 16:03:02 24.7 C 39 % 9.82 C
3539 13-08-2011 16:15:02 24.4 C 43 % 11.02 C
3540 13-08-2011 16:27:02 24.3 C 44 % 11.27 C
3541 13-08-2011 16:39:01 23.3 C 45 % 10.71 C
3542 13-08-2011 16:51:01 22.9 C 52 % 12.53 C
3543 13-08-2011 17:03:01 21.6 C 63 % 14.26 C
3544 13-08-2011 17:15:02 20.3 C 67 % 13.97 C
3545 13-08-2011 17:27:02 21.2 C 68 % 15.06 C
3546 13-08-2011 17:39:01 22.2 C 66 % 15.55 C
3547 13-08-2011 17:51:02 21.9 C 62 % 14.29 C
3548 13-08-2011 18:03:01 21.4 C 70 % 15.7 C
3549 13-08-2011 18:15:01 21 C 72 % 15.76 C
3550 13-08-2011 18:27:02 20.3 C 75 % 15.72 C
Sensor: Nr:Datum:Temp:Feuchte:Taupunkt:
Aussen-T/F 3551 13-08-2011 18:39:01 20 C 78 % 16.05 C
3552 13-08-2011 18:51:02 19.9 C 81 % 16.54 C
3553 13-08-2011 19:03:02 20 C 80 % 16.44 C
3554 13-08-2011 19:15:02 19.9 C 81 % 16.54 C
3555 13-08-2011 19:27:02 19.7 C 82 % 16.54 C
3556 13-08-2011 19:39:02 19.4 C 83 % 16.44 C
3557 13-08-2011 19:51:02 19.4 C 83 % 16.44 C
3558 13-08-2011 20:03:02 19 C 83 % 16.05 C
3559 13-08-2011 20:15:01 18.9 C 84 % 16.14 C
3560 13-08-2011 20:27:01 18.7 C 85 % 16.13 C
3561 13-08-2011 20:39:02 18.5 C 85 % 15.93 C
3562 13-08-2011 20:51:02 18.4 C 85 % 15.83 C
3563 13-08-2011 21:03:02 18.3 C 86 % 15.92 C
3564 13-08-2011 21:15:01 18.2 C 86 % 15.82 C
3565 13-08-2011 21:27:01 18.2 C 86 % 15.82 C
3566 13-08-2011 21:39:02 18.1 C 87 % 15.9 C
3567 13-08-2011 21:51:02 18.1 C 87 % 15.9 C
3568 13-08-2011 22:03:02 18 C 87 % 15.8 C
3569 13-08-2011 22:15:02 18 C 87 % 15.8 C
3570 13-08-2011 22:27:02 17.9 C 88 % 15.88 C
3571 13-08-2011 22:39:02 17.7 C 88 % 15.69 C
3572 13-08-2011 22:51:02 17.7 C 88 % 15.69 C
3573 13-08-2011 23:03:02 17.6 C 88 % 15.59 C
3574 13-08-2011 23:15:02 17.6 C 88 % 15.59 C
3575 13-08-2011 23:27:02 17.7 C 88 % 15.69 C
Sensor: Nr:Datum:Temp:Feuchte:Taupunkt:
Aussen-T/F 3576 13-08-2011 23:39:02 17.5 C 88 % 15.49 C
3577 13-08-2011 23:51:02 17.4 C 88 % 15.39 C
3578 14-08-2011 00:03:02 17.5 C 88 % 15.49 C
3579 14-08-2011 00:15:02 17.5 C 88 % 15.49 C
3580 14-08-2011 00:27:03 17.5 C 89 % 15.67 C
3581 14-08-2011 00:39:02 17.5 C 89 % 15.67 C
3582 14-08-2011 00:51:02 17.5 C 89 % 15.67 C
3583 14-08-2011 01:03:01 17.5 C 89 % 15.67 C
3584 14-08-2011 01:15:02 17.5 C 89 % 15.67 C
3585 14-08-2011 01:27:02 17.5 C 89 % 15.67 C
3586 14-08-2011 01:39:02 17.5 C 89 % 15.67 C
3587 14-08-2011 01:51:01 17.4 C 89 % 15.57 C
3588 14-08-2011 02:03:02 17.5 C 89 % 15.67 C
3589 14-08-2011 02:15:01 17.5 C 89 % 15.67 C
3590 14-08-2011 02:27:01 17.4 C 89 % 15.57 C
3591 14-08-2011 02:39:01 17.2 C 89 % 15.37 C
3592 14-08-2011 02:52:03 17.2 C 89 % 15.37 C
3593 14-08-2011 03:04:03 17.1 C 89 % 15.27 C
3594 14-08-2011 03:16:03 17 C 89 % 15.17 C
3595 14-08-2011 03:28:03 17.1 C 89 % 15.27 C
3596 14-08-2011 03:40:02 17.2 C 89 % 15.37 C
3597 14-08-2011 03:52:03 17.2 C 89 % 15.37 C
3598 14-08-2011 04:04:01 17.2 C 89 % 15.37 C
3599 14-08-2011 04:16:02 17.2 C 89 % 15.37 C
3600 14-08-2011 04:28:02 17.2 C 89 % 15.37 C
Sensor: Nr:Datum:Temp:Feuchte:Taupunkt:
Aussen-T/F 3601 14-08-2011 04:40:02 17.2 C 89 % 15.37 C
3602 14-08-2011 04:52:02 16.9 C 89 % 15.08 C
3603 14-08-2011 05:04:02 16.8 C 89 % 14.98 C
3604 14-08-2011 05:16:02 16.7 C 89 % 14.88 C
3605 14-08-2011 05:28:02 17 C 89 % 15.17 C
3606 14-08-2011 05:40:02 17 C 89 % 15.17 C
3607 14-08-2011 05:52:01 17.1 C 89 % 15.27 C
3608 14-08-2011 06:04:02 17.2 C 89 % 15.37 C
3609 14-08-2011 06:16:01 17.2 C 89 % 15.37 C
3610 14-08-2011 06:28:01 17.2 C 89 % 15.37 C
3611 14-08-2011 06:40:01 17.2 C 89 % 15.37 C
3612 14-08-2011 06:52:01 17.4 C 89 % 15.57 C
3613 14-08-2011 07:04:01 17.5 C 89 % 15.67 C
3614 14-08-2011 07:16:02 17.5 C 89 % 15.67 C
3615 14-08-2011 07:28:02 17.6 C 89 % 15.77 C
3616 14-08-2011 07:40:01 17.9 C 89 % 16.06 C
3617 14-08-2011 07:52:03 18.1 C 87 % 15.9 C
3618 14-08-2011 08:04:02 18.5 C 87 % 16.3 C
3619 14-08-2011 08:16:02 18.9 C 86 % 16.51 C
3620 14-08-2011 08:28:02 19.1 C 85 % 16.52 C
3621 14-08-2011 08:40:02 19.4 C 83 % 16.44 C
3622 14-08-2011 08:52:02 19.7 C 77 % 15.56 C
3623 14-08-2011 09:04:01 19.8 C 75 % 15.24 C
3624 14-08-2011 09:16:02 19.7 C 77 % 15.56 C
3625 14-08-2011 09:28:02 19.3 C 78 % 15.37 C
Sensor: Nr:Datum:Temp:Feuchte:Taupunkt:
Aussen-T/F 3626 14-08-2011 09:40:02 19.1 C 81 % 15.76 C
3627 14-08-2011 09:52:01 19.3 C 82 % 16.15 C
3628 14-08-2011 10:04:01 19.7 C 79 % 15.96 C
3629 14-08-2011 10:16:02 20.6 C 76 % 16.22 C
3630 14-08-2011 10:28:02 20.3 C 74 % 15.51 C
3631 14-08-2011 10:40:01 19.9 C 78 % 15.95 C
3632 14-08-2011 10:52:02 19.8 C 78 % 15.85 C
3633 14-08-2011 11:04:01 20.3 C 76 % 15.93 C
3634 14-08-2011 11:16:02 20.8 C 69 % 14.91 C
3635 14-08-2011 11:28:02 21.7 C 63 % 14.35 C
3636 14-08-2011 11:40:01 21.6 C 64 % 14.5 C
3637 14-08-2011 11:52:02 21.9 C 62 % 14.29 C
3638 14-08-2011 12:04:02 21.9 C 61 % 14.04 C
3639 14-08-2011 12:16:02 21.6 C 62 % 14.01 C
3640 14-08-2011 12:28:02 22 C 61 % 14.14 C
3641 14-08-2011 12:40:06 22 C 61 % 14.14 C
3642 14-08-2011 12:52:02 22 C 61 % 14.14 C
3643 14-08-2011 13:04:02 23.1 C 55 % 13.57 C
3644 14-08-2011 13:16:02 22.2 C 57 % 13.28 C
3645 14-08-2011 13:28:02 22.5 C 57 % 13.56 C
3646 14-08-2011 13:40:02 23.3 C 55 % 13.76 C
3647 14-08-2011 13:52:02 23.2 C 54 % 13.38 C
3648 14-08-2011 14:04:03 23.4 C 54 % 13.57 C
3649 14-08-2011 14:16:02 23.4 C 54 % 13.57 C
3650 14-08-2011 14:28:02 24.7 C 49 % 13.27 C
Sensor: Nr:Datum:Temp:Feuchte:Taupunkt:
Aussen-T/F 3651 14-08-2011 14:40:02 22.8 C 55 % 13.29 C
3652 14-08-2011 14:52:01 23.5 C 54 % 13.66 C
3653 14-08-2011 15:04:01 24.2 C 50 % 13.12 C
3654 14-08-2011 15:16:01 21 C 59 % 12.69 C
3655 14-08-2011 15:28:01 19.3 C 73 % 14.34 C
3656 14-08-2011 15:40:01 19.6 C 76 % 15.26 C
3657 14-08-2011 15:52:01 19.7 C 78 % 15.76 C
3658 14-08-2011 16:04:01 19.4 C 79 % 15.66 C
3659 14-08-2011 16:16:02 19.4 C 81 % 16.06 C
3660 14-08-2011 16:28:02 19.1 C 81 % 15.76 C
3661 14-08-2011 16:40:01 18.9 C 82 % 15.76 C
3662 14-08-2011 16:52:01 19.2 C 80 % 15.67 C
3663 14-08-2011 17:04:01 19 C 74 % 14.26 C
3664 14-08-2011 17:16:02 19 C 75 % 14.47 C
3665 14-08-2011 17:28:02 19.8 C 72 % 14.61 C
3666 14-08-2011 17:40:01 19.3 C 76 % 14.97 C
3667 14-08-2011 17:52:02 19.2 C 75 % 14.66 C
3668 14-08-2011 18:04:02 19.1 C 75 % 14.57 C
3669 14-08-2011 18:16:02 18.9 C 78 % 14.98 C
3670 14-08-2011 18:28:03 19.3 C 78 % 15.37 C
3671 14-08-2011 18:40:02 19.5 C 77 % 15.36 C
3672 14-08-2011 18:52:02 19.5 C 76 % 15.16 C
3673 14-08-2011 19:04:01 19.1 C 74 % 14.36 C
3674 14-08-2011 19:16:02 21.6 C 68 % 15.44 C
3675 14-08-2011 19:28:02 19.5 C 69 % 13.66 C
Sensor: Nr:Datum:Temp:Feuchte:Taupunkt:
Aussen-T/F 3676 14-08-2011 19:40:02 19.1 C 73 % 14.15 C
3677 14-08-2011 19:52:02 18.7 C 75 % 14.18 C
3678 14-08-2011 20:04:03 18.1 C 78 % 14.21 C
3679 14-08-2011 20:16:02 17.5 C 81 % 14.2 C
3680 14-08-2011 20:28:02 17.3 C 83 % 14.39 C
3681 14-08-2011 20:40:02 17.3 C 84 % 14.57 C
3682 14-08-2011 20:52:02 17 C 84 % 14.28 C
3683 14-08-2011 21:04:02 16.7 C 84 % 13.98 C
3684 14-08-2011 21:16:01 16.6 C 85 % 14.07 C
3685 14-08-2011 21:28:01 16.4 C 85 % 13.87 C
3686 14-08-2011 21:40:02 16.3 C 86 % 13.95 C
3687 14-08-2011 21:52:02 16.3 C 86 % 13.95 C
3688 14-08-2011 22:04:01 16.4 C 86 % 14.05 C
3689 14-08-2011 22:17:03 16.3 C 87 % 14.13 C
3690 14-08-2011 22:29:03 16.2 C 87 % 14.03 C
3691 14-08-2011 22:41:03 16.3 C 87 % 14.13 C
3692 14-08-2011 22:53:03 16.3 C 87 % 14.13 C
3693 14-08-2011 23:05:03 16.2 C 87 % 14.03 C
3694 14-08-2011 23:17:03 16 C 87 % 13.84 C
3695 14-08-2011 23:29:03 16 C 87 % 13.84 C
3696 14-08-2011 23:41:03 15.9 C 88 % 13.92 C
3697 14-08-2011 23:53:03 16.1 C 88 % 14.11 C

Legende:
   Min
   Max


Maximal/Minimal-Werte vom 15.07.2011 - 14.08.2011

Sensor Min Max Avg
Temp
(Aussen-T/F)
7.1 °C
01-08-2011  05:39:05
33.3 °C
02-08-2011  17:40:03
17.22 °C
Feuchte
(Aussen-T/F)
20 %
15-07-2011  13:34:02
92 %
25-07-2011  06:56:04
66.34 %
Taupunkt
(Aussen-T/F)
-0.98 C
15-07-2011  19:34:02
17.9 C
06-08-2011  09:43:03
9.98 C

Die Daten stammen von einer Davis Vantage Pro 2 Wetter-Station und werden unter Linux mit der Software wview2wettercgi und aufbereitet. Alle Angaben erfolgen ohne Gewähr für ihre Vollständigkeit oder Richtigkeit.
Kontakt: Rainer Krienke krienke@uni-koblenz.de . Meine Webseiten an der Uni Koblenz oder privat.
Version: $Revision: 0.78 $